Darstellungsparameter: Aktuell verwendete Einstellungen:
Skalierung der Graphiken ... ?
xyx+y,   Skalierungsfaktor:      Skalierung: Modus: x, Faktor: 1
Darstellungszeitraum ... ?
Vom - - bis: - -   Zeitraum: 24.04.2019 - 24.07.2019
Min/Max/Avg-Anzeige ... ?
Zeige MMA aktuell
Zeige MMA Monat
Zeige MMA alles
Zeige --A aktuell
Zeige --A Monat
Zeige --A alles
Keine MMA-Anzeige
MMA:
Minimum Maximum Average (ber die Originaldaten)
MMA-Basis: 24.04.2019 - 24.07.2019
Quicknavigation für Darstellung... ?
Tage:      1T, 2T, 3T, 5T -1T -2T -3T -5T +1T +2T +3T +5T
Wochen: 1W, 2W, 3W -1W -2W -3W +1W +2W +3W
Monate: 1M, 3M, 6M -1M -3M -6M +1M +3M +6M
Jahre:    1J, 3J, 5J, 10J -1J -3J -5J -10J +1J +3J +5J +10J
Nutze für die Darstellung ... ?
Originaldaten oder Mittelwerte auf ...
Stundenbasis Tagesbasis Wochenbasis
Monatsbasis Jahresbasis      Datenbasis: Original-Daten
Darstellen als:
Statistik (Auto) Statistik J:M      Darstellung:
Zur Graphik,    zurück zur Übersicht aller Sensoren.
 
Tabellarische Datenbersicht: ?
 
Sensor: Nr:Datum:Temp:Feuchte:Taupunkt:
Aussen-T/F 1 24-04-2019 00:00:00 14.8 C 74 % 10.22 C
2 24-04-2019 00:05:00 14.8 C 74 % 10.22 C
3 24-04-2019 00:10:00 14.7 C 75 % 10.32 C
4 24-04-2019 00:15:00 14.6 C 75 % 10.22 C
5 24-04-2019 00:20:00 14.6 C 75 % 10.22 C
6 24-04-2019 00:25:00 14.5 C 76 % 10.32 C
7 24-04-2019 00:30:00 14.4 C 76 % 10.23 C
8 24-04-2019 00:35:00 14.4 C 76 % 10.23 C
9 24-04-2019 00:40:00 14.3 C 75 % 9.93 C
10 24-04-2019 00:45:00 14.2 C 75 % 9.84 C
11 24-04-2019 00:50:00 14 C 75 % 9.64 C
12 24-04-2019 00:55:00 13.8 C 76 % 9.65 C
13 24-04-2019 01:00:00 13.6 C 76 % 9.45 C
14 24-04-2019 01:05:00 13.3 C 76 % 9.16 C
15 24-04-2019 01:10:00 13.1 C 77 % 9.16 C
16 24-04-2019 01:15:00 12.9 C 77 % 8.97 C
17 24-04-2019 01:20:00 12.8 C 78 % 9.06 C
18 24-04-2019 01:25:00 12.7 C 78 % 8.97 C
19 24-04-2019 01:30:00 12.6 C 79 % 9.06 C
20 24-04-2019 01:35:00 12.4 C 79 % 8.86 C
21 24-04-2019 01:40:00 12.3 C 79 % 8.77 C
22 24-04-2019 01:45:00 12.2 C 80 % 8.86 C
23 24-04-2019 01:50:00 12.1 C 81 % 8.94 C
24 24-04-2019 01:55:00 11.9 C 81 % 8.75 C
25 24-04-2019 02:00:00 11.8 C 81 % 8.65 C
Sensor: Nr:Datum:Temp:Feuchte:Taupunkt:
Aussen-T/F 26 24-04-2019 02:05:00 11.7 C 81 % 8.55 C
27 24-04-2019 02:10:00 11.6 C 81 % 8.45 C
28 24-04-2019 02:15:00 11.6 C 82 % 8.64 C
29 24-04-2019 02:20:00 11.4 C 83 % 8.62 C
30 24-04-2019 02:25:00 11.3 C 83 % 8.52 C
31 24-04-2019 02:30:00 11.3 C 84 % 8.7 C
32 24-04-2019 02:35:00 11.2 C 84 % 8.6 C
33 24-04-2019 02:40:00 11.2 C 84 % 8.6 C
34 24-04-2019 02:45:00 11.1 C 84 % 8.5 C
35 24-04-2019 02:50:00 10.9 C 84 % 8.31 C
36 24-04-2019 02:55:00 10.8 C 85 % 8.38 C
37 24-04-2019 03:00:00 10.8 C 85 % 8.38 C
38 24-04-2019 03:05:00 10.7 C 85 % 8.28 C
39 24-04-2019 03:10:00 10.6 C 86 % 8.36 C
40 24-04-2019 03:15:00 10.5 C 86 % 8.26 C
41 24-04-2019 03:20:00 10.4 C 86 % 8.16 C
42 24-04-2019 03:25:00 10.3 C 86 % 8.06 C
43 24-04-2019 03:30:00 10.3 C 87 % 8.23 C
44 24-04-2019 03:35:00 10.3 C 87 % 8.23 C
45 24-04-2019 03:40:00 10.3 C 87 % 8.23 C
46 24-04-2019 03:45:00 10.2 C 87 % 8.14 C
47 24-04-2019 03:50:00 10.2 C 88 % 8.3 C
48 24-04-2019 03:55:00 10.1 C 88 % 8.21 C
49 24-04-2019 04:00:00 10.1 C 88 % 8.21 C
50 24-04-2019 04:05:00 10 C 88 % 8.11 C
Sensor: Nr:Datum:Temp:Feuchte:Taupunkt:
Aussen-T/F 51 24-04-2019 04:10:00 9.9 C 88 % 8.01 C
52 24-04-2019 04:15:00 9.9 C 89 % 8.17 C
53 24-04-2019 04:20:00 9.9 C 89 % 8.17 C
54 24-04-2019 04:25:00 9.9 C 89 % 8.17 C
55 24-04-2019 04:30:00 9.9 C 89 % 8.17 C
56 24-04-2019 04:35:00 9.8 C 89 % 8.08 C
57 24-04-2019 04:40:00 9.8 C 89 % 8.08 C
58 24-04-2019 04:45:00 9.8 C 89 % 8.08 C
59 24-04-2019 04:50:00 9.9 C 89 % 8.17 C
60 24-04-2019 04:55:00 9.8 C 89 % 8.08 C
61 24-04-2019 05:00:00 9.7 C 89 % 7.98 C
62 24-04-2019 05:05:00 9.6 C 89 % 7.88 C
63 24-04-2019 05:10:00 9.5 C 89 % 7.78 C
64 24-04-2019 05:15:00 9.4 C 90 % 7.85 C
65 24-04-2019 05:20:00 9.4 C 90 % 7.85 C
66 24-04-2019 05:25:00 9.3 C 90 % 7.75 C
67 24-04-2019 05:30:00 9.3 C 90 % 7.75 C
68 24-04-2019 05:35:00 9.2 C 90 % 7.65 C
69 24-04-2019 05:40:00 9.2 C 91 % 7.81 C
70 24-04-2019 05:45:00 9.2 C 91 % 7.81 C
71 24-04-2019 05:50:00 9.2 C 91 % 7.81 C
72 24-04-2019 05:55:00 9.2 C 91 % 7.81 C
73 24-04-2019 06:00:00 9.2 C 91 % 7.81 C
74 24-04-2019 06:05:00 9.3 C 92 % 8.07 C
75 24-04-2019 06:10:00 9.3 C 92 % 8.07 C
Sensor: Nr:Datum:Temp:Feuchte:Taupunkt:
Aussen-T/F 76 24-04-2019 06:15:00 9.2 C 91 % 7.81 C
77 24-04-2019 06:20:00 9.2 C 91 % 7.81 C
78 24-04-2019 06:25:00 9.1 C 91 % 7.71 C
79 24-04-2019 06:30:00 9.1 C 92 % 7.87 C
80 24-04-2019 06:35:00 9.1 C 92 % 7.87 C
81 24-04-2019 06:40:00 9 C 92 % 7.77 C
82 24-04-2019 06:45:00 8.9 C 92 % 7.67 C
83 24-04-2019 06:50:00 8.9 C 92 % 7.67 C
84 24-04-2019 06:55:00 8.9 C 92 % 7.67 C
85 24-04-2019 07:00:00 8.9 C 92 % 7.67 C
86 24-04-2019 07:05:00 9 C 93 % 7.93 C
87 24-04-2019 07:10:00 9.2 C 93 % 8.13 C
88 24-04-2019 07:15:00 9.3 C 93 % 8.23 C
89 24-04-2019 07:20:00 9.4 C 93 % 8.33 C
90 24-04-2019 07:25:00 9.6 C 93 % 8.53 C
91 24-04-2019 07:30:00 9.7 C 93 % 8.62 C
92 24-04-2019 07:35:00 9.8 C 93 % 8.72 C
93 24-04-2019 07:40:00 10 C 93 % 8.92 C
94 24-04-2019 07:45:00 10.2 C 92 % 8.96 C
95 24-04-2019 07:50:00 10.3 C 91 % 8.9 C
96 24-04-2019 07:55:00 10.6 C 91 % 9.19 C
97 24-04-2019 08:00:00 10.7 C 90 % 9.13 C
98 24-04-2019 08:05:00 10.9 C 89 % 9.16 C
99 24-04-2019 08:10:00 11.1 C 89 % 9.36 C
100 24-04-2019 08:15:00 11.2 C 88 % 9.29 C
Sensor: Nr:Datum:Temp:Feuchte:Taupunkt:
Aussen-T/F 101 24-04-2019 08:20:00 11.3 C 88 % 9.39 C
102 24-04-2019 08:25:00 11.4 C 87 % 9.32 C
103 24-04-2019 08:30:00 11.6 C 86 % 9.34 C
104 24-04-2019 08:35:00 11.7 C 86 % 9.44 C
105 24-04-2019 08:40:00 11.9 C 85 % 9.46 C
106 24-04-2019 08:45:00 12.2 C 85 % 9.76 C
107 24-04-2019 08:50:00 12.3 C 85 % 9.85 C
108 24-04-2019 08:55:00 12.4 C 85 % 9.95 C
109 24-04-2019 09:00:00 12.6 C 85 % 10.15 C
110 24-04-2019 09:05:00 12.7 C 85 % 10.25 C
111 24-04-2019 09:10:00 12.8 C 84 % 10.17 C
112 24-04-2019 09:15:00 12.9 C 83 % 10.09 C
113 24-04-2019 09:20:00 13.2 C 83 % 10.38 C
114 24-04-2019 09:25:00 13.3 C 83 % 10.48 C
115 24-04-2019 09:30:00 13.4 C 82 % 10.39 C
116 24-04-2019 09:35:00 13.6 C 80 % 10.22 C
117 24-04-2019 09:40:00 13.7 C 80 % 10.32 C
118 24-04-2019 09:45:00 13.9 C 82 % 10.88 C
119 24-04-2019 09:50:00 14.2 C 81 % 10.99 C
120 24-04-2019 09:55:00 14.4 C 80 % 11 C
121 24-04-2019 10:00:00 14.7 C 78 % 10.91 C
122 24-04-2019 10:05:00 14.9 C 77 % 10.91 C
123 24-04-2019 10:10:00 15.2 C 76 % 11 C
124 24-04-2019 10:15:00 15.6 C 75 % 11.19 C
125 24-04-2019 10:20:00 15.8 C 74 % 11.18 C
Sensor: Nr:Datum:Temp:Feuchte:Taupunkt:
Aussen-T/F 126 24-04-2019 10:25:00 16.1 C 74 % 11.47 C
127 24-04-2019 10:30:00 16.4 C 73 % 11.55 C
128 24-04-2019 10:35:00 16.6 C 72 % 11.54 C
129 24-04-2019 10:40:00 16.8 C 71 % 11.52 C
130 24-04-2019 10:45:00 17.1 C 74 % 12.43 C
131 24-04-2019 10:50:00 17.2 C 75 % 12.73 C
132 24-04-2019 10:55:00 17.3 C 72 % 12.21 C
133 24-04-2019 11:00:00 17.4 C 69 % 11.66 C
134 24-04-2019 11:05:00 17.7 C 69 % 11.95 C
135 24-04-2019 11:10:00 17.9 C 71 % 12.57 C
136 24-04-2019 11:15:00 18.2 C 70 % 12.64 C
137 24-04-2019 11:20:00 18.4 C 69 % 12.61 C
138 24-04-2019 11:25:00 18.6 C 69 % 12.8 C
139 24-04-2019 11:30:00 18.7 C 69 % 12.9 C
140 24-04-2019 11:35:00 18.9 C 66 % 12.41 C
141 24-04-2019 11:40:00 19.3 C 63 % 12.09 C
142 24-04-2019 11:45:00 19.7 C 63 % 12.46 C
143 24-04-2019 11:50:00 19.9 C 62 % 12.41 C
144 24-04-2019 11:55:00 20.1 C 61 % 12.35 C
145 24-04-2019 12:00:00 20.3 C 59 % 12.03 C
146 24-04-2019 12:05:00 20.5 C 55 % 11.16 C
147 24-04-2019 12:10:00 20.7 C 59 % 12.41 C
148 24-04-2019 12:15:00 21 C 53 % 11.06 C
149 24-04-2019 12:20:00 21.4 C 51 % 10.85 C
150 24-04-2019 12:25:00 21.8 C 50 % 10.92 C
Sensor: Nr:Datum:Temp:Feuchte:Taupunkt:
Aussen-T/F 151 24-04-2019 12:30:00 21.9 C 46 % 9.77 C
152 24-04-2019 12:35:00 21.9 C 49 % 10.71 C
153 24-04-2019 12:40:00 21.9 C 45 % 9.44 C
154 24-04-2019 12:45:00 21.9 C 46 % 9.77 C
155 24-04-2019 12:50:00 21.9 C 47 % 10.09 C
156 24-04-2019 12:55:00 21.9 C 47 % 10.09 C
157 24-04-2019 13:00:00 22 C 46 % 9.86 C
158 24-04-2019 13:05:00 22 C 46 % 9.86 C
159 24-04-2019 13:10:00 22.1 C 46 % 9.95 C
160 24-04-2019 13:15:00 22.2 C 48 % 10.67 C
161 24-04-2019 13:20:00 22.3 C 46 % 10.13 C
162 24-04-2019 13:25:00 22.4 C 45 % 9.89 C
163 24-04-2019 13:30:00 22.5 C 45 % 9.98 C
164 24-04-2019 13:35:00 22.5 C 45 % 9.98 C
165 24-04-2019 13:40:00 22.5 C 45 % 9.98 C
166 24-04-2019 13:45:00 22.6 C 45 % 10.07 C
167 24-04-2019 13:50:00 22.7 C 46 % 10.49 C
168 24-04-2019 13:55:00 22.8 C 43 % 9.58 C
169 24-04-2019 14:00:00 22.9 C 43 % 9.67 C
170 24-04-2019 14:05:00 23 C 43 % 9.76 C
171 24-04-2019 14:10:00 23.2 C 42 % 9.59 C
172 24-04-2019 14:15:00 23.3 C 42 % 9.68 C
173 24-04-2019 14:20:00 23.3 C 44 % 10.37 C
174 24-04-2019 14:25:00 23.3 C 41 % 9.32 C
175 24-04-2019 14:30:00 23.4 C 46 % 11.13 C
Sensor: Nr:Datum:Temp:Feuchte:Taupunkt:
Aussen-T/F 176 24-04-2019 14:35:00 23.7 C 43 % 10.39 C
177 24-04-2019 14:40:00 23.8 C 42 % 10.12 C
178 24-04-2019 14:45:00 23.8 C 44 % 10.82 C
179 24-04-2019 14:50:00 23.8 C 41 % 9.76 C
180 24-04-2019 14:55:00 23.9 C 42 % 10.21 C
181 24-04-2019 15:00:00 24.1 C 42 % 10.39 C
182 24-04-2019 15:05:00 24.2 C 41 % 10.12 C
183 24-04-2019 15:10:00 24.3 C 41 % 10.21 C
184 24-04-2019 15:15:00 24.4 C 41 % 10.3 C
185 24-04-2019 15:20:00 24.4 C 39 % 9.56 C
186 24-04-2019 15:25:00 24.6 C 41 % 10.48 C
187 24-04-2019 15:30:00 24.8 C 40 % 10.29 C
188 24-04-2019 15:35:00 25.2 C 37 % 9.48 C
189 24-04-2019 15:40:00 25.3 C 38 % 9.97 C
190 24-04-2019 15:45:00 25.3 C 36 % 9.16 C
191 24-04-2019 15:50:00 25.4 C 36 % 9.25 C
192 24-04-2019 15:55:00 25.7 C 36 % 9.52 C
193 24-04-2019 16:00:00 25.8 C 37 % 10.01 C
194 24-04-2019 16:05:00 26 C 36 % 9.78 C
195 24-04-2019 16:10:00 25.7 C 35 % 9.1 C
196 24-04-2019 16:15:00 25.3 C 37 % 9.57 C
197 24-04-2019 16:20:00 25.1 C 39 % 10.18 C
198 24-04-2019 16:25:00 24.9 C 43 % 11.47 C
199 24-04-2019 16:30:00 24.8 C 40 % 10.29 C
200 24-04-2019 16:35:00 24.7 C 40 % 10.2 C
Sensor: Nr:Datum:Temp:Feuchte:Taupunkt:
Aussen-T/F 201 24-04-2019 16:40:00 24.6 C 41 % 10.48 C
202 24-04-2019 16:45:00 24.7 C 43 % 11.29 C
203 24-04-2019 16:50:00 25.1 C 40 % 10.56 C
204 24-04-2019 16:55:00 25.8 C 40 % 11.18 C
205 24-04-2019 17:00:00 26.3 C 37 % 10.46 C
206 24-04-2019 17:05:00 26.6 C 37 % 10.72 C
207 24-04-2019 17:10:00 26.5 C 38 % 11.03 C
208 24-04-2019 17:15:00 26.2 C 40 % 11.54 C
209 24-04-2019 17:20:00 25.9 C 41 % 11.64 C
210 24-04-2019 17:25:00 25.8 C 41 % 11.56 C
211 24-04-2019 17:30:00 25.7 C 42 % 11.83 C
212 24-04-2019 17:35:00 25.5 C 42 % 11.65 C
213 24-04-2019 17:40:00 25.3 C 42 % 11.47 C
214 24-04-2019 17:45:00 24.9 C 41 % 10.75 C
215 24-04-2019 17:50:00 24.8 C 46 % 12.4 C
216 24-04-2019 17:55:00 24.6 C 44 % 11.54 C
217 24-04-2019 18:00:00 24.4 C 43 % 11.02 C
218 24-04-2019 18:05:00 24.1 C 46 % 11.76 C
219 24-04-2019 18:10:00 23.8 C 47 % 11.82 C
220 24-04-2019 18:15:00 23.6 C 48 % 11.95 C
221 24-04-2019 18:20:00 22.5 C 47 % 10.63 C
222 24-04-2019 18:25:00 19.8 C 54 % 10.23 C
223 24-04-2019 18:30:00 18.2 C 59 % 10.06 C
224 24-04-2019 18:35:00 17.4 C 63 % 10.29 C
225 24-04-2019 18:40:00 16.8 C 65 % 10.19 C
Sensor: Nr:Datum:Temp:Feuchte:Taupunkt:
Aussen-T/F 226 24-04-2019 18:45:00 16.4 C 68 % 10.48 C
227 24-04-2019 18:50:00 16.2 C 70 % 10.73 C
228 24-04-2019 18:55:00 15.8 C 72 % 10.77 C
229 24-04-2019 19:00:00 15.6 C 75 % 11.19 C
230 24-04-2019 19:05:00 15.1 C 76 % 10.9 C
231 24-04-2019 19:10:00 14.7 C 77 % 10.71 C
232 24-04-2019 19:15:00 14.1 C 81 % 10.89 C
233 24-04-2019 19:20:00 13.7 C 81 % 10.5 C
234 24-04-2019 19:25:00 13.5 C 81 % 10.31 C
235 24-04-2019 19:30:00 13.4 C 78 % 9.65 C
236 24-04-2019 19:35:00 13.3 C 76 % 9.16 C
237 24-04-2019 19:40:00 13.3 C 76 % 9.16 C
238 24-04-2019 19:45:00 13.3 C 76 % 9.16 C
239 24-04-2019 19:50:00 13.3 C 74 % 8.77 C
240 24-04-2019 19:55:00 13.2 C 75 % 8.87 C
241 24-04-2019 20:00:00 13 C 77 % 9.07 C
242 24-04-2019 20:05:00 12.5 C 80 % 9.15 C
243 24-04-2019 20:10:00 12.1 C 83 % 9.3 C
244 24-04-2019 20:15:00 11.7 C 85 % 9.27 C
245 24-04-2019 20:20:00 11.4 C 86 % 9.14 C
246 24-04-2019 20:25:00 11.2 C 87 % 9.12 C
247 24-04-2019 20:30:00 11.1 C 88 % 9.19 C
248 24-04-2019 20:35:00 10.9 C 88 % 8.99 C
249 24-04-2019 20:40:00 10.7 C 89 % 8.96 C
250 24-04-2019 20:45:00 10.6 C 89 % 8.86 C
Sensor: Nr:Datum:Temp:Feuchte:Taupunkt:
Aussen-T/F 251 24-04-2019 20:50:00 10.5 C 90 % 8.93 C
252 24-04-2019 20:55:00 10.4 C 90 % 8.83 C
253 24-04-2019 21:00:00 10.3 C 90 % 8.73 C
254 24-04-2019 21:05:00 10.2 C 91 % 8.8 C
255 24-04-2019 21:10:00 10.1 C 91 % 8.7 C
256 24-04-2019 21:15:00 10 C 91 % 8.6 C
257 24-04-2019 21:20:00 9.8 C 91 % 8.4 C
258 24-04-2019 21:25:00 9.8 C 92 % 8.56 C
259 24-04-2019 21:30:00 9.8 C 92 % 8.56 C
260 24-04-2019 21:35:00 9.7 C 92 % 8.46 C
261 24-04-2019 21:40:00 9.7 C 93 % 8.62 C
262 24-04-2019 21:45:00 9.6 C 93 % 8.53 C
263 24-04-2019 21:50:00 9.6 C 93 % 8.53 C
264 24-04-2019 21:55:00 9.6 C 93 % 8.53 C
265 24-04-2019 22:00:00 9.4 C 93 % 8.33 C
266 24-04-2019 22:05:00 9.4 C 93 % 8.33 C
267 24-04-2019 22:10:00 9.3 C 93 % 8.23 C
268 24-04-2019 22:15:00 9.3 C 93 % 8.23 C
269 24-04-2019 22:20:00 9.2 C 93 % 8.13 C
270 24-04-2019 22:25:00 9.2 C 93 % 8.13 C
271 24-04-2019 22:30:00 9.1 C 94 % 8.19 C
272 24-04-2019 22:35:00 9.1 C 94 % 8.19 C
273 24-04-2019 22:40:00 9.1 C 94 % 8.19 C
274 24-04-2019 22:45:00 9.1 C 94 % 8.19 C
275 24-04-2019 22:50:00 8.9 C 94 % 7.99 C
Sensor: Nr:Datum:Temp:Feuchte:Taupunkt:
Aussen-T/F 276 24-04-2019 22:55:00 8.9 C 94 % 7.99 C
277 24-04-2019 23:00:00 8.8 C 94 % 7.89 C
278 24-04-2019 23:05:00 8.8 C 94 % 7.89 C
279 24-04-2019 23:10:00 8.9 C 95 % 8.14 C
280 24-04-2019 23:15:00 8.9 C 95 % 8.14 C
281 24-04-2019 23:20:00 9 C 95 % 8.24 C
282 24-04-2019 23:25:00 9.1 C 95 % 8.34 C
283 24-04-2019 23:30:00 9.1 C 95 % 8.34 C
284 24-04-2019 23:35:00 9.1 C 95 % 8.34 C
285 24-04-2019 23:40:00 9.1 C 95 % 8.34 C
286 24-04-2019 23:45:00 9.1 C 95 % 8.34 C
287 24-04-2019 23:50:00 9.1 C 95 % 8.34 C
288 24-04-2019 23:55:00 9.1 C 95 % 8.34 C
289 25-04-2019 00:00:00 9.1 C 95 % 8.34 C
290 25-04-2019 00:05:00 9.1 C 95 % 8.34 C
291 25-04-2019 00:10:00 9.1 C 95 % 8.34 C
292 25-04-2019 00:15:00 9 C 95 % 8.24 C
293 25-04-2019 00:20:00 9 C 95 % 8.24 C
294 25-04-2019 00:25:00 8.9 C 95 % 8.14 C
295 25-04-2019 00:30:00 8.8 C 95 % 8.04 C
296 25-04-2019 00:35:00 8.8 C 95 % 8.04 C
297 25-04-2019 00:40:00 8.7 C 95 % 7.94 C
298 25-04-2019 00:45:00 8.7 C 95 % 7.94 C
299 25-04-2019 00:50:00 8.6 C 95 % 7.85 C
300 25-04-2019 00:55:00 8.5 C 95 % 7.75 C
Sensor: Nr:Datum:Temp:Feuchte:Taupunkt:
Aussen-T/F 301 25-04-2019 01:00:00 8.4 C 95 % 7.65 C
302 25-04-2019 01:05:00 8.4 C 95 % 7.65 C
303 25-04-2019 01:10:00 8.3 C 95 % 7.55 C
304 25-04-2019 01:15:00 8.3 C 95 % 7.55 C
305 25-04-2019 01:20:00 8.3 C 95 % 7.55 C
306 25-04-2019 01:25:00 8.2 C 95 % 7.45 C
307 25-04-2019 01:30:00 8.1 C 95 % 7.35 C
308 25-04-2019 01:35:00 8.1 C 95 % 7.35 C
309 25-04-2019 01:40:00 8 C 95 % 7.25 C
310 25-04-2019 01:45:00 7.9 C 95 % 7.15 C
311 25-04-2019 01:50:00 7.8 C 95 % 7.05 C
312 25-04-2019 01:55:00 7.7 C 95 % 6.95 C
313 25-04-2019 02:00:00 7.6 C 95 % 6.85 C
314 25-04-2019 02:05:00 7.6 C 95 % 6.85 C
315 25-04-2019 02:10:00 7.5 C 95 % 6.75 C
316 25-04-2019 02:15:00 7.5 C 95 % 6.75 C
317 25-04-2019 02:20:00 7.5 C 95 % 6.75 C
318 25-04-2019 02:25:00 7.5 C 95 % 6.75 C
319 25-04-2019 02:30:00 7.4 C 95 % 6.65 C
320 25-04-2019 02:35:00 7.4 C 95 % 6.65 C
321 25-04-2019 02:40:00 7.4 C 96 % 6.8 C
322 25-04-2019 02:45:00 7.3 C 95 % 6.55 C
323 25-04-2019 02:50:00 7.3 C 96 % 6.71 C
324 25-04-2019 02:55:00 7.4 C 96 % 6.8 C
325 25-04-2019 03:00:00 7.3 C 96 % 6.71 C
Sensor: Nr:Datum:Temp:Feuchte:Taupunkt:
Aussen-T/F 326 25-04-2019 03:05:00 7.3 C 96 % 6.71 C
327 25-04-2019 03:10:00 7.3 C 96 % 6.71 C
328 25-04-2019 03:15:00 7.3 C 96 % 6.71 C
329 25-04-2019 03:20:00 7.2 C 96 % 6.61 C
330 25-04-2019 03:25:00 7.2 C 96 % 6.61 C
331 25-04-2019 03:30:00 7.2 C 96 % 6.61 C
332 25-04-2019 03:35:00 7.2 C 96 % 6.61 C
333 25-04-2019 03:40:00 7.2 C 96 % 6.61 C
334 25-04-2019 03:45:00 7.1 C 96 % 6.51 C
335 25-04-2019 03:50:00 7.1 C 96 % 6.51 C
336 25-04-2019 03:55:00 7 C 96 % 6.41 C
337 25-04-2019 04:00:00 6.9 C 96 % 6.31 C
338 25-04-2019 04:05:00 7 C 96 % 6.41 C
339 25-04-2019 04:10:00 7 C 96 % 6.41 C
340 25-04-2019 04:15:00 7 C 96 % 6.41 C
341 25-04-2019 04:20:00 7 C 96 % 6.41 C
342 25-04-2019 04:25:00 7.1 C 96 % 6.51 C
343 25-04-2019 04:30:00 7.1 C 96 % 6.51 C
344 25-04-2019 04:35:00 7.1 C 96 % 6.51 C
345 25-04-2019 04:40:00 7.1 C 96 % 6.51 C
346 25-04-2019 04:45:00 7.1 C 96 % 6.51 C
347 25-04-2019 04:50:00 7.1 C 96 % 6.51 C
348 25-04-2019 04:55:00 7.2 C 96 % 6.61 C
349 25-04-2019 05:00:00 7.2 C 96 % 6.61 C
350 25-04-2019 05:05:00 7.2 C 96 % 6.61 C
Sensor: Nr:Datum:Temp:Feuchte:Taupunkt:
Aussen-T/F 351 25-04-2019 05:10:00 7.1 C 96 % 6.51 C
352 25-04-2019 05:15:00 7.1 C 96 % 6.51 C
353 25-04-2019 05:20:00 7 C 96 % 6.41 C
354 25-04-2019 05:25:00 7.1 C 96 % 6.51 C
355 25-04-2019 05:30:00 7.1 C 96 % 6.51 C
356 25-04-2019 05:35:00 7.1 C 96 % 6.51 C
357 25-04-2019 05:40:00 7.1 C 96 % 6.51 C
358 25-04-2019 05:45:00 7.1 C 96 % 6.51 C
359 25-04-2019 05:50:00 7.1 C 96 % 6.51 C
360 25-04-2019 05:55:00 7.1 C 96 % 6.51 C
361 25-04-2019 06:00:00 7.1 C 96 % 6.51 C
362 25-04-2019 06:05:00 7 C 96 % 6.41 C
363 25-04-2019 06:10:00 7 C 96 % 6.41 C
364 25-04-2019 06:15:00 7 C 97 % 6.56 C
365 25-04-2019 06:20:00 7 C 97 % 6.56 C
366 25-04-2019 06:25:00 7 C 97 % 6.56 C
367 25-04-2019 06:30:00 7 C 97 % 6.56 C
368 25-04-2019 06:35:00 7 C 97 % 6.56 C
369 25-04-2019 06:40:00 7.1 C 97 % 6.66 C
370 25-04-2019 06:45:00 7.1 C 97 % 6.66 C
371 25-04-2019 06:50:00 7.2 C 97 % 6.76 C
372 25-04-2019 06:55:00 7.2 C 97 % 6.76 C
373 25-04-2019 07:00:00 7.3 C 97 % 6.86 C
374 25-04-2019 07:05:00 7.4 C 97 % 6.96 C
375 25-04-2019 07:10:00 7.5 C 97 % 7.06 C
Sensor: Nr:Datum:Temp:Feuchte:Taupunkt:
Aussen-T/F 376 25-04-2019 07:15:00 7.6 C 97 % 7.16 C
377 25-04-2019 07:20:00 7.6 C 97 % 7.16 C
378 25-04-2019 07:25:00 7.7 C 97 % 7.25 C
379 25-04-2019 07:30:00 7.8 C 97 % 7.35 C
380 25-04-2019 07:35:00 7.9 C 97 % 7.45 C
381 25-04-2019 07:40:00 8.1 C 97 % 7.65 C
382 25-04-2019 07:45:00 8.3 C 97 % 7.85 C
383 25-04-2019 07:50:00 8.5 C 97 % 8.05 C
384 25-04-2019 07:55:00 8.6 C 97 % 8.15 C
385 25-04-2019 08:00:00 8.7 C 97 % 8.25 C
386 25-04-2019 08:05:00 8.8 C 97 % 8.35 C
387 25-04-2019 08:10:00 8.9 C 97 % 8.45 C
388 25-04-2019 08:15:00 9 C 97 % 8.55 C
389 25-04-2019 08:20:00 9.1 C 97 % 8.65 C
390 25-04-2019 08:25:00 9.1 C 97 % 8.65 C
391 25-04-2019 08:30:00 9.2 C 97 % 8.75 C
392 25-04-2019 08:35:00 9.2 C 97 % 8.75 C
393 25-04-2019 08:40:00 9.3 C 97 % 8.85 C
394 25-04-2019 08:45:00 9.4 C 97 % 8.95 C
395 25-04-2019 08:50:00 9.6 C 97 % 9.15 C
396 25-04-2019 08:55:00 9.7 C 97 % 9.25 C
397 25-04-2019 09:00:00 9.8 C 97 % 9.35 C
398 25-04-2019 09:05:00 10.1 C 97 % 9.65 C
399 25-04-2019 09:10:00 10.2 C 97 % 9.75 C
400 25-04-2019 09:15:00 10.2 C 97 % 9.75 C
Sensor: Nr:Datum:Temp:Feuchte:Taupunkt:
Aussen-T/F 401 25-04-2019 09:20:00 10.2 C 97 % 9.75 C
402 25-04-2019 09:25:00 10.3 C 97 % 9.85 C
403 25-04-2019 09:30:00 10.6 C 97 % 10.14 C
404 25-04-2019 09:35:00 10.9 C 97 % 10.44 C
405 25-04-2019 09:40:00 11.2 C 97 % 10.74 C
406 25-04-2019 09:45:00 11.3 C 97 % 10.84 C
407 25-04-2019 09:50:00 11.4 C 97 % 10.94 C
408 25-04-2019 09:55:00 11.4 C 97 % 10.94 C
409 25-04-2019 10:00:00 11.4 C 97 % 10.94 C
410 25-04-2019 10:05:00 11.4 C 97 % 10.94 C
411 25-04-2019 10:10:00 11.2 C 96 % 10.59 C
412 25-04-2019 10:15:00 11.3 C 96 % 10.69 C
413 25-04-2019 10:20:00 11.5 C 96 % 10.88 C
414 25-04-2019 10:25:00 11.6 C 96 % 10.98 C
415 25-04-2019 10:30:00 11.6 C 96 % 10.98 C
416 25-04-2019 10:35:00 11.6 C 96 % 10.98 C
417 25-04-2019 10:40:00 11.7 C 96 % 11.08 C
418 25-04-2019 10:45:00 11.7 C 95 % 10.93 C
419 25-04-2019 10:50:00 11.7 C 95 % 10.93 C
420 25-04-2019 10:55:00 11.8 C 95 % 11.03 C
421 25-04-2019 11:00:00 12 C 94 % 11.07 C
422 25-04-2019 11:05:00 12.2 C 91 % 10.78 C
423 25-04-2019 11:10:00 12.6 C 89 % 10.84 C
424 25-04-2019 11:15:00 13.1 C 87 % 10.99 C
425 25-04-2019 11:20:00 13.6 C 87 % 11.48 C
Sensor: Nr:Datum:Temp:Feuchte:Taupunkt:
Aussen-T/F 426 25-04-2019 11:25:00 13.9 C 79 % 10.32 C
427 25-04-2019 11:30:00 14.4 C 77 % 10.42 C
428 25-04-2019 11:35:00 14.8 C 75 % 10.42 C
429 25-04-2019 11:40:00 15.2 C 74 % 10.6 C
430 25-04-2019 11:45:00 15.6 C 69 % 9.94 C
431 25-04-2019 11:50:00 16 C 67 % 9.88 C
432 25-04-2019 11:55:00 16.3 C 67 % 10.17 C
433 25-04-2019 12:00:00 16.4 C 66 % 10.04 C
434 25-04-2019 12:05:00 16.5 C 64 % 9.67 C
435 25-04-2019 12:10:00 16.6 C 65 % 10 C
436 25-04-2019 12:15:00 16.7 C 64 % 9.86 C
437 25-04-2019 12:20:00 16.9 C 64 % 10.05 C
438 25-04-2019 12:25:00 17 C 62 % 9.67 C
439 25-04-2019 12:30:00 17.1 C 66 % 10.7 C
440 25-04-2019 12:35:00 17.1 C 64 % 10.24 C
441 25-04-2019 12:40:00 17.3 C 64 % 10.43 C
442 25-04-2019 12:45:00 17.3 C 63 % 10.2 C
443 25-04-2019 12:50:00 17.3 C 63 % 10.2 C
444 25-04-2019 12:55:00 17.4 C 63 % 10.29 C
445 25-04-2019 13:00:00 17.5 C 62 % 10.15 C
446 25-04-2019 13:05:00 17.7 C 62 % 10.33 C
447 25-04-2019 13:10:00 17.8 C 62 % 10.43 C
448 25-04-2019 13:15:00 18.1 C 62 % 10.71 C
449 25-04-2019 13:20:00 18.3 C 60 % 10.41 C
450 25-04-2019 13:25:00 18.6 C 58 % 10.18 C
Sensor: Nr:Datum:Temp:Feuchte:Taupunkt:
Aussen-T/F 451 25-04-2019 13:30:00 18.8 C 58 % 10.37 C
452 25-04-2019 13:35:00 18.9 C 57 % 10.2 C
453 25-04-2019 13:40:00 19.1 C 57 % 10.39 C
454 25-04-2019 13:45:00 19.3 C 56 % 10.31 C
455 25-04-2019 13:50:00 19.5 C 55 % 10.23 C
456 25-04-2019 13:55:00 19.6 C 56 % 10.59 C
457 25-04-2019 14:00:00 19.7 C 55 % 10.41 C
458 25-04-2019 14:05:00 19.8 C 53 % 9.95 C
459 25-04-2019 14:10:00 19.8 C 54 % 10.23 C
460 25-04-2019 14:15:00 19.9 C 54 % 10.32 C
461 25-04-2019 14:20:00 20.1 C 53 % 10.23 C
462 25-04-2019 14:25:00 20.3 C 55 % 10.97 C
463 25-04-2019 14:30:00 20.4 C 51 % 9.93 C
464 25-04-2019 14:35:00 20.4 C 52 % 10.22 C
465 25-04-2019 14:40:00 20.6 C 52 % 10.41 C
466 25-04-2019 14:45:00 20.6 C 54 % 10.97 C
467 25-04-2019 14:50:00 20.7 C 50 % 9.91 C
468 25-04-2019 14:55:00 20.8 C 53 % 10.88 C
469 25-04-2019 15:00:00 20.9 C 51 % 10.39 C
470 25-04-2019 15:05:00 20.9 C 50 % 10.1 C
471 25-04-2019 15:10:00 21.1 C 51 % 10.58 C
472 25-04-2019 15:15:00 21.2 C 49 % 10.07 C
473 25-04-2019 15:20:00 21.3 C 48 % 9.85 C
474 25-04-2019 15:25:00 21.3 C 49 % 10.16 C
475 25-04-2019 15:30:00 21.6 C 50 % 10.74 C
Sensor: Nr:Datum:Temp:Feuchte:Taupunkt:
Aussen-T/F 476 25-04-2019 15:35:00 21.7 C 48 % 10.22 C
477 25-04-2019 15:40:00 21.9 C 50 % 11.01 C
478 25-04-2019 15:45:00 22.1 C 46 % 9.95 C
479 25-04-2019 15:50:00 22.1 C 53 % 12.08 C
480 25-04-2019 15:55:00 22.2 C 47 % 10.36 C
481 25-04-2019 16:00:00 22.2 C 47 % 10.36 C
482 25-04-2019 16:05:00 22.2 C 49 % 10.98 C
483 25-04-2019 16:10:00 22.2 C 46 % 10.04 C
484 25-04-2019 16:15:00 22.3 C 49 % 11.08 C
485 25-04-2019 16:20:00 22.3 C 55 % 12.83 C
486 25-04-2019 16:25:00 22.3 C 47 % 10.45 C
487 25-04-2019 16:30:00 22.3 C 52 % 11.97 C
488 25-04-2019 16:35:00 22.3 C 61 % 14.42 C
489 25-04-2019 16:40:00 22.1 C 64 % 14.97 C
490 25-04-2019 16:45:00 21.9 C 61 % 14.04 C
491 25-04-2019 16:50:00 21.8 C 64 % 14.69 C
492 25-04-2019 16:55:00 21.6 C 65 % 14.74 C
493 25-04-2019 17:00:00 21.3 C 66 % 14.69 C
494 25-04-2019 17:05:00 21.2 C 67 % 14.83 C
495 25-04-2019 17:10:00 21.3 C 70 % 15.61 C
496 25-04-2019 17:15:00 21.6 C 70 % 15.89 C
497 25-04-2019 17:20:00 21.6 C 58 % 12.99 C
498 25-04-2019 17:25:00 21.4 C 56 % 12.27 C
499 25-04-2019 17:30:00 21.4 C 57 % 12.53 C
500 25-04-2019 17:35:00 21.3 C 54 % 11.62 C
Sensor: Nr:Datum:Temp:Feuchte:Taupunkt:
Aussen-T/F 501 25-04-2019 17:40:00 21.2 C 53 % 11.25 C
502 25-04-2019 17:45:00 21.2 C 53 % 11.25 C
503 25-04-2019 17:50:00 21.3 C 53 % 11.34 C
504 25-04-2019 17:55:00 21.4 C 54 % 11.71 C
505 25-04-2019 18:00:00 21.4 C 54 % 11.71 C
506 25-04-2019 18:05:00 21.2 C 54 % 11.53 C
507 25-04-2019 18:10:00 21.2 C 56 % 12.08 C
508 25-04-2019 18:15:00 21.1 C 56 % 11.99 C
509 25-04-2019 18:20:00 20.9 C 55 % 11.53 C
510 25-04-2019 18:25:00 20.8 C 55 % 11.43 C
511 25-04-2019 18:30:00 20.8 C 56 % 11.71 C
512 25-04-2019 18:35:00 20.9 C 53 % 10.97 C
513 25-04-2019 18:40:00 20.5 C 53 % 10.6 C
514 25-04-2019 18:45:00 19.9 C 54 % 10.32 C
515 25-04-2019 18:50:00 19.3 C 56 % 10.31 C
516 25-04-2019 18:55:00 18.7 C 57 % 10.02 C
517 25-04-2019 19:00:00 18.3 C 58 % 9.9 C
518 25-04-2019 19:05:00 17.9 C 58 % 9.53 C
519 25-04-2019 19:10:00 17.6 C 59 % 9.5 C
520 25-04-2019 19:15:00 17.3 C 61 % 9.71 C
521 25-04-2019 19:20:00 17 C 61 % 9.43 C
522 25-04-2019 19:25:00 16.8 C 61 % 9.24 C
523 25-04-2019 19:30:00 16.6 C 63 % 9.53 C
524 25-04-2019 19:35:00 16.4 C 62 % 9.11 C
525 25-04-2019 19:40:00 16.3 C 63 % 9.25 C
Sensor: Nr:Datum:Temp:Feuchte:Taupunkt:
Aussen-T/F 526 25-04-2019 19:45:00 16.2 C 63 % 9.16 C
527 25-04-2019 19:50:00 16.1 C 63 % 9.06 C
528 25-04-2019 19:55:00 16.1 C 65 % 9.53 C
529 25-04-2019 20:00:00 15.9 C 64 % 9.11 C
530 25-04-2019 20:05:00 15.8 C 65 % 9.24 C
531 25-04-2019 20:10:00 15.7 C 66 % 9.37 C
532 25-04-2019 20:15:00 15.4 C 65 % 8.86 C
533 25-04-2019 20:20:00 15.3 C 65 % 8.77 C
534 25-04-2019 20:25:00 15.2 C 65 % 8.67 C
535 25-04-2019 20:30:00 15 C 67 % 8.93 C
536 25-04-2019 20:35:00 14.9 C 67 % 8.83 C
537 25-04-2019 20:40:00 14.8 C 68 % 8.96 C
538 25-04-2019 20:45:00 14.6 C 69 % 8.98 C
539 25-04-2019 20:50:00 14.5 C 70 % 9.1 C
540 25-04-2019 20:55:00 14.4 C 70 % 9 C
541 25-04-2019 21:00:00 14.3 C 71 % 9.12 C
542 25-04-2019 21:05:00 14.2 C 72 % 9.23 C
543 25-04-2019 21:10:00 14.1 C 71 % 8.93 C
544 25-04-2019 21:15:00 14 C 71 % 8.83 C
545 25-04-2019 21:20:00 13.9 C 72 % 8.94 C
546 25-04-2019 21:25:00 13.9 C 72 % 8.94 C
547 25-04-2019 21:30:00 13.8 C 72 % 8.85 C
548 25-04-2019 21:35:00 13.8 C 73 % 9.05 C
549 25-04-2019 21:40:00 13.7 C 74 % 9.15 C
550 25-04-2019 21:45:00 13.6 C 73 % 8.86 C
Sensor: Nr:Datum:Temp:Feuchte:Taupunkt:
Aussen-T/F 551 25-04-2019 21:50:00 13.5 C 73 % 8.76 C
552 25-04-2019 21:55:00 13.4 C 74 % 8.87 C
553 25-04-2019 22:00:00 13.4 C 73 % 8.66 C
554 25-04-2019 22:05:00 13.3 C 74 % 8.77 C
555 25-04-2019 22:10:00 13.3 C 75 % 8.97 C
556 25-04-2019 22:15:00 13.2 C 75 % 8.87 C
557 25-04-2019 22:20:00 13.2 C 75 % 8.87 C
558 25-04-2019 22:25:00 13.1 C 75 % 8.77 C
559 25-04-2019 22:30:00 13 C 75 % 8.68 C
560 25-04-2019 22:35:00 12.9 C 75 % 8.58 C
561 25-04-2019 22:40:00 12.8 C 74 % 8.29 C
562 25-04-2019 22:45:00 12.8 C 75 % 8.48 C
563 25-04-2019 22:50:00 12.8 C 75 % 8.48 C
564 25-04-2019 22:55:00 12.7 C 75 % 8.39 C
565 25-04-2019 23:00:00 12.7 C 76 % 8.58 C
566 25-04-2019 23:05:00 12.7 C 76 % 8.58 C
567 25-04-2019 23:10:00 12.6 C 77 % 8.68 C
568 25-04-2019 23:15:00 12.6 C 77 % 8.68 C
569 25-04-2019 23:20:00 12.5 C 78 % 8.77 C
570 25-04-2019 23:25:00 12.4 C 78 % 8.68 C
571 25-04-2019 23:30:00 12.4 C 79 % 8.86 C
572 25-04-2019 23:35:00 12.4 C 79 % 8.86 C
573 25-04-2019 23:40:00 12.3 C 80 % 8.95 C
574 25-04-2019 23:45:00 12.2 C 80 % 8.86 C
575 25-04-2019 23:50:00 12.2 C 80 % 8.86 C
Sensor: Nr:Datum:Temp:Feuchte:Taupunkt:
Aussen-T/F 576 25-04-2019 23:55:00 12.1 C 80 % 8.76 C
577 26-04-2019 00:00:00 11.9 C 80 % 8.56 C
578 26-04-2019 00:05:00 11.8 C 80 % 8.47 C
579 26-04-2019 00:10:00 11.7 C 81 % 8.55 C
580 26-04-2019 00:15:00 11.6 C 81 % 8.45 C
581 26-04-2019 00:20:00 11.4 C 82 % 8.44 C
582 26-04-2019 00:25:00 11.3 C 82 % 8.34 C
583 26-04-2019 00:30:00 11.2 C 83 % 8.42 C
584 26-04-2019 00:35:00 11.2 C 83 % 8.42 C
585 26-04-2019 00:40:00 11.2 C 83 % 8.42 C
586 26-04-2019 00:45:00 11.1 C 83 % 8.33 C
587 26-04-2019 00:50:00 11.2 C 84 % 8.6 C
588 26-04-2019 00:55:00 11.1 C 84 % 8.5 C
589 26-04-2019 01:00:00 11.1 C 84 % 8.5 C
590 26-04-2019 01:05:00 11.1 C 84 % 8.5 C
591 26-04-2019 01:10:00 11 C 85 % 8.58 C
592 26-04-2019 01:15:00 11 C 85 % 8.58 C
593 26-04-2019 01:20:00 10.9 C 85 % 8.48 C
594 26-04-2019 01:25:00 10.9 C 86 % 8.65 C
595 26-04-2019 01:30:00 10.9 C 86 % 8.65 C
596 26-04-2019 01:35:00 10.9 C 86 % 8.65 C
597 26-04-2019 01:40:00 10.9 C 85 % 8.48 C
598 26-04-2019 01:45:00 10.9 C 85 % 8.48 C
599 26-04-2019 01:50:00 10.8 C 86 % 8.56 C
600 26-04-2019 01:55:00 10.8 C 86 % 8.56 C
Sensor: Nr:Datum:Temp:Feuchte:Taupunkt:
Aussen-T/F 601 26-04-2019 02:00:00 10.8 C 86 % 8.56 C
602 26-04-2019 02:05:00 10.8 C 85 % 8.38 C
603 26-04-2019 02:10:00 10.9 C 85 % 8.48 C
604 26-04-2019 02:15:00 10.9 C 84 % 8.31 C
605 26-04-2019 02:20:00 11 C 84 % 8.4 C
606 26-04-2019 02:25:00 11.1 C 83 % 8.33 C
607 26-04-2019 02:30:00 11.1 C 84 % 8.5 C
608 26-04-2019 02:35:00 11.1 C 84 % 8.5 C
609 26-04-2019 02:40:00 11.1 C 84 % 8.5 C
610 26-04-2019 02:45:00 11.1 C 84 % 8.5 C
611 26-04-2019 02:50:00 11.1 C 84 % 8.5 C
612 26-04-2019 02:55:00 11.1 C 84 % 8.5 C
613 26-04-2019 03:00:00 11.1 C 83 % 8.33 C
614 26-04-2019 03:05:00 11.1 C 84 % 8.5 C
615 26-04-2019 03:10:00 11.1 C 83 % 8.33 C
616 26-04-2019 03:15:00 11.1 C 83 % 8.33 C
617 26-04-2019 03:20:00 11.1 C 83 % 8.33 C
618 26-04-2019 03:25:00 11 C 83 % 8.23 C
619 26-04-2019 03:30:00 10.9 C 83 % 8.13 C
620 26-04-2019 03:35:00 10.9 C 83 % 8.13 C
621 26-04-2019 03:40:00 10.9 C 83 % 8.13 C
622 26-04-2019 03:45:00 10.9 C 83 % 8.13 C
623 26-04-2019 03:50:00 10.9 C 83 % 8.13 C
624 26-04-2019 03:55:00 10.8 C 83 % 8.03 C
625 26-04-2019 04:00:00 10.9 C 84 % 8.31 C
Sensor: Nr:Datum:Temp:Feuchte:Taupunkt:
Aussen-T/F 626 26-04-2019 04:05:00 10.8 C 84 % 8.21 C
627 26-04-2019 04:10:00 10.8 C 84 % 8.21 C
628 26-04-2019 04:15:00 10.8 C 84 % 8.21 C
629 26-04-2019 04:20:00 10.8 C 84 % 8.21 C
630 26-04-2019 04:25:00 10.8 C 84 % 8.21 C
631 26-04-2019 04:30:00 10.8 C 83 % 8.03 C
632 26-04-2019 04:35:00 10.8 C 83 % 8.03 C
633 26-04-2019 04:40:00 10.8 C 84 % 8.21 C
634 26-04-2019 04:45:00 10.8 C 83 % 8.03 C
635 26-04-2019 04:50:00 10.8 C 84 % 8.21 C
636 26-04-2019 04:55:00 10.7 C 83 % 7.93 C
637 26-04-2019 05:00:00 10.7 C 83 % 7.93 C
638 26-04-2019 05:05:00 10.7 C 84 % 8.11 C
639 26-04-2019 05:10:00 10.7 C 84 % 8.11 C
640 26-04-2019 05:15:00 10.7 C 85 % 8.28 C
641 26-04-2019 05:20:00 10.6 C 86 % 8.36 C
642 26-04-2019 05:25:00 10.4 C 87 % 8.33 C
643 26-04-2019 05:30:00 10.3 C 88 % 8.4 C
644 26-04-2019 05:35:00 10.3 C 88 % 8.4 C
645 26-04-2019 05:40:00 10.2 C 89 % 8.47 C
646 26-04-2019 05:45:00 10.1 C 89 % 8.37 C
647 26-04-2019 05:50:00 10.1 C 90 % 8.54 C
648 26-04-2019 05:55:00 10 C 90 % 8.44 C
649 26-04-2019 06:00:00 9.9 C 91 % 8.5 C
650 26-04-2019 06:05:00 9.8 C 91 % 8.4 C
Sensor: Nr:Datum:Temp:Feuchte:Taupunkt:
Aussen-T/F 651 26-04-2019 06:10:00 9.8 C 91 % 8.4 C
652 26-04-2019 06:15:00 9.7 C 92 % 8.46 C
653 26-04-2019 06:20:00 9.7 C 92 % 8.46 C
654 26-04-2019 06:25:00 9.6 C 92 % 8.37 C
655 26-04-2019 06:30:00 9.6 C 92 % 8.37 C
656 26-04-2019 06:35:00 9.6 C 92 % 8.37 C
657 26-04-2019 06:40:00 9.5 C 92 % 8.27 C
658 26-04-2019 06:45:00 9.5 C 93 % 8.43 C
659 26-04-2019 06:50:00 9.4 C 93 % 8.33 C
660 26-04-2019 06:55:00 9.4 C 93 % 8.33 C
661 26-04-2019 07:00:00 9.4 C 93 % 8.33 C
662 26-04-2019 07:05:00 9.4 C 94 % 8.48 C
663 26-04-2019 07:10:00 9.5 C 94 % 8.58 C
664 26-04-2019 07:15:00 9.5 C 94 % 8.58 C
665 26-04-2019 07:20:00 9.5 C 94 % 8.58 C
666 26-04-2019 07:25:00 9.4 C 94 % 8.48 C
667 26-04-2019 07:30:00 9.5 C 94 % 8.58 C
668 26-04-2019 07:35:00 9.6 C 94 % 8.68 C
669 26-04-2019 07:40:00 9.6 C 94 % 8.68 C
670 26-04-2019 07:45:00 9.6 C 94 % 8.68 C
671 26-04-2019 07:50:00 9.5 C 94 % 8.58 C
672 26-04-2019 07:55:00 9.5 C 94 % 8.58 C
673 26-04-2019 08:00:00 9.5 C 94 % 8.58 C
674 26-04-2019 08:05:00 9.5 C 94 % 8.58 C
675 26-04-2019 08:10:00 9.5 C 94 % 8.58 C
Sensor: Nr:Datum:Temp:Feuchte:Taupunkt:
Aussen-T/F 676 26-04-2019 08:15:00 9.5 C 94 % 8.58 C
677 26-04-2019 08:20:00 9.5 C 95 % 8.74 C
678 26-04-2019 08:25:00 9.5 C 95 % 8.74 C
679 26-04-2019 08:30:00 9.5 C 95 % 8.74 C
680 26-04-2019 08:35:00 9.5 C 95 % 8.74 C
681 26-04-2019 08:40:00 9.5 C 95 % 8.74 C
682 26-04-2019 08:45:00 9.5 C 95 % 8.74 C
683 26-04-2019 08:50:00 9.5 C 95 % 8.74 C
684 26-04-2019 08:55:00 9.6 C 95 % 8.84 C
685 26-04-2019 09:00:00 9.7 C 95 % 8.94 C
686 26-04-2019 09:05:00 9.8 C 95 % 9.04 C
687 26-04-2019 09:10:00 9.8 C 95 % 9.04 C
688 26-04-2019 09:15:00 9.9 C 95 % 9.14 C
689 26-04-2019 09:20:00 10 C 95 % 9.24 C
690 26-04-2019 09:25:00 10.1 C 95 % 9.34 C
691 26-04-2019 09:30:00 10.1 C 95 % 9.34 C
692 26-04-2019 09:35:00 10.1 C 95 % 9.34 C
693 26-04-2019 09:40:00 10.1 C 95 % 9.34 C
694 26-04-2019 09:45:00 10.1 C 95 % 9.34 C
695 26-04-2019 09:50:00 10.1 C 95 % 9.34 C
696 26-04-2019 09:55:00 10.1 C 95 % 9.34 C
697 26-04-2019 10:00:00 10.2 C 95 % 9.44 C
698 26-04-2019 10:05:00 10.2 C 95 % 9.44 C
699 26-04-2019 10:10:00 10.2 C 95 % 9.44 C
700 26-04-2019 10:15:00 10.3 C 95 % 9.54 C
Sensor: Nr:Datum:Temp:Feuchte:Taupunkt:
Aussen-T/F 701 26-04-2019 10:20:00 10.2 C 95 % 9.44 C
702 26-04-2019 10:25:00 10.3 C 95 % 9.54 C
703 26-04-2019 10:30:00 10.2 C 95 % 9.44 C
704 26-04-2019 10:35:00 10.3 C 95 % 9.54 C
705 26-04-2019 10:40:00 10.3 C 95 % 9.54 C
706 26-04-2019 10:45:00 10.4 C 95 % 9.63 C
707 26-04-2019 10:50:00 10.3 C 94 % 9.38 C
708 26-04-2019 10:55:00 10.4 C 95 % 9.63 C
709 26-04-2019 11:00:00 10.6 C 95 % 9.83 C
710 26-04-2019 11:05:00 10.7 C 95 % 9.93 C
711 26-04-2019 11:10:00 10.8 C 95 % 10.03 C
712 26-04-2019 11:15:00 10.9 C 94 % 9.97 C
713 26-04-2019 11:20:00 11 C 94 % 10.07 C
714 26-04-2019 11:25:00 10.9 C 93 % 9.81 C
715 26-04-2019 11:30:00 10.9 C 93 % 9.81 C
716 26-04-2019 11:35:00 10.9 C 93 % 9.81 C
717 26-04-2019 11:40:00 10.9 C 92 % 9.65 C
718 26-04-2019 11:45:00 10.9 C 93 % 9.81 C
719 26-04-2019 11:50:00 11 C 93 % 9.91 C
720 26-04-2019 11:55:00 11.1 C 92 % 9.85 C
721 26-04-2019 12:00:00 11.1 C 92 % 9.85 C
722 26-04-2019 12:05:00 11.2 C 92 % 9.95 C
723 26-04-2019 12:10:00 11.4 C 92 % 10.15 C
724 26-04-2019 12:15:00 11.7 C 91 % 10.28 C
725 26-04-2019 12:20:00 11.9 C 91 % 10.48 C
Sensor: Nr:Datum:Temp:Feuchte:Taupunkt:
Aussen-T/F 726 26-04-2019 12:25:00 11.9 C 88 % 9.98 C
727 26-04-2019 12:30:00 12.2 C 89 % 10.44 C
728 26-04-2019 12:35:00 12.3 C 88 % 10.37 C
729 26-04-2019 12:40:00 12.4 C 87 % 10.3 C
730 26-04-2019 12:45:00 12.4 C 86 % 10.13 C
731 26-04-2019 12:50:00 12.5 C 84 % 9.87 C
732 26-04-2019 12:55:00 12.5 C 84 % 9.87 C
733 26-04-2019 13:00:00 12.5 C 84 % 9.87 C
734 26-04-2019 13:05:00 12.6 C 84 % 9.97 C
735 26-04-2019 13:10:00 12.7 C 83 % 9.89 C
736 26-04-2019 13:15:00 12.9 C 85 % 10.44 C
737 26-04-2019 13:20:00 12.9 C 82 % 9.9 C
738 26-04-2019 13:25:00 13.1 C 83 % 10.28 C
739 26-04-2019 13:30:00 13.1 C 82 % 10.1 C
740 26-04-2019 13:35:00 13.1 C 82 % 10.1 C
741 26-04-2019 13:40:00 13.2 C 82 % 10.2 C
742 26-04-2019 13:45:00 13.3 C 81 % 10.11 C
743 26-04-2019 13:50:00 13.3 C 81 % 10.11 C
744 26-04-2019 13:55:00 13.4 C 81 % 10.21 C
745 26-04-2019 14:00:00 13.3 C 78 % 9.55 C
746 26-04-2019 14:05:00 13.3 C 80 % 9.93 C
747 26-04-2019 14:10:00 13.4 C 80 % 10.02 C
748 26-04-2019 14:15:00 13.5 C 79 % 9.93 C
749 26-04-2019 14:20:00 13.5 C 79 % 9.93 C
750 26-04-2019 14:25:00 13.5 C 79 % 9.93 C
Sensor: Nr:Datum:Temp:Feuchte:Taupunkt:
Aussen-T/F 751 26-04-2019 14:30:00 13.6 C 79 % 10.03 C
752 26-04-2019 14:35:00 13.7 C 78 % 9.94 C
753 26-04-2019 14:40:00 13.7 C 77 % 9.75 C
754 26-04-2019 14:45:00 13.7 C 76 % 9.55 C
755 26-04-2019 14:50:00 13.6 C 76 % 9.45 C
756 26-04-2019 14:55:00 13.6 C 77 % 9.65 C
757 26-04-2019 15:00:00 13.5 C 76 % 9.36 C
758 26-04-2019 15:05:00 13.4 C 78 % 9.65 C
759 26-04-2019 15:10:00 13.4 C 78 % 9.65 C
760 26-04-2019 15:15:00 13.4 C 78 % 9.65 C
761 26-04-2019 15:20:00 13.4 C 77 % 9.45 C
762 26-04-2019 15:25:00 13.4 C 78 % 9.65 C
763 26-04-2019 15:30:00 13.4 C 77 % 9.45 C
764 26-04-2019 15:35:00 13.5 C 77 % 9.55 C
765 26-04-2019 15:40:00 13.5 C 75 % 9.16 C
766 26-04-2019 15:45:00 13.6 C 76 % 9.45 C
767 26-04-2019 15:50:00 13.8 C 75 % 9.45 C
768 26-04-2019 15:55:00 14 C 75 % 9.64 C
769 26-04-2019 16:00:00 14.2 C 74 % 9.64 C
770 26-04-2019 16:05:00 14.4 C 73 % 9.63 C
771 26-04-2019 16:10:00 14.6 C 70 % 9.2 C
772 26-04-2019 16:15:00 14.7 C 72 % 9.71 C
773 26-04-2019 16:20:00 14.8 C 72 % 9.81 C
774 26-04-2019 16:25:00 14.9 C 72 % 9.9 C
775 26-04-2019 16:30:00 15.2 C 72 % 10.19 C
Sensor: Nr:Datum:Temp:Feuchte:Taupunkt:
Aussen-T/F 776 26-04-2019 16:35:00 15.4 C 70 % 9.96 C
777 26-04-2019 16:40:00 15.6 C 67 % 9.5 C
778 26-04-2019 16:45:00 15.6 C 68 % 9.72 C
779 26-04-2019 16:50:00 15.7 C 69 % 10.03 C
780 26-04-2019 16:55:00 15.7 C 69 % 10.03 C
781 26-04-2019 17:00:00 15.6 C 65 % 9.05 C
782 26-04-2019 17:05:00 15.5 C 70 % 10.06 C
783 26-04-2019 17:10:00 15.6 C 67 % 9.5 C
784 26-04-2019 17:15:00 15.8 C 65 % 9.24 C
785 26-04-2019 17:20:00 15.8 C 66 % 9.47 C
786 26-04-2019 17:25:00 15.7 C 66 % 9.37 C
787 26-04-2019 17:30:00 15.6 C 67 % 9.5 C
788 26-04-2019 17:35:00 15.4 C 65 % 8.86 C
789 26-04-2019 17:40:00 15.3 C 67 % 9.21 C
790 26-04-2019 17:45:00 15.7 C 67 % 9.6 C
791 26-04-2019 17:50:00 16.2 C 65 % 9.62 C
792 26-04-2019 17:55:00 16.7 C 62 % 9.39 C
793 26-04-2019 18:00:00 16.7 C 61 % 9.15 C
794 26-04-2019 18:05:00 17 C 61 % 9.43 C
795 26-04-2019 18:10:00 17.3 C 60 % 9.47 C
796 26-04-2019 18:15:00 17.5 C 58 % 9.15 C
797 26-04-2019 18:20:00 17.4 C 58 % 9.06 C
798 26-04-2019 18:25:00 17.3 C 58 % 8.97 C
799 26-04-2019 18:30:00 17.2 C 58 % 8.87 C
800 26-04-2019 18:35:00 16.9 C 60 % 9.09 C
Sensor: Nr:Datum:Temp:Feuchte:Taupunkt:
Aussen-T/F 801 26-04-2019 18:40:00 16.7 C 62 % 9.39 C
802 26-04-2019 18:45:00 16.5 C 67 % 10.36 C
803 26-04-2019 18:50:00 16.3 C 70 % 10.82 C
804 26-04-2019 18:55:00 16.3 C 71 % 11.04 C
805 26-04-2019 19:00:00 16.3 C 70 % 10.82 C
806 26-04-2019 19:05:00 16.3 C 62 % 9.01 C
807 26-04-2019 19:10:00 16.3 C 63 % 9.25 C
808 26-04-2019 19:15:00 16.3 C 69 % 10.61 C
809 26-04-2019 19:20:00 16.3 C 73 % 11.46 C
810 26-04-2019 19:25:00 16.3 C 73 % 11.46 C
811 26-04-2019 19:30:00 16.1 C 74 % 11.47 C
812 26-04-2019 19:35:00 15.9 C 75 % 11.48 C
813 26-04-2019 19:40:00 15.6 C 76 % 11.39 C
814 26-04-2019 19:45:00 15.2 C 75 % 10.8 C
815 26-04-2019 19:50:00 14.9 C 76 % 10.71 C
816 26-04-2019 19:55:00 14.6 C 77 % 10.62 C
817 26-04-2019 20:00:00 14.3 C 79 % 10.71 C
818 26-04-2019 20:05:00 13.8 C 76 % 9.65 C
819 26-04-2019 20:10:00 13.4 C 78 % 9.65 C
820 26-04-2019 20:15:00 13.1 C 79 % 9.54 C
821 26-04-2019 20:20:00 12.8 C 79 % 9.25 C
822 26-04-2019 20:25:00 12.6 C 80 % 9.25 C
823 26-04-2019 20:30:00 12.3 C 81 % 9.14 C
824 26-04-2019 20:35:00 12.1 C 82 % 9.12 C
825 26-04-2019 20:40:00 11.9 C 83 % 9.11 C
Sensor: Nr:Datum:Temp:Feuchte:Taupunkt:
Aussen-T/F 826 26-04-2019 20:45:00 11.7 C 84 % 9.09 C
827 26-04-2019 20:50:00 11.5 C 84 % 8.89 C
828 26-04-2019 20:55:00 11.4 C 84 % 8.8 C
829 26-04-2019 21:00:00 11.3 C 86 % 9.05 C
830 26-04-2019 21:05:00 11.3 C 87 % 9.22 C
831 26-04-2019 21:10:00 11.2 C 87 % 9.12 C
832 26-04-2019 21:15:00 11.1 C 87 % 9.02 C
833 26-04-2019 21:20:00 10.8 C 87 % 8.73 C
834 26-04-2019 21:25:00 10.7 C 87 % 8.63 C
835 26-04-2019 21:30:00 10.7 C 87 % 8.63 C
836 26-04-2019 21:35:00 10.7 C 87 % 8.63 C
837 26-04-2019 21:40:00 10.7 C 87 % 8.63 C
838 26-04-2019 21:45:00 10.7 C 87 % 8.63 C
839 26-04-2019 21:50:00 10.7 C 88 % 8.8 C
840 26-04-2019 21:55:00 10.8 C 88 % 8.89 C
841 26-04-2019 22:00:00 10.8 C 88 % 8.89 C
842 26-04-2019 22:05:00 10.8 C 88 % 8.89 C
843 26-04-2019 22:10:00 10.8 C 88 % 8.89 C
844 26-04-2019 22:15:00 10.7 C 87 % 8.63 C
845 26-04-2019 22:20:00 10.5 C 88 % 8.6 C
846 26-04-2019 22:25:00 10.3 C 88 % 8.4 C
847 26-04-2019 22:30:00 10.2 C 89 % 8.47 C
848 26-04-2019 22:35:00 10.2 C 89 % 8.47 C
849 26-04-2019 22:40:00 10.2 C 90 % 8.64 C
850 26-04-2019 22:45:00 10.3 C 90 % 8.73 C
Sensor: Nr:Datum:Temp:Feuchte:Taupunkt:
Aussen-T/F 851 26-04-2019 22:50:00 10.3 C 90 % 8.73 C
852 26-04-2019 22:55:00 10.4 C 90 % 8.83 C
853 26-04-2019 23:00:00 10.4 C 90 % 8.83 C
854 26-04-2019 23:05:00 10.4 C 90 % 8.83 C
855 26-04-2019 23:10:00 10.3 C 90 % 8.73 C
856 26-04-2019 23:15:00 10.3 C 90 % 8.73 C
857 26-04-2019 23:20:00 10.2 C 90 % 8.64 C
858 26-04-2019 23:25:00 10 C 90 % 8.44 C
859 26-04-2019 23:30:00 9.9 C 90 % 8.34 C
860 26-04-2019 23:35:00 9.8 C 90 % 8.24 C
861 26-04-2019 23:40:00 9.8 C 91 % 8.4 C
862 26-04-2019 23:45:00 9.7 C 91 % 8.3 C
863 26-04-2019 23:50:00 9.7 C 91 % 8.3 C
864 26-04-2019 23:55:00 9.6 C 91 % 8.21 C
865 27-04-2019 00:00:00 9.5 C 91 % 8.11 C
866 27-04-2019 00:05:00 9.4 C 91 % 8.01 C
867 27-04-2019 00:10:00 9.3 C 91 % 7.91 C
868 27-04-2019 00:15:00 9.2 C 91 % 7.81 C
869 27-04-2019 00:20:00 9.1 C 91 % 7.71 C
870 27-04-2019 00:25:00 9.1 C 92 % 7.87 C
871 27-04-2019 00:30:00 9.1 C 92 % 7.87 C
872 27-04-2019 00:35:00 9.1 C 92 % 7.87 C
873 27-04-2019 00:40:00 9.1 C 93 % 8.03 C
874 27-04-2019 00:45:00 9.2 C 93 % 8.13 C
875 27-04-2019 00:50:00 9.2 C 93 % 8.13 C
Sensor: Nr:Datum:Temp:Feuchte:Taupunkt:
Aussen-T/F 876 27-04-2019 00:55:00 9.2 C 93 % 8.13 C
877 27-04-2019 01:00:00 9.2 C 93 % 8.13 C
878 27-04-2019 01:05:00 9.2 C 93 % 8.13 C
879 27-04-2019 01:10:00 9.3 C 93 % 8.23 C
880 27-04-2019 01:15:00 9.3 C 93 % 8.23 C
881 27-04-2019 01:20:00 9.3 C 93 % 8.23 C
882 27-04-2019 01:25:00 9.2 C 93 % 8.13 C
883 27-04-2019 01:30:00 9.2 C 93 % 8.13 C
884 27-04-2019 01:35:00 9.1 C 93 % 8.03 C
885 27-04-2019 01:40:00 9.1 C 93 % 8.03 C
886 27-04-2019 01:45:00 9 C 93 % 7.93 C
887 27-04-2019 01:50:00 8.9 C 93 % 7.83 C
888 27-04-2019 01:55:00 8.9 C 93 % 7.83 C
889 27-04-2019 02:00:00 8.9 C 93 % 7.83 C
890 27-04-2019 02:05:00 8.8 C 93 % 7.73 C
891 27-04-2019 02:10:00 8.8 C 93 % 7.73 C
892 27-04-2019 02:15:00 8.8 C 93 % 7.73 C
893 27-04-2019 02:20:00 8.7 C 93 % 7.63 C
894 27-04-2019 02:25:00 8.7 C 93 % 7.63 C
895 27-04-2019 02:30:00 8.6 C 93 % 7.53 C
896 27-04-2019 02:35:00 8.5 C 93 % 7.43 C
897 27-04-2019 02:40:00 8.4 C 93 % 7.34 C
898 27-04-2019 02:45:00 8.3 C 93 % 7.24 C
899 27-04-2019 02:50:00 8.2 C 93 % 7.14 C
900 27-04-2019 02:55:00 8.2 C 94 % 7.29 C
Sensor: Nr:Datum:Temp:Feuchte:Taupunkt:
Aussen-T/F 901 27-04-2019 03:00:00 8.2 C 94 % 7.29 C
902 27-04-2019 03:05:00 8.1 C 94 % 7.19 C
903 27-04-2019 03:10:00 8.1 C 94 % 7.19 C
904 27-04-2019 03:15:00 8 C 94 % 7.09 C
905 27-04-2019 03:20:00 8 C 94 % 7.09 C
906 27-04-2019 03:25:00 7.9 C 94 % 7 C
907 27-04-2019 03:30:00 7.8 C 94 % 6.9 C
908 27-04-2019 03:35:00 7.8 C 94 % 6.9 C
909 27-04-2019 03:40:00 7.7 C 94 % 6.8 C
910 27-04-2019 03:45:00 7.7 C 94 % 6.8 C
911 27-04-2019 03:50:00 7.6 C 94 % 6.7 C
912 27-04-2019 03:55:00 7.6 C 94 % 6.7 C
913 27-04-2019 04:00:00 7.6 C 94 % 6.7 C
914 27-04-2019 04:05:00 7.5 C 94 % 6.6 C
915 27-04-2019 04:10:00 7.4 C 94 % 6.5 C
916 27-04-2019 04:15:00 7.3 C 94 % 6.4 C
917 27-04-2019 04:20:00 7.2 C 94 % 6.3 C
918 27-04-2019 04:25:00 7.1 C 94 % 6.2 C
919 27-04-2019 04:30:00 7.1 C 94 % 6.2 C
920 27-04-2019 04:35:00 7 C 94 % 6.1 C
921 27-04-2019 04:40:00 7 C 94 % 6.1 C
922 27-04-2019 04:45:00 7 C 95 % 6.26 C
923 27-04-2019 04:50:00 7 C 95 % 6.26 C
924 27-04-2019 04:55:00 7 C 95 % 6.26 C
925 27-04-2019 05:00:00 6.9 C 95 % 6.16 C
Sensor: Nr:Datum:Temp:Feuchte:Taupunkt:
Aussen-T/F 926 27-04-2019 05:05:00 6.9 C 95 % 6.16 C
927 27-04-2019 05:10:00 6.8 C 94 % 5.9 C
928 27-04-2019 05:15:00 6.7 C 95 % 5.96 C
929 27-04-2019 05:20:00 6.7 C 95 % 5.96 C
930 27-04-2019 05:25:00 6.7 C 95 % 5.96 C
931 27-04-2019 05:30:00 6.6 C 95 % 5.86 C
932 27-04-2019 05:35:00 6.6 C 95 % 5.86 C
933 27-04-2019 05:40:00 6.6 C 95 % 5.86 C
934 27-04-2019 05:45:00 6.4 C 95 % 5.66 C
935 27-04-2019 05:50:00 6.4 C 95 % 5.66 C
936 27-04-2019 05:55:00 6.4 C 95 % 5.66 C
937 27-04-2019 06:00:00 6.4 C 95 % 5.66 C
938 27-04-2019 06:05:00 6.3 C 95 % 5.56 C
939 27-04-2019 06:10:00 6.3 C 95 % 5.56 C
940 27-04-2019 06:15:00 6.4 C 95 % 5.66 C
941 27-04-2019 06:20:00 6.4 C 95 % 5.66 C
942 27-04-2019 06:25:00 6.5 C 96 % 5.91 C
943 27-04-2019 06:30:00 6.5 C 96 % 5.91 C
944 27-04-2019 06:35:00 6.4 C 95 % 5.66 C
945 27-04-2019 06:40:00 6.4 C 95 % 5.66 C
946 27-04-2019 06:45:00 6.4 C 96 % 5.81 C
947 27-04-2019 06:50:00 6.5 C 96 % 5.91 C
948 27-04-2019 06:55:00 6.6 C 96 % 6.01 C
949 27-04-2019 07:00:00 6.7 C 96 % 6.11 C
950 27-04-2019 07:05:00 6.7 C 96 % 6.11 C
Sensor: Nr:Datum:Temp:Feuchte:Taupunkt:
Aussen-T/F 951 27-04-2019 07:10:00 6.8 C 96 % 6.21 C
952 27-04-2019 07:15:00 6.8 C 96 % 6.21 C
953 27-04-2019 07:20:00 6.9 C 96 % 6.31 C
954 27-04-2019 07:25:00 7 C 96 % 6.41 C
955 27-04-2019 07:30:00 7.1 C 96 % 6.51 C
956 27-04-2019 07:35:00 7.3 C 96 % 6.71 C
957 27-04-2019 07:40:00 7.4 C 96 % 6.8 C
958 27-04-2019 07:45:00 7.6 C 96 % 7 C
959 27-04-2019 07:50:00 7.7 C 96 % 7.1 C
960 27-04-2019 07:55:00 7.8 C 96 % 7.2 C
961 27-04-2019 08:00:00 7.9 C 97 % 7.45 C
962 27-04-2019 08:05:00 8.1 C 97 % 7.65 C
963 27-04-2019 08:10:00 8.2 C 96 % 7.6 C
964 27-04-2019 08:15:00 8.4 C 97 % 7.95 C
965 27-04-2019 08:20:00 8.6 C 97 % 8.15 C
966 27-04-2019 08:25:00 8.7 C 97 % 8.25 C
967 27-04-2019 08:30:00 8.7 C 97 % 8.25 C
968 27-04-2019 08:35:00 8.8 C 97 % 8.35 C
969 27-04-2019 08:40:00 8.9 C 96 % 8.3 C
970 27-04-2019 08:45:00 9.1 C 97 % 8.65 C
971 27-04-2019 08:50:00 9.3 C 97 % 8.85 C
972 27-04-2019 08:55:00 9.3 C 97 % 8.85 C
973 27-04-2019 09:00:00 9.5 C 97 % 9.05 C
974 27-04-2019 09:05:00 9.7 C 97 % 9.25 C
975 27-04-2019 09:10:00 9.8 C 97 % 9.35 C
Sensor: Nr:Datum:Temp:Feuchte:Taupunkt:
Aussen-T/F 976 27-04-2019 09:15:00 9.9 C 96 % 9.29 C
977 27-04-2019 09:20:00 9.9 C 96 % 9.29 C
978 27-04-2019 09:25:00 10.1 C 96 % 9.49 C
979 27-04-2019 09:30:00 10.2 C 95 % 9.44 C
980 27-04-2019 09:35:00 10.3 C 95 % 9.54 C
981 27-04-2019 09:40:00 10.5 C 94 % 9.58 C
982 27-04-2019 09:45:00 10.6 C 93 % 9.52 C
983 27-04-2019 09:50:00 10.7 C 91 % 9.29 C
984 27-04-2019 09:55:00 10.8 C 91 % 9.39 C
985 27-04-2019 10:00:00 10.9 C 90 % 9.33 C
986 27-04-2019 10:05:00 11 C 89 % 9.26 C
987 27-04-2019 10:10:00 11.1 C 89 % 9.36 C
988 27-04-2019 10:15:00 11.2 C 89 % 9.46 C
989 27-04-2019 10:20:00 11.2 C 88 % 9.29 C
990 27-04-2019 10:25:00 11.2 C 89 % 9.46 C
991 27-04-2019 10:30:00 11.2 C 88 % 9.29 C
992 27-04-2019 10:35:00 11.3 C 88 % 9.39 C
993 27-04-2019 10:40:00 11.4 C 88 % 9.49 C
994 27-04-2019 10:45:00 11.6 C 87 % 9.51 C
995 27-04-2019 10:50:00 11.7 C 84 % 9.09 C
996 27-04-2019 10:55:00 11.9 C 83 % 9.11 C
997 27-04-2019 11:00:00 12.1 C 82 % 9.12 C
998 27-04-2019 11:05:00 12.2 C 81 % 9.04 C
999 27-04-2019 11:10:00 12.4 C 81 % 9.23 C
1000 27-04-2019 11:15:00 12.8 C 78 % 9.06 C
Sensor: Nr:Datum:Temp:Feuchte:Taupunkt:
Aussen-T/F 1001 27-04-2019 11:20:00 13 C 76 % 8.87 C
1002 27-04-2019 11:25:00 13.1 C 72 % 8.17 C
1003 27-04-2019 11:30:00 12.9 C 72 % 7.98 C
1004 27-04-2019 11:35:00 12.8 C 73 % 8.09 C
1005 27-04-2019 11:40:00 12.6 C 74 % 8.09 C
1006 27-04-2019 11:45:00 12.6 C 76 % 8.49 C
1007 27-04-2019 11:50:00 12.6 C 76 % 8.49 C
1008 27-04-2019 11:55:00 12.6 C 77 % 8.68 C
1009 27-04-2019 12:00:00 12.6 C 80 % 9.25 C
1010 27-04-2019 12:05:00 12.6 C 81 % 9.43 C
1011 27-04-2019 12:10:00 12.6 C 82 % 9.61 C
1012 27-04-2019 12:15:00 12.5 C 83 % 9.69 C
1013 27-04-2019 12:20:00 12.6 C 84 % 9.97 C
1014 27-04-2019 12:25:00 12.6 C 83 % 9.79 C
1015 27-04-2019 12:30:00 12.6 C 82 % 9.61 C
1016 27-04-2019 12:35:00 12.7 C 82 % 9.71 C
1017 27-04-2019 12:40:00 12.7 C 80 % 9.34 C
1018 27-04-2019 12:45:00 12.8 C 81 % 9.62 C
1019 27-04-2019 12:50:00 12.9 C 80 % 9.54 C
1020 27-04-2019 12:55:00 13.1 C 81 % 9.92 C
1021 27-04-2019 13:00:00 13.3 C 79 % 9.74 C
1022 27-04-2019 13:05:00 13.5 C 78 % 9.74 C
1023 27-04-2019 13:10:00 13.6 C 78 % 9.84 C
1024 27-04-2019 13:15:00 13.7 C 78 % 9.94 C
1025 27-04-2019 13:20:00 13.6 C 77 % 9.65 C
Sensor: Nr:Datum:Temp:Feuchte:Taupunkt:
Aussen-T/F 1026 27-04-2019 13:25:00 13.6 C 77 % 9.65 C
1027 27-04-2019 13:30:00 13.6 C 77 % 9.65 C
1028 27-04-2019 13:35:00 13.4 C 79 % 9.84 C
1029 27-04-2019 13:40:00 13.4 C 78 % 9.65 C
1030 27-04-2019 13:45:00 12.8 C 74 % 8.29 C
1031 27-04-2019 13:50:00 11.4 C 79 % 7.89 C
1032 27-04-2019 13:55:00 10.4 C 81 % 7.28 C
1033 27-04-2019 14:00:00 9.7 C 85 % 7.3 C
1034 27-04-2019 14:05:00 9.3 C 86 % 7.08 C
1035 27-04-2019 14:10:00 9.1 C 89 % 7.39 C
1036 27-04-2019 14:15:00 9.2 C 90 % 7.65 C
1037 27-04-2019 14:20:00 9.2 C 91 % 7.81 C
1038 27-04-2019 14:25:00 9.2 C 91 % 7.81 C
1039 27-04-2019 14:30:00 9.2 C 91 % 7.81 C
1040 27-04-2019 14:35:00 9.6 C 93 % 8.53 C
1041 27-04-2019 14:40:00 9.9 C 93 % 8.82 C
1042 27-04-2019 14:45:00 9.9 C 91 % 8.5 C
1043 27-04-2019 14:50:00 10 C 91 % 8.6 C
1044 27-04-2019 14:55:00 10 C 89 % 8.27 C
1045 27-04-2019 15:00:00 9.9 C 89 % 8.17 C
1046 27-04-2019 15:05:00 10 C 90 % 8.44 C
1047 27-04-2019 15:10:00 10.1 C 91 % 8.7 C
1048 27-04-2019 15:15:00 10.1 C 91 % 8.7 C
1049 27-04-2019 15:20:00 10.1 C 91 % 8.7 C
1050 27-04-2019 15:25:00 10.2 C 92 % 8.96 C
Sensor: Nr:Datum:Temp:Feuchte:Taupunkt:
Aussen-T/F 1051 27-04-2019 15:30:00 10.7 C 93 % 9.62 C
1052 27-04-2019 15:35:00 11 C 91 % 9.59 C
1053 27-04-2019 15:40:00 11.1 C 90 % 9.52 C
1054 27-04-2019 15:45:00 10.8 C 87 % 8.73 C
1055 27-04-2019 15:50:00 10.8 C 87 % 8.73 C
1056 27-04-2019 15:55:00 10.8 C 88 % 8.89 C
1057 27-04-2019 16:00:00 10.8 C 87 % 8.73 C
1058 27-04-2019 16:05:00 11.1 C 87 % 9.02 C
1059 27-04-2019 16:10:00 11.2 C 85 % 8.77 C
1060 27-04-2019 16:15:00 11.3 C 83 % 8.52 C
1061 27-04-2019 16:20:00 11.5 C 81 % 8.36 C
1062 27-04-2019 16:25:00 11.6 C 82 % 8.64 C
1063 27-04-2019 16:30:00 11.8 C 82 % 8.83 C
1064 27-04-2019 16:35:00 12.3 C 80 % 8.95 C
1065 27-04-2019 16:40:00 12.4 C 78 % 8.68 C
1066 27-04-2019 16:45:00 12.3 C 79 % 8.77 C
1067 27-04-2019 16:50:00 12.3 C 79 % 8.77 C
1068 27-04-2019 16:55:00 12.4 C 78 % 8.68 C
1069 27-04-2019 17:00:00 12.4 C 79 % 8.86 C
1070 27-04-2019 17:05:00 12.3 C 78 % 8.58 C
1071 27-04-2019 17:10:00 12.2 C 80 % 8.86 C
1072 27-04-2019 17:15:00 12.1 C 80 % 8.76 C
1073 27-04-2019 17:20:00 11.9 C 79 % 8.38 C
1074 27-04-2019 17:25:00 12.1 C 82 % 9.12 C
1075 27-04-2019 17:30:00 12.6 C 77 % 8.68 C
Sensor: Nr:Datum:Temp:Feuchte:Taupunkt:
Aussen-T/F 1076 27-04-2019 17:35:00 12.7 C 77 % 8.78 C
1077 27-04-2019 17:40:00 12.6 C 75 % 8.29 C
1078 27-04-2019 17:45:00 12.3 C 77 % 8.39 C
1079 27-04-2019 17:50:00 12.3 C 80 % 8.95 C
1080 27-04-2019 17:55:00 12.7 C 79 % 9.16 C
1081 27-04-2019 18:00:00 13.1 C 76 % 8.97 C
1082 27-04-2019 18:05:00 12.9 C 73 % 8.18 C
1083 27-04-2019 18:10:00 12.8 C 75 % 8.48 C
1084 27-04-2019 18:15:00 12.4 C 75 % 8.1 C
1085 27-04-2019 18:20:00 12.1 C 75 % 7.81 C
1086 27-04-2019 18:25:00 11.6 C 77 % 7.71 C
1087 27-04-2019 18:30:00 11 C 81 % 7.87 C
1088 27-04-2019 18:35:00 10.6 C 83 % 7.84 C
1089 27-04-2019 18:40:00 10.2 C 85 % 7.79 C
1090 27-04-2019 18:45:00 9.9 C 87 % 7.84 C
1091 27-04-2019 18:50:00 9.8 C 88 % 7.91 C
1092 27-04-2019 18:55:00 9.7 C 89 % 7.98 C
1093 27-04-2019 19:00:00 9.8 C 90 % 8.24 C
1094 27-04-2019 19:05:00 10 C 92 % 8.76 C
1095 27-04-2019 19:10:00 10.2 C 92 % 8.96 C
1096 27-04-2019 19:15:00 10.3 C 91 % 8.9 C
1097 27-04-2019 19:20:00 10.2 C 91 % 8.8 C
1098 27-04-2019 19:25:00 10 C 90 % 8.44 C
1099 27-04-2019 19:30:00 9.8 C 90 % 8.24 C
1100 27-04-2019 19:35:00 9.6 C 89 % 7.88 C
Sensor: Nr:Datum:Temp:Feuchte:Taupunkt:
Aussen-T/F 1101 27-04-2019 19:40:00 9.2 C 88 % 7.32 C
1102 27-04-2019 19:45:00 8.8 C 89 % 7.09 C
1103 27-04-2019 19:50:00 8.5 C 89 % 6.79 C
1104 27-04-2019 19:55:00 8.3 C 90 % 6.76 C
1105 27-04-2019 20:00:00 8.1 C 91 % 6.72 C
1106 27-04-2019 20:05:00 8 C 91 % 6.62 C
1107 27-04-2019 20:10:00 7.9 C 91 % 6.52 C
1108 27-04-2019 20:15:00 7.8 C 92 % 6.58 C
1109 27-04-2019 20:20:00 7.7 C 92 % 6.48 C
1110 27-04-2019 20:25:00 7.7 C 92 % 6.48 C
1111 27-04-2019 20:30:00 7.7 C 92 % 6.48 C
1112 27-04-2019 20:35:00 7.6 C 93 % 6.54 C
1113 27-04-2019 20:40:00 7.6 C 93 % 6.54 C
1114 27-04-2019 20:45:00 7.6 C 93 % 6.54 C
1115 27-04-2019 20:50:00 7.5 C 93 % 6.44 C
1116 27-04-2019 20:55:00 7.5 C 93 % 6.44 C
1117 27-04-2019 21:00:00 7.4 C 93 % 6.34 C
1118 27-04-2019 21:05:00 7.4 C 93 % 6.34 C
1119 27-04-2019 21:10:00 7.4 C 94 % 6.5 C
1120 27-04-2019 21:15:00 7.4 C 94 % 6.5 C
1121 27-04-2019 21:20:00 7.4 C 94 % 6.5 C
1122 27-04-2019 21:25:00 7.4 C 94 % 6.5 C
1123 27-04-2019 21:30:00 7.4 C 94 % 6.5 C
1124 27-04-2019 21:35:00 7.3 C 94 % 6.4 C
1125 27-04-2019 21:40:00 7.3 C 94 % 6.4 C
Sensor: Nr:Datum:Temp:Feuchte:Taupunkt:
Aussen-T/F 1126 27-04-2019 21:45:00 7.2 C 94 % 6.3 C
1127 27-04-2019 21:50:00 7.1 C 94 % 6.2 C
1128 27-04-2019 21:55:00 6.9 C 94 % 6 C
1129 27-04-2019 22:00:00 6.9 C 94 % 6 C
1130 27-04-2019 22:05:00 6.8 C 94 % 5.9 C
1131 27-04-2019 22:10:00 6.7 C 94 % 5.8 C
1132 27-04-2019 22:15:00 6.7 C 94 % 5.8 C
1133 27-04-2019 22:20:00 6.8 C 94 % 5.9 C
1134 27-04-2019 22:25:00 6.8 C 95 % 6.06 C
1135 27-04-2019 22:30:00 6.8 C 95 % 6.06 C
1136 27-04-2019 22:35:00 6.8 C 95 % 6.06 C
1137 27-04-2019 22:40:00 6.8 C 95 % 6.06 C
1138 27-04-2019 22:45:00 6.7 C 95 % 5.96 C
1139 27-04-2019 22:50:00 6.7 C 95 % 5.96 C
1140 27-04-2019 22:55:00 6.7 C 95 % 5.96 C
1141 27-04-2019 23:00:00 6.8 C 95 % 6.06 C
1142 27-04-2019 23:05:00 6.8 C 95 % 6.06 C
1143 27-04-2019 23:10:00 6.9 C 95 % 6.16 C
1144 27-04-2019 23:15:00 6.9 C 95 % 6.16 C
1145 27-04-2019 23:20:00 6.9 C 95 % 6.16 C
1146 27-04-2019 23:25:00 6.9 C 95 % 6.16 C
1147 27-04-2019 23:30:00 6.9 C 95 % 6.16 C
1148 27-04-2019 23:35:00 6.8 C 95 % 6.06 C
1149 27-04-2019 23:40:00 6.8 C 95 % 6.06 C
1150 27-04-2019 23:45:00 6.8 C 95 % 6.06 C
Sensor: Nr:Datum:Temp:Feuchte:Taupunkt:
Aussen-T/F 1151 27-04-2019 23:50:00 6.8 C 95 % 6.06 C
1152 27-04-2019 23:55:00 6.8 C 94 % 5.9 C
1153 28-04-2019 00:00:00 6.8 C 94 % 5.9 C
1154 28-04-2019 00:05:00 6.8 C 94 % 5.9 C
1155 28-04-2019 00:10:00 6.8 C 94 % 5.9 C
1156 28-04-2019 00:15:00 6.9 C 94 % 6 C
1157 28-04-2019 00:20:00 6.8 C 94 % 5.9 C
1158 28-04-2019 00:25:00 6.9 C 94 % 6 C
1159 28-04-2019 00:30:00 6.9 C 94 % 6 C
1160 28-04-2019 00:35:00 6.9 C 94 % 6 C
1161 28-04-2019 00:40:00 6.9 C 94 % 6 C
1162 28-04-2019 00:45:00 6.9 C 93 % 5.85 C
1163 28-04-2019 00:50:00 6.9 C 93 % 5.85 C
1164 28-04-2019 00:55:00 6.9 C 93 % 5.85 C
1165 28-04-2019 01:00:00 6.9 C 93 % 5.85 C
1166 28-04-2019 01:05:00 6.9 C 93 % 5.85 C
1167 28-04-2019 01:10:00 6.9 C 93 % 5.85 C
1168 28-04-2019 01:15:00 6.9 C 92 % 5.69 C
1169 28-04-2019 01:20:00 6.9 C 93 % 5.85 C
1170 28-04-2019 01:25:00 6.9 C 92 % 5.69 C
1171 28-04-2019 01:30:00 6.9 C 92 % 5.69 C
1172 28-04-2019 01:35:00 6.9 C 92 % 5.69 C
1173 28-04-2019 01:40:00 6.9 C 92 % 5.69 C
1174 28-04-2019 01:45:00 6.8 C 92 % 5.59 C
1175 28-04-2019 01:50:00 6.8 C 92 % 5.59 C
Sensor: Nr:Datum:Temp:Feuchte:Taupunkt:
Aussen-T/F 1176 28-04-2019 01:55:00 6.8 C 91 % 5.44 C
1177 28-04-2019 02:00:00 6.8 C 91 % 5.44 C
1178 28-04-2019 02:05:00 6.7 C 91 % 5.34 C
1179 28-04-2019 02:10:00 6.7 C 91 % 5.34 C
1180 28-04-2019 02:15:00 6.6 C 91 % 5.24 C
1181 28-04-2019 02:20:00 6.6 C 91 % 5.24 C
1182 28-04-2019 02:25:00 6.5 C 91 % 5.14 C
1183 28-04-2019 02:30:00 6.4 C 91 % 5.04 C
1184 28-04-2019 02:35:00 6.3 C 91 % 4.94 C
1185 28-04-2019 02:40:00 6.3 C 91 % 4.94 C
1186 28-04-2019 02:45:00 6.2 C 91 % 4.84 C
1187 28-04-2019 02:50:00 6.1 C 91 % 4.74 C
1188 28-04-2019 02:55:00 6 C 91 % 4.65 C
1189 28-04-2019 03:00:00 6 C 91 % 4.65 C
1190 28-04-2019 03:05:00 6 C 91 % 4.65 C
1191 28-04-2019 03:10:00 6.1 C 91 % 4.74 C
1192 28-04-2019 03:15:00 6.1 C 91 % 4.74 C
1193 28-04-2019 03:20:00 6.2 C 91 % 4.84 C
1194 28-04-2019 03:25:00 6.2 C 90 % 4.69 C
1195 28-04-2019 03:30:00 6.2 C 90 % 4.69 C
1196 28-04-2019 03:35:00 6.3 C 90 % 4.78 C
1197 28-04-2019 03:40:00 6.3 C 90 % 4.78 C
1198 28-04-2019 03:45:00 6.3 C 90 % 4.78 C
1199 28-04-2019 03:50:00 6.3 C 89 % 4.62 C
1200 28-04-2019 03:55:00 6.3 C 89 % 4.62 C
Sensor: Nr:Datum:Temp:Feuchte:Taupunkt:
Aussen-T/F 1201 28-04-2019 04:00:00 6.4 C 89 % 4.72 C
1202 28-04-2019 04:05:00 6.4 C 89 % 4.72 C
1203 28-04-2019 04:10:00 6.4 C 88 % 4.56 C
1204 28-04-2019 04:15:00 6.4 C 88 % 4.56 C
1205 28-04-2019 04:20:00 6.4 C 88 % 4.56 C
1206 28-04-2019 04:25:00 6.5 C 88 % 4.66 C
1207 28-04-2019 04:30:00 6.5 C 88 % 4.66 C
1208 28-04-2019 04:35:00 6.4 C 88 % 4.56 C
1209 28-04-2019 04:40:00 6.4 C 88 % 4.56 C
1210 28-04-2019 04:45:00 6.4 C 88 % 4.56 C
1211 28-04-2019 04:50:00 6.4 C 88 % 4.56 C
1212 28-04-2019 04:55:00 6.4 C 88 % 4.56 C
1213 28-04-2019 05:00:00 6.4 C 88 % 4.56 C
1214 28-04-2019 05:05:00 6.4 C 88 % 4.56 C
1215 28-04-2019 05:10:00 6.3 C 88 % 4.46 C
1216 28-04-2019 05:15:00 6.3 C 88 % 4.46 C
1217 28-04-2019 05:20:00 6.3 C 89 % 4.62 C
1218 28-04-2019 05:25:00 6.3 C 89 % 4.62 C
1219 28-04-2019 05:30:00 6.2 C 89 % 4.53 C
1220 28-04-2019 05:35:00 6.2 C 89 % 4.53 C
1221 28-04-2019 05:40:00 6.2 C 89 % 4.53 C
1222 28-04-2019 05:45:00 6.2 C 89 % 4.53 C
1223 28-04-2019 05:50:00 6.2 C 89 % 4.53 C
1224 28-04-2019 05:55:00 6.2 C 89 % 4.53 C
1225 28-04-2019 06:00:00 6.2 C 88 % 4.36 C
Sensor: Nr:Datum:Temp:Feuchte:Taupunkt:
Aussen-T/F 1226 28-04-2019 06:05:00 6.2 C 88 % 4.36 C
1227 28-04-2019 06:10:00 6.2 C 89 % 4.53 C
1228 28-04-2019 06:15:00 6.2 C 89 % 4.53 C
1229 28-04-2019 06:20:00 6.2 C 89 % 4.53 C
1230 28-04-2019 06:25:00 6.2 C 89 % 4.53 C
1231 28-04-2019 06:30:00 6.2 C 89 % 4.53 C
1232 28-04-2019 06:35:00 6.2 C 89 % 4.53 C
1233 28-04-2019 06:40:00 6.2 C 89 % 4.53 C
1234 28-04-2019 06:45:00 6.2 C 89 % 4.53 C
1235 28-04-2019 06:50:00 6.2 C 89 % 4.53 C
1236 28-04-2019 06:55:00 6.2 C 89 % 4.53 C
1237 28-04-2019 07:00:00 6.3 C 89 % 4.62 C
1238 28-04-2019 07:05:00 6.3 C 90 % 4.78 C
1239 28-04-2019 07:10:00 6.4 C 89 % 4.72 C
1240 28-04-2019 07:15:00 6.5 C 89 % 4.82 C
1241 28-04-2019 07:20:00 6.6 C 89 % 4.92 C
1242 28-04-2019 07:25:00 6.7 C 88 % 4.86 C
1243 28-04-2019 07:30:00 6.8 C 88 % 4.96 C
1244 28-04-2019 07:35:00 7 C 88 % 5.15 C
1245 28-04-2019 07:40:00 7.1 C 88 % 5.25 C
1246 28-04-2019 07:45:00 7.3 C 87 % 5.28 C
1247 28-04-2019 07:50:00 7.3 C 87 % 5.28 C
1248 28-04-2019 07:55:00 7.4 C 87 % 5.38 C
1249 28-04-2019 08:00:00 7.5 C 87 % 5.48 C
1250 28-04-2019 08:05:00 7.5 C 86 % 5.31 C
Sensor: Nr:Datum:Temp:Feuchte:Taupunkt:
Aussen-T/F 1251 28-04-2019 08:10:00 7.5 C 86 % 5.31 C
1252 28-04-2019 08:15:00 7.6 C 86 % 5.41 C
1253 28-04-2019 08:20:00 7.6 C 86 % 5.41 C
1254 28-04-2019 08:25:00 7.6 C 86 % 5.41 C
1255 28-04-2019 08:30:00 7.6 C 86 % 5.41 C
1256 28-04-2019 08:35:00 7.6 C 86 % 5.41 C
1257 28-04-2019 08:40:00 7.6 C 86 % 5.41 C
1258 28-04-2019 08:45:00 7.6 C 86 % 5.41 C
1259 28-04-2019 08:50:00 7.6 C 86 % 5.41 C
1260 28-04-2019 08:55:00 7.6 C 86 % 5.41 C
1261 28-04-2019 09:00:00 7.7 C 86 % 5.51 C
1262 28-04-2019 09:05:00 7.7 C 86 % 5.51 C
1263 28-04-2019 09:10:00 7.7 C 86 % 5.51 C
1264 28-04-2019 09:15:00 7.8 C 86 % 5.61 C
1265 28-04-2019 09:20:00 7.8 C 86 % 5.61 C
1266 28-04-2019 09:25:00 7.9 C 87 % 5.87 C
1267 28-04-2019 09:30:00 8 C 87 % 5.97 C
1268 28-04-2019 09:35:00 8 C 87 % 5.97 C
1269 28-04-2019 09:40:00 8 C 87 % 5.97 C
1270 28-04-2019 09:45:00 8.1 C 87 % 6.07 C
1271 28-04-2019 09:50:00 8.2 C 87 % 6.17 C
1272 28-04-2019 09:55:00 8.3 C 87 % 6.27 C
1273 28-04-2019 10:00:00 8.3 C 87 % 6.27 C
1274 28-04-2019 10:05:00 8.4 C 85 % 6.03 C
1275 28-04-2019 10:10:00 8.6 C 85 % 6.23 C
Sensor: Nr:Datum:Temp:Feuchte:Taupunkt:
Aussen-T/F 1276 28-04-2019 10:15:00 8.7 C 85 % 6.32 C
1277 28-04-2019 10:20:00 8.8 C 84 % 6.25 C
1278 28-04-2019 10:25:00 8.9 C 83 % 6.17 C
1279 28-04-2019 10:30:00 9 C 83 % 6.27 C
1280 28-04-2019 10:35:00 9.1 C 82 % 6.19 C
1281 28-04-2019 10:40:00 9.2 C 82 % 6.29 C
1282 28-04-2019 10:45:00 9.2 C 80 % 5.94 C
1283 28-04-2019 10:50:00 9.3 C 80 % 6.03 C
1284 28-04-2019 10:55:00 9.4 C 80 % 6.13 C
1285 28-04-2019 11:00:00 9.5 C 78 % 5.86 C
1286 28-04-2019 11:05:00 9.7 C 78 % 6.06 C
1287 28-04-2019 11:10:00 9.8 C 78 % 6.15 C
1288 28-04-2019 11:15:00 9.9 C 74 % 5.49 C
1289 28-04-2019 11:20:00 10 C 75 % 5.78 C
1290 28-04-2019 11:25:00 10.1 C 75 % 5.88 C
1291 28-04-2019 11:30:00 10.2 C 74 % 5.78 C
1292 28-04-2019 11:35:00 10.3 C 73 % 5.68 C
1293 28-04-2019 11:40:00 10.2 C 72 % 5.39 C
1294 28-04-2019 11:45:00 10.1 C 72 % 5.29 C
1295 28-04-2019 11:50:00 10.1 C 71 % 5.09 C
1296 28-04-2019 11:55:00 10.1 C 72 % 5.29 C
1297 28-04-2019 12:00:00 10.2 C 72 % 5.39 C
1298 28-04-2019 12:05:00 10.3 C 72 % 5.48 C
1299 28-04-2019 12:10:00 10.3 C 71 % 5.28 C
1300 28-04-2019 12:15:00 10.3 C 70 % 5.08 C
Sensor: Nr:Datum:Temp:Feuchte:Taupunkt:
Aussen-T/F 1301 28-04-2019 12:20:00 10.3 C 71 % 5.28 C
1302 28-04-2019 12:25:00 10.3 C 70 % 5.08 C
1303 28-04-2019 12:30:00 10.2 C 70 % 4.98 C
1304 28-04-2019 12:35:00 10.2 C 71 % 5.18 C
1305 28-04-2019 12:40:00 10.2 C 70 % 4.98 C
1306 28-04-2019 12:45:00 10.3 C 70 % 5.08 C
1307 28-04-2019 12:50:00 10.6 C 69 % 5.16 C
1308 28-04-2019 12:55:00 10.7 C 71 % 5.66 C
1309 28-04-2019 13:00:00 10.9 C 69 % 5.44 C
1310 28-04-2019 13:05:00 11 C 68 % 5.33 C
1311 28-04-2019 13:10:00 11.1 C 68 % 5.43 C
1312 28-04-2019 13:15:00 11.1 C 68 % 5.43 C
1313 28-04-2019 13:20:00 11.2 C 69 % 5.73 C
1314 28-04-2019 13:25:00 11.2 C 67 % 5.31 C
1315 28-04-2019 13:30:00 11.2 C 65 % 4.87 C
1316 28-04-2019 13:35:00 11.3 C 67 % 5.4 C
1317 28-04-2019 13:40:00 11.4 C 66 % 5.28 C
1318 28-04-2019 13:45:00 11.6 C 68 % 5.9 C
1319 28-04-2019 13:50:00 11.7 C 63 % 4.9 C
1320 28-04-2019 13:55:00 11.9 C 66 % 5.76 C
1321 28-04-2019 14:00:00 12 C 66 % 5.85 C
1322 28-04-2019 14:05:00 12.1 C 67 % 6.17 C
1323 28-04-2019 14:10:00 12.1 C 68 % 6.38 C
1324 28-04-2019 14:15:00 12.1 C 67 % 6.17 C
1325 28-04-2019 14:20:00 12.1 C 68 % 6.38 C
Sensor: Nr:Datum:Temp:Feuchte:Taupunkt:
Aussen-T/F 1326 28-04-2019 14:25:00 12.1 C 66 % 5.95 C
1327 28-04-2019 14:30:00 12.3 C 67 % 6.36 C
1328 28-04-2019 14:35:00 12.4 C 68 % 6.67 C
1329 28-04-2019 14:40:00 12.6 C 66 % 6.42 C
1330 28-04-2019 14:45:00 12.7 C 67 % 6.74 C
1331 28-04-2019 14:50:00 12.8 C 65 % 6.39 C
1332 28-04-2019 14:55:00 12.9 C 63 % 6.04 C
1333 28-04-2019 15:00:00 12.8 C 65 % 6.39 C
1334 28-04-2019 15:05:00 12.8 C 67 % 6.83 C
1335 28-04-2019 15:10:00 12.6 C 65 % 6.2 C
1336 28-04-2019 15:15:00 12.2 C 68 % 6.48 C
1337 28-04-2019 15:20:00 11.8 C 72 % 6.92 C
1338 28-04-2019 15:25:00 11.6 C 72 % 6.73 C
1339 28-04-2019 15:30:00 11.3 C 75 % 7.04 C
1340 28-04-2019 15:35:00 11 C 76 % 6.94 C
1341 28-04-2019 15:40:00 10.7 C 78 % 7.03 C
1342 28-04-2019 15:45:00 10.6 C 79 % 7.11 C
1343 28-04-2019 15:50:00 10.4 C 81 % 7.28 C
1344 28-04-2019 15:55:00 10.3 C 82 % 7.37 C
1345 28-04-2019 16:00:00 10.2 C 84 % 7.62 C
1346 28-04-2019 16:05:00 10.1 C 85 % 7.7 C
1347 28-04-2019 16:10:00 10 C 85 % 7.6 C
1348 28-04-2019 16:15:00 9.8 C 84 % 7.23 C
1349 28-04-2019 16:20:00 9.9 C 85 % 7.5 C
1350 28-04-2019 16:25:00 9.9 C 85 % 7.5 C
Sensor: Nr:Datum:Temp:Feuchte:Taupunkt:
Aussen-T/F 1351 28-04-2019 16:30:00 10 C 85 % 7.6 C
1352 28-04-2019 16:35:00 10.1 C 84 % 7.52 C
1353 28-04-2019 16:40:00 10.3 C 85 % 7.89 C
1354 28-04-2019 16:45:00 10.8 C 84 % 8.21 C
1355 28-04-2019 16:50:00 11.6 C 82 % 8.64 C
1356 28-04-2019 16:55:00 11.8 C 78 % 8.09 C
1357 28-04-2019 17:00:00 11.5 C 77 % 7.61 C
1358 28-04-2019 17:05:00 11.4 C 78 % 7.71 C
1359 28-04-2019 17:10:00 11.4 C 78 % 7.71 C
1360 28-04-2019 17:15:00 11.5 C 80 % 8.17 C
1361 28-04-2019 17:20:00 11.5 C 79 % 7.99 C
1362 28-04-2019 17:25:00 11.5 C 79 % 7.99 C
1363 28-04-2019 17:30:00 11.5 C 79 % 7.99 C
1364 28-04-2019 17:35:00 11.4 C 79 % 7.89 C
1365 28-04-2019 17:40:00 11.4 C 79 % 7.89 C
1366 28-04-2019 17:45:00 11.4 C 80 % 8.08 C
1367 28-04-2019 17:50:00 11.4 C 80 % 8.08 C
1368 28-04-2019 17:55:00 11.4 C 81 % 8.26 C
1369 28-04-2019 18:00:00 11.5 C 82 % 8.54 C
1370 28-04-2019 18:05:00 11.5 C 81 % 8.36 C
1371 28-04-2019 18:10:00 11.4 C 76 % 7.33 C
1372 28-04-2019 18:15:00 11.4 C 73 % 6.74 C
1373 28-04-2019 18:20:00 11.6 C 76 % 7.52 C
1374 28-04-2019 18:25:00 11.7 C 73 % 7.03 C
1375 28-04-2019 18:30:00 11.7 C 73 % 7.03 C
Sensor: Nr:Datum:Temp:Feuchte:Taupunkt:
Aussen-T/F 1376 28-04-2019 18:35:00 11.6 C 73 % 6.93 C
1377 28-04-2019 18:40:00 11.5 C 72 % 6.63 C
1378 28-04-2019 18:45:00 11.4 C 71 % 6.34 C
1379 28-04-2019 18:50:00 11.3 C 73 % 6.64 C
1380 28-04-2019 18:55:00 11.2 C 72 % 6.35 C
1381 28-04-2019 19:00:00 11.1 C 74 % 6.65 C
1382 28-04-2019 19:05:00 11.1 C 74 % 6.65 C
1383 28-04-2019 19:10:00 10.9 C 74 % 6.45 C
1384 28-04-2019 19:15:00 10.8 C 76 % 6.75 C
1385 28-04-2019 19:20:00 10.7 C 76 % 6.65 C
1386 28-04-2019 19:25:00 10.6 C 78 % 6.93 C
1387 28-04-2019 19:30:00 10.6 C 77 % 6.74 C
1388 28-04-2019 19:35:00 10.7 C 77 % 6.84 C
1389 28-04-2019 19:40:00 10.8 C 78 % 7.12 C
1390 28-04-2019 19:45:00 10.9 C 76 % 6.84 C
1391 28-04-2019 19:50:00 11.1 C 76 % 7.04 C
1392 28-04-2019 19:55:00 11.1 C 76 % 7.04 C
1393 28-04-2019 20:00:00 10.8 C 76 % 6.75 C
1394 28-04-2019 20:05:00 10.7 C 77 % 6.84 C
1395 28-04-2019 20:10:00 10.4 C 78 % 6.74 C
1396 28-04-2019 20:15:00 10.3 C 79 % 6.82 C
1397 28-04-2019 20:20:00 10.1 C 80 % 6.81 C
1398 28-04-2019 20:25:00 9.9 C 80 % 6.62 C
1399 28-04-2019 20:30:00 9.6 C 81 % 6.5 C
1400 28-04-2019 20:35:00 9.3 C 81 % 6.21 C
Sensor: Nr:Datum:Temp:Feuchte:Taupunkt:
Aussen-T/F 1401 28-04-2019 20:40:00 9.1 C 82 % 6.19 C
1402 28-04-2019 20:45:00 8.8 C 82 % 5.9 C
1403 28-04-2019 20:50:00 8.5 C 83 % 5.78 C
1404 28-04-2019 20:55:00 8.3 C 84 % 5.76 C
1405 28-04-2019 21:00:00 8.1 C 84 % 5.56 C
1406 28-04-2019 21:05:00 7.9 C 85 % 5.54 C
1407 28-04-2019 21:10:00 7.7 C 86 % 5.51 C
1408 28-04-2019 21:15:00 7.6 C 86 % 5.41 C
1409 28-04-2019 21:20:00 7.4 C 87 % 5.38 C
1410 28-04-2019 21:25:00 7.3 C 87 % 5.28 C
1411 28-04-2019 21:30:00 7.2 C 87 % 5.19 C
1412 28-04-2019 21:35:00 7.1 C 88 % 5.25 C
1413 28-04-2019 21:40:00 7 C 88 % 5.15 C
1414 28-04-2019 21:45:00 6.9 C 88 % 5.05 C
1415 28-04-2019 21:50:00 6.8 C 88 % 4.96 C
1416 28-04-2019 21:55:00 6.7 C 89 % 5.02 C
1417 28-04-2019 22:00:00 6.6 C 89 % 4.92 C
1418 28-04-2019 22:05:00 6.4 C 89 % 4.72 C
1419 28-04-2019 22:10:00 6.3 C 89 % 4.62 C
1420 28-04-2019 22:15:00 6.2 C 90 % 4.69 C
1421 28-04-2019 22:20:00 6.1 C 90 % 4.59 C
1422 28-04-2019 22:25:00 6 C 90 % 4.49 C
1423 28-04-2019 22:30:00 5.9 C 91 % 4.55 C
1424 28-04-2019 22:35:00 5.8 C 91 % 4.45 C
1425 28-04-2019 22:40:00 5.7 C 91 % 4.35 C
Sensor: Nr:Datum:Temp:Feuchte:Taupunkt:
Aussen-T/F 1426 28-04-2019 22:45:00 5.6 C 91 % 4.25 C
1427 28-04-2019 22:50:00 5.6 C 92 % 4.41 C
1428 28-04-2019 22:55:00 5.4 C 92 % 4.21 C
1429 28-04-2019 23:00:00 5.3 C 91 % 3.95 C
1430 28-04-2019 23:05:00 5.2 C 91 % 3.85 C
1431 28-04-2019 23:10:00 5.2 C 92 % 4.01 C
1432 28-04-2019 23:15:00 5.1 C 92 % 3.91 C
1433 28-04-2019 23:20:00 5.1 C 92 % 3.91 C
1434 28-04-2019 23:25:00 5 C 93 % 3.96 C
1435 28-04-2019 23:30:00 4.9 C 92 % 3.71 C
1436 28-04-2019 23:35:00 4.9 C 93 % 3.87 C
1437 28-04-2019 23:40:00 4.9 C 93 % 3.87 C
1438 28-04-2019 23:45:00 4.8 C 93 % 3.77 C
1439 28-04-2019 23:50:00 4.8 C 93 % 3.77 C
1440 28-04-2019 23:55:00 4.8 C 93 % 3.77 C
1441 29-04-2019 00:00:00 4.7 C 93 % 3.67 C
1442 29-04-2019 00:05:00 4.7 C 93 % 3.67 C
1443 29-04-2019 00:10:00 4.7 C 94 % 3.82 C
1444 29-04-2019 00:15:00 4.6 C 93 % 3.57 C
1445 29-04-2019 00:20:00 4.5 C 93 % 3.47 C
1446 29-04-2019 00:25:00 4.4 C 93 % 3.37 C
1447 29-04-2019 00:30:00 4.3 C 94 % 3.42 C
1448 29-04-2019 00:35:00 4.3 C 94 % 3.42 C
1449 29-04-2019 00:40:00 4.2 C 94 % 3.32 C
1450 29-04-2019 00:45:00 4.2 C 94 % 3.32 C
Sensor: Nr:Datum:Temp:Feuchte:Taupunkt:
Aussen-T/F 1451 29-04-2019 00:50:00 4.2 C 94 % 3.32 C
1452 29-04-2019 00:55:00 4.2 C 94 % 3.32 C
1453 29-04-2019 01:00:00 4.3 C 94 % 3.42 C
1454 29-04-2019 01:05:00 4.4 C 94 % 3.52 C
1455 29-04-2019 01:10:00 4.3 C 94 % 3.42 C
1456 29-04-2019 01:15:00 4.3 C 94 % 3.42 C
1457 29-04-2019 01:20:00 4.3 C 94 % 3.42 C
1458 29-04-2019 01:25:00 4.2 C 94 % 3.32 C
1459 29-04-2019 01:30:00 4 C 94 % 3.12 C
1460 29-04-2019 01:35:00 3.9 C 94 % 3.02 C
1461 29-04-2019 01:40:00 3.8 C 94 % 2.93 C
1462 29-04-2019 01:45:00 3.7 C 94 % 2.83 C
1463 29-04-2019 01:50:00 3.6 C 94 % 2.73 C
1464 29-04-2019 01:55:00 3.6 C 94 % 2.73 C
1465 29-04-2019 02:00:00 3.7 C 95 % 2.98 C
1466 29-04-2019 02:05:00 3.6 C 95 % 2.88 C
1467 29-04-2019 02:10:00 3.6 C 95 % 2.88 C
1468 29-04-2019 02:15:00 3.4 C 94 % 2.53 C
1469 29-04-2019 02:20:00 3.3 C 94 % 2.43 C
1470 29-04-2019 02:25:00 3.3 C 94 % 2.43 C
1471 29-04-2019 02:30:00 3.3 C 95 % 2.58 C
1472 29-04-2019 02:35:00 3.3 C 95 % 2.58 C
1473 29-04-2019 02:40:00 3.3 C 95 % 2.58 C
1474 29-04-2019 02:45:00 3.4 C 95 % 2.68 C
1475 29-04-2019 02:50:00 3.4 C 95 % 2.68 C
Sensor: Nr:Datum:Temp:Feuchte:Taupunkt:
Aussen-T/F 1476 29-04-2019 02:55:00 3.5 C 95 % 2.78 C
1477 29-04-2019 03:00:00 3.5 C 95 % 2.78 C
1478 29-04-2019 03:05:00 3.5 C 95 % 2.78 C
1479 29-04-2019 03:10:00 3.6 C 95 % 2.88 C
1480 29-04-2019 03:15:00 3.6 C 95 % 2.88 C
1481 29-04-2019 03:20:00 3.7 C 95 % 2.98 C
1482 29-04-2019 03:25:00 3.7 C 95 % 2.98 C
1483 29-04-2019 03:30:00 3.7 C 95 % 2.98 C
1484 29-04-2019 03:35:00 3.8 C 95 % 3.07 C
1485 29-04-2019 03:40:00 3.8 C 95 % 3.07 C
1486 29-04-2019 03:45:00 3.8 C 95 % 3.07 C
1487 29-04-2019 03:50:00 3.7 C 95 % 2.98 C
1488 29-04-2019 03:55:00 3.7 C 95 % 2.98 C
1489 29-04-2019 04:00:00 3.7 C 95 % 2.98 C
1490 29-04-2019 04:05:00 3.6 C 95 % 2.88 C
1491 29-04-2019 04:10:00 3.6 C 95 % 2.88 C
1492 29-04-2019 04:15:00 3.6 C 95 % 2.88 C
1493 29-04-2019 04:20:00 3.6 C 95 % 2.88 C
1494 29-04-2019 04:25:00 3.6 C 96 % 3.02 C
1495 29-04-2019 04:30:00 3.6 C 96 % 3.02 C
1496 29-04-2019 04:35:00 3.5 C 96 % 2.92 C
1497 29-04-2019 04:40:00 3.4 C 96 % 2.82 C
1498 29-04-2019 04:45:00 3.4 C 96 % 2.82 C
1499 29-04-2019 04:50:00 3.4 C 96 % 2.82 C
1500 29-04-2019 04:55:00 3.5 C 96 % 2.92 C
Sensor: Nr:Datum:Temp:Feuchte:Taupunkt:
Aussen-T/F 1501 29-04-2019 05:00:00 3.5 C 96 % 2.92 C
1502 29-04-2019 05:05:00 3.5 C 96 % 2.92 C
1503 29-04-2019 05:10:00 3.4 C 96 % 2.82 C
1504 29-04-2019 05:15:00 3.4 C 96 % 2.82 C
1505 29-04-2019 05:20:00 3.4 C 96 % 2.82 C
1506 29-04-2019 05:25:00 3.4 C 96 % 2.82 C
1507 29-04-2019 05:30:00 3.3 C 96 % 2.72 C
1508 29-04-2019 05:35:00 3.3 C 96 % 2.72 C
1509 29-04-2019 05:40:00 3.3 C 96 % 2.72 C
1510 29-04-2019 05:45:00 3.3 C 96 % 2.72 C
1511 29-04-2019 05:50:00 3.3 C 96 % 2.72 C
1512 29-04-2019 05:55:00 3.2 C 96 % 2.63 C
1513 29-04-2019 06:00:00 3.2 C 96 % 2.63 C
1514 29-04-2019 06:05:00 3.2 C 96 % 2.63 C
1515 29-04-2019 06:10:00 3.2 C 96 % 2.63 C
1516 29-04-2019 06:15:00 3.2 C 96 % 2.63 C
1517 29-04-2019 06:20:00 3.2 C 96 % 2.63 C
1518 29-04-2019 06:25:00 3.2 C 96 % 2.63 C
1519 29-04-2019 06:30:00 3.1 C 96 % 2.53 C
1520 29-04-2019 06:35:00 3.1 C 96 % 2.53 C
1521 29-04-2019 06:40:00 3.1 C 96 % 2.53 C
1522 29-04-2019 06:45:00 3.1 C 96 % 2.53 C
1523 29-04-2019 06:50:00 3.1 C 96 % 2.53 C
1524 29-04-2019 06:55:00 3.1 C 96 % 2.53 C
1525 29-04-2019 07:00:00 3.1 C 96 % 2.53 C
Sensor: Nr:Datum:Temp:Feuchte:Taupunkt:
Aussen-T/F 1526 29-04-2019 07:05:00 3.1 C 96 % 2.53 C
1527 29-04-2019 07:10:00 3.1 C 96 % 2.53 C
1528 29-04-2019 07:15:00 3.1 C 96 % 2.53 C
1529 29-04-2019 07:20:00 3.2 C 96 % 2.63 C
1530 29-04-2019 07:25:00 3.2 C 96 % 2.63 C
1531 29-04-2019 07:30:00 3.2 C 96 % 2.63 C
1532 29-04-2019 07:35:00 3.3 C 96 % 2.72 C
1533 29-04-2019 07:40:00 3.3 C 96 % 2.72 C
1534 29-04-2019 07:45:00 3.3 C 96 % 2.72 C
1535 29-04-2019 07:50:00 3.4 C 96 % 2.82 C
1536 29-04-2019 07:55:00 3.4 C 96 % 2.82 C
1537 29-04-2019 08:00:00 3.5 C 96 % 2.92 C
1538 29-04-2019 08:05:00 3.6 C 96 % 3.02 C
1539 29-04-2019 08:10:00 3.6 C 96 % 3.02 C
1540 29-04-2019 08:15:00 3.7 C 96 % 3.12 C
1541 29-04-2019 08:20:00 3.7 C 96 % 3.12 C
1542 29-04-2019 08:25:00 3.8 C 97 % 3.37 C
1543 29-04-2019 08:30:00 3.9 C 97 % 3.47 C
1544 29-04-2019 08:35:00 3.9 C 96 % 3.32 C
1545 29-04-2019 08:40:00 4 C 96 % 3.42 C
1546 29-04-2019 08:45:00 4.1 C 97 % 3.67 C
1547 29-04-2019 08:50:00 4.2 C 97 % 3.77 C
1548 29-04-2019 08:55:00 4.3 C 97 % 3.87 C
1549 29-04-2019 09:00:00 4.4 C 97 % 3.97 C
1550 29-04-2019 09:05:00 4.5 C 97 % 4.07 C
Sensor: Nr:Datum:Temp:Feuchte:Taupunkt:
Aussen-T/F 1551 29-04-2019 09:10:00 4.6 C 97 % 4.17 C
1552 29-04-2019 09:15:00 4.7 C 97 % 4.27 C
1553 29-04-2019 09:20:00 4.8 C 97 % 4.37 C
1554 29-04-2019 09:25:00 5 C 97 % 4.56 C
1555 29-04-2019 09:30:00 5.1 C 97 % 4.66 C
1556 29-04-2019 09:35:00 5.2 C 97 % 4.76 C
1557 29-04-2019 09:40:00 5.3 C 97 % 4.86 C
1558 29-04-2019 09:45:00 5.4 C 97 % 4.96 C
1559 29-04-2019 09:50:00 5.5 C 97 % 5.06 C
1560 29-04-2019 09:55:00 5.4 C 97 % 4.96 C
1561 29-04-2019 10:00:00 5.7 C 96 % 5.11 C
1562 29-04-2019 10:05:00 5.8 C 96 % 5.21 C
1563 29-04-2019 10:10:00 5.9 C 96 % 5.31 C
1564 29-04-2019 10:15:00 6.2 C 96 % 5.61 C
1565 29-04-2019 10:20:00 6.3 C 96 % 5.71 C
1566 29-04-2019 10:25:00 6.5 C 96 % 5.91 C
1567 29-04-2019 10:30:00 6.6 C 95 % 5.86 C
1568 29-04-2019 10:35:00 6.8 C 95 % 6.06 C
1569 29-04-2019 10:40:00 6.9 C 95 % 6.16 C
1570 29-04-2019 10:45:00 7.1 C 94 % 6.2 C
1571 29-04-2019 10:50:00 7.2 C 94 % 6.3 C
1572 29-04-2019 10:55:00 7.2 C 93 % 6.15 C
1573 29-04-2019 11:00:00 7.4 C 93 % 6.34 C
1574 29-04-2019 11:05:00 7.6 C 93 % 6.54 C
1575 29-04-2019 11:10:00 7.8 C 93 % 6.74 C
Sensor: Nr:Datum:Temp:Feuchte:Taupunkt:
Aussen-T/F 1576 29-04-2019 11:15:00 8 C 92 % 6.78 C
1577 29-04-2019 11:20:00 8.2 C 92 % 6.98 C
1578 29-04-2019 11:25:00 8.4 C 92 % 7.18 C
1579 29-04-2019 11:30:00 8.8 C 92 % 7.57 C
1580 29-04-2019 11:35:00 9.1 C 91 % 7.71 C
1581 29-04-2019 11:40:00 9.4 C 90 % 7.85 C
1582 29-04-2019 11:45:00 9.7 C 88 % 7.81 C
1583 29-04-2019 11:50:00 9.9 C 87 % 7.84 C
1584 29-04-2019 11:55:00 10.1 C 86 % 7.87 C
1585 29-04-2019 12:00:00 10.4 C 85 % 7.99 C
1586 29-04-2019 12:05:00 10.7 C 84 % 8.11 C
1587 29-04-2019 12:10:00 11.1 C 83 % 8.33 C
1588 29-04-2019 12:15:00 11.3 C 80 % 7.98 C
1589 29-04-2019 12:20:00 11.5 C 78 % 7.8 C
1590 29-04-2019 12:25:00 11.8 C 79 % 8.28 C
1591 29-04-2019 12:30:00 12.1 C 75 % 7.81 C
1592 29-04-2019 12:35:00 12.3 C 76 % 8.2 C
1593 29-04-2019 12:40:00 12.6 C 72 % 7.69 C
1594 29-04-2019 12:45:00 12.8 C 73 % 8.09 C
1595 29-04-2019 12:50:00 13.2 C 71 % 8.06 C
1596 29-04-2019 12:55:00 13.3 C 69 % 7.74 C
1597 29-04-2019 13:00:00 13.5 C 67 % 7.5 C
1598 29-04-2019 13:05:00 13.7 C 65 % 7.25 C
1599 29-04-2019 13:10:00 13.8 C 63 % 6.89 C
1600 29-04-2019 13:15:00 13.9 C 63 % 6.98 C
Sensor: Nr:Datum:Temp:Feuchte:Taupunkt:
Aussen-T/F 1601 29-04-2019 13:20:00 14 C 64 % 7.31 C
1602 29-04-2019 13:25:00 14 C 64 % 7.31 C
1603 29-04-2019 13:30:00 14 C 64 % 7.31 C
1604 29-04-2019 13:35:00 14 C 64 % 7.31 C
1605 29-04-2019 13:40:00 14 C 62 % 6.84 C
1606 29-04-2019 13:45:00 14.2 C 63 % 7.27 C
1607 29-04-2019 13:50:00 14.3 C 61 % 6.89 C
1608 29-04-2019 13:55:00 14.3 C 60 % 6.65 C
1609 29-04-2019 14:00:00 14.3 C 59 % 6.41 C
1610 29-04-2019 14:05:00 14.4 C 60 % 6.74 C
1611 29-04-2019 14:10:00 14.4 C 60 % 6.74 C
1612 29-04-2019 14:15:00 14.7 C 57 % 6.28 C
1613 29-04-2019 14:20:00 14.7 C 56 % 6.02 C
1614 29-04-2019 14:25:00 14.8 C 59 % 6.87 C
1615 29-04-2019 14:30:00 14.8 C 57 % 6.37 C
1616 29-04-2019 14:35:00 14.9 C 56 % 6.21 C
1617 29-04-2019 14:40:00 15.2 C 56 % 6.49 C
1618 29-04-2019 14:45:00 15.3 C 55 % 6.32 C
1619 29-04-2019 14:50:00 15.3 C 55 % 6.32 C
1620 29-04-2019 14:55:00 15.2 C 55 % 6.23 C
1621 29-04-2019 15:00:00 15.2 C 56 % 6.49 C
1622 29-04-2019 15:05:00 15.3 C 57 % 6.84 C
1623 29-04-2019 15:10:00 15.3 C 55 % 6.32 C
1624 29-04-2019 15:15:00 15.3 C 57 % 6.84 C
1625 29-04-2019 15:20:00 15.2 C 57 % 6.75 C
Sensor: Nr:Datum:Temp:Feuchte:Taupunkt:
Aussen-T/F 1626 29-04-2019 15:25:00 15.3 C 57 % 6.84 C
1627 29-04-2019 15:30:00 15.3 C 55 % 6.32 C
1628 29-04-2019 15:35:00 15.3 C 56 % 6.58 C
1629 29-04-2019 15:40:00 15.2 C 56 % 6.49 C
1630 29-04-2019 15:45:00 15.3 C 58 % 7.09 C
1631 29-04-2019 15:50:00 15.4 C 56 % 6.68 C
1632 29-04-2019 15:55:00 15.4 C 56 % 6.68 C
1633 29-04-2019 16:00:00 15.3 C 54 % 6.06 C
1634 29-04-2019 16:05:00 15.3 C 54 % 6.06 C
1635 29-04-2019 16:10:00 15.3 C 55 % 6.32 C
1636 29-04-2019 16:15:00 15.3 C 55 % 6.32 C
1637 29-04-2019 16:20:00 15.3 C 56 % 6.58 C
1638 29-04-2019 16:25:00 15.3 C 55 % 6.32 C
1639 29-04-2019 16:30:00 15.3 C 55 % 6.32 C
1640 29-04-2019 16:35:00 15.3 C 54 % 6.06 C
1641 29-04-2019 16:40:00 15.3 C 55 % 6.32 C
1642 29-04-2019 16:45:00 15.3 C 58 % 7.09 C
1643 29-04-2019 16:50:00 15.4 C 56 % 6.68 C
1644 29-04-2019 16:55:00 15.4 C 57 % 6.93 C
1645 29-04-2019 17:00:00 15.4 C 56 % 6.68 C
1646 29-04-2019 17:05:00 15.4 C 57 % 6.93 C
1647 29-04-2019 17:10:00 15.4 C 56 % 6.68 C
1648 29-04-2019 17:15:00 15.4 C 55 % 6.42 C
1649 29-04-2019 17:20:00 15.4 C 54 % 6.15 C
1650 29-04-2019 17:25:00 15.4 C 55 % 6.42 C
Sensor: Nr:Datum:Temp:Feuchte:Taupunkt:
Aussen-T/F 1651 29-04-2019 17:30:00 15.3 C 57 % 6.84 C
1652 29-04-2019 17:35:00 15.3 C 56 % 6.58 C
1653 29-04-2019 17:40:00 15.3 C 56 % 6.58 C
1654 29-04-2019 17:45:00 15.2 C 56 % 6.49 C
1655 29-04-2019 17:50:00 15.2 C 55 % 6.23 C
1656 29-04-2019 17:55:00 15.1 C 56 % 6.4 C
1657 29-04-2019 18:00:00 14.9 C 57 % 6.47 C
1658 29-04-2019 18:05:00 14.7 C 58 % 6.53 C
1659 29-04-2019 18:10:00 14.4 C 60 % 6.74 C
1660 29-04-2019 18:15:00 14.2 C 63 % 7.27 C
1661 29-04-2019 18:20:00 13.9 C 63 % 6.98 C
1662 29-04-2019 18:25:00 13.7 C 65 % 7.25 C
1663 29-04-2019 18:30:00 13.6 C 69 % 8.03 C
1664 29-04-2019 18:35:00 13.4 C 72 % 8.46 C
1665 29-04-2019 18:40:00 13.3 C 77 % 9.36 C
1666 29-04-2019 18:45:00 13.1 C 77 % 9.16 C
1667 29-04-2019 18:50:00 12.7 C 80 % 9.34 C
1668 29-04-2019 18:55:00 12.4 C 83 % 9.6 C
1669 29-04-2019 19:00:00 12.2 C 84 % 9.58 C
1670 29-04-2019 19:05:00 11.9 C 86 % 9.64 C
1671 29-04-2019 19:10:00 11.7 C 86 % 9.44 C
1672 29-04-2019 19:15:00 11.4 C 87 % 9.32 C
1673 29-04-2019 19:20:00 11.2 C 88 % 9.29 C
1674 29-04-2019 19:25:00 11 C 88 % 9.09 C
1675 29-04-2019 19:30:00 10.9 C 89 % 9.16 C
Sensor: Nr:Datum:Temp:Feuchte:Taupunkt:
Aussen-T/F 1676 29-04-2019 19:35:00 10.7 C 89 % 8.96 C
1677 29-04-2019 19:40:00 10.6 C 90 % 9.03 C
1678 29-04-2019 19:45:00 10.5 C 90 % 8.93 C
1679 29-04-2019 19:50:00 10.4 C 90 % 8.83 C
1680 29-04-2019 19:55:00 10.4 C 90 % 8.83 C
1681 29-04-2019 20:00:00 10.3 C 91 % 8.9 C
1682 29-04-2019 20:05:00 10.3 C 91 % 8.9 C
1683 29-04-2019 20:10:00 10.3 C 91 % 8.9 C
1684 29-04-2019 20:15:00 10.3 C 91 % 8.9 C
1685 29-04-2019 20:20:00 10.2 C 91 % 8.8 C
1686 29-04-2019 20:25:00 10.3 C 92 % 9.06 C
1687 29-04-2019 20:30:00 10.3 C 92 % 9.06 C
1688 29-04-2019 20:35:00 10.2 C 92 % 8.96 C
1689 29-04-2019 20:40:00 10.2 C 92 % 8.96 C
1690 29-04-2019 20:45:00 10.2 C 92 % 8.96 C
1691 29-04-2019 20:50:00 10.2 C 92 % 8.96 C
1692 29-04-2019 20:55:00 10.2 C 92 % 8.96 C
1693 29-04-2019 21:00:00 10.2 C 92 % 8.96 C
1694 29-04-2019 21:05:00 10.1 C 93 % 9.02 C
1695 29-04-2019 21:10:00 10.1 C 93 % 9.02 C
1696 29-04-2019 21:15:00 10.1 C 93 % 9.02 C
1697 29-04-2019 21:20:00 10.1 C 93 % 9.02 C
1698 29-04-2019 21:25:00 10.1 C 92 % 8.86 C
1699 29-04-2019 21:30:00 10.1 C 92 % 8.86 C
1700 29-04-2019 21:35:00 10.1 C 92 % 8.86 C
Sensor: Nr:Datum:Temp:Feuchte:Taupunkt:
Aussen-T/F 1701 29-04-2019 21:40:00 10.1 C 92 % 8.86 C
1702 29-04-2019 21:45:00 10.2 C 92 % 8.96 C
1703 29-04-2019 21:50:00 10.2 C 92 % 8.96 C
1704 29-04-2019 21:55:00 10.2 C 92 % 8.96 C
1705 29-04-2019 22:00:00 10.2 C 92 % 8.96 C
1706 29-04-2019 22:05:00 10.2 C 92 % 8.96 C
1707 29-04-2019 22:10:00 10.2 C 92 % 8.96 C
1708 29-04-2019 22:15:00 10.3 C 92 % 9.06 C
1709 29-04-2019 22:20:00 10.3 C 92 % 9.06 C
1710 29-04-2019 22:25:00 10.2 C 92 % 8.96 C
1711 29-04-2019 22:30:00 10.2 C 92 % 8.96 C
1712 29-04-2019 22:35:00 10.3 C 92 % 9.06 C
1713 29-04-2019 22:40:00 10.3 C 92 % 9.06 C
1714 29-04-2019 22:45:00 10.3 C 91 % 8.9 C
1715 29-04-2019 22:50:00 10.3 C 91 % 8.9 C
1716 29-04-2019 22:55:00 10.3 C 91 % 8.9 C
1717 29-04-2019 23:00:00 10.4 C 90 % 8.83 C
1718 29-04-2019 23:05:00 10.5 C 90 % 8.93 C
1719 29-04-2019 23:10:00 10.6 C 90 % 9.03 C
1720 29-04-2019 23:15:00 10.6 C 89 % 8.86 C
1721 29-04-2019 23:20:00 10.7 C 90 % 9.13 C
1722 29-04-2019 23:25:00 10.7 C 89 % 8.96 C
1723 29-04-2019 23:30:00 10.7 C 89 % 8.96 C
1724 29-04-2019 23:35:00 10.7 C 89 % 8.96 C
1725 29-04-2019 23:40:00 10.8 C 90 % 9.23 C
Sensor: Nr:Datum:Temp:Feuchte:Taupunkt:
Aussen-T/F 1726 29-04-2019 23:45:00 10.8 C 90 % 9.23 C
1727 29-04-2019 23:50:00 10.7 C 90 % 9.13 C
1728 29-04-2019 23:55:00 10.7 C 89 % 8.96 C
1729 30-04-2019 00:00:00 10.8 C 89 % 9.06 C
1730 30-04-2019 00:05:00 10.8 C 89 % 9.06 C
1731 30-04-2019 00:10:00 10.8 C 89 % 9.06 C
1732 30-04-2019 00:15:00 10.8 C 88 % 8.89 C
1733 30-04-2019 00:20:00 10.9 C 87 % 8.82 C
1734 30-04-2019 00:25:00 11 C 87 % 8.92 C
1735 30-04-2019 00:30:00 11.1 C 87 % 9.02 C
1736 30-04-2019 00:35:00 11.1 C 87 % 9.02 C
1737 30-04-2019 00:40:00 11.1 C 87 % 9.02 C
1738 30-04-2019 00:45:00 11.1 C 86 % 8.85 C
1739 30-04-2019 00:50:00 11.1 C 86 % 8.85 C
1740 30-04-2019 00:55:00 11.2 C 86 % 8.95 C
1741 30-04-2019 01:00:00 11.2 C 86 % 8.95 C
1742 30-04-2019 01:05:00 11.2 C 86 % 8.95 C
1743 30-04-2019 01:10:00 11.2 C 86 % 8.95 C
1744 30-04-2019 01:15:00 11.2 C 86 % 8.95 C
1745 30-04-2019 01:20:00 11.2 C 86 % 8.95 C
1746 30-04-2019 01:25:00 11.2 C 86 % 8.95 C
1747 30-04-2019 01:30:00 11.2 C 86 % 8.95 C
1748 30-04-2019 01:35:00 11.2 C 86 % 8.95 C
1749 30-04-2019 01:40:00 11.1 C 86 % 8.85 C
1750 30-04-2019 01:45:00 11.1 C 87 % 9.02 C
Sensor: Nr:Datum:Temp:Feuchte:Taupunkt:
Aussen-T/F 1751 30-04-2019 01:50:00 11.1 C 87 % 9.02 C
1752 30-04-2019 01:55:00 11.1 C 87 % 9.02 C
1753 30-04-2019 02:00:00 11 C 87 % 8.92 C
1754 30-04-2019 02:05:00 11 C 87 % 8.92 C
1755 30-04-2019 02:10:00 10.9 C 88 % 8.99 C
1756 30-04-2019 02:15:00 10.9 C 88 % 8.99 C
1757 30-04-2019 02:20:00 10.9 C 88 % 8.99 C
1758 30-04-2019 02:25:00 10.9 C 88 % 8.99 C
1759 30-04-2019 02:30:00 10.8 C 88 % 8.89 C
1760 30-04-2019 02:35:00 10.8 C 88 % 8.89 C
1761 30-04-2019 02:40:00 10.8 C 88 % 8.89 C
1762 30-04-2019 02:45:00 10.8 C 89 % 9.06 C
1763 30-04-2019 02:50:00 10.7 C 89 % 8.96 C
1764 30-04-2019 02:55:00 10.7 C 89 % 8.96 C
1765 30-04-2019 03:00:00 10.7 C 89 % 8.96 C
1766 30-04-2019 03:05:00 10.7 C 89 % 8.96 C
1767 30-04-2019 03:10:00 10.7 C 89 % 8.96 C
1768 30-04-2019 03:15:00 10.6 C 89 % 8.86 C
1769 30-04-2019 03:20:00 10.6 C 89 % 8.86 C
1770 30-04-2019 03:25:00 10.6 C 89 % 8.86 C
1771 30-04-2019 03:30:00 10.6 C 89 % 8.86 C
1772 30-04-2019 03:35:00 10.6 C 89 % 8.86 C
1773 30-04-2019 03:40:00 10.6 C 89 % 8.86 C
1774 30-04-2019 03:45:00 10.5 C 89 % 8.77 C
1775 30-04-2019 03:50:00 10.5 C 89 % 8.77 C
Sensor: Nr:Datum:Temp:Feuchte:Taupunkt:
Aussen-T/F 1776 30-04-2019 03:55:00 10.4 C 89 % 8.67 C
1777 30-04-2019 04:00:00 10.4 C 89 % 8.67 C
1778 30-04-2019 04:05:00 10.4 C 89 % 8.67 C
1779 30-04-2019 04:10:00 10.4 C 89 % 8.67 C
1780 30-04-2019 04:15:00 10.3 C 89 % 8.57 C
1781 30-04-2019 04:20:00 10.3 C 89 % 8.57 C
1782 30-04-2019 04:25:00 10.3 C 89 % 8.57 C
1783 30-04-2019 04:30:00 10.3 C 88 % 8.4 C
1784 30-04-2019 04:35:00 10.3 C 89 % 8.57 C
1785 30-04-2019 04:40:00 10.3 C 89 % 8.57 C
1786 30-04-2019 04:45:00 10.3 C 89 % 8.57 C
1787 30-04-2019 04:50:00 10.2 C 89 % 8.47 C
1788 30-04-2019 04:55:00 10.2 C 89 % 8.47 C
1789 30-04-2019 05:00:00 10.2 C 89 % 8.47 C
1790 30-04-2019 05:05:00 10.2 C 88 % 8.3 C
1791 30-04-2019 05:10:00 10.2 C 88 % 8.3 C
1792 30-04-2019 05:15:00 10.2 C 88 % 8.3 C
1793 30-04-2019 05:20:00 10.2 C 88 % 8.3 C
1794 30-04-2019 05:25:00 10.2 C 88 % 8.3 C
1795 30-04-2019 05:30:00 10.2 C 88 % 8.3 C
1796 30-04-2019 05:35:00 10.2 C 88 % 8.3 C
1797 30-04-2019 05:40:00 10.2 C 88 % 8.3 C
1798 30-04-2019 05:45:00 10.2 C 88 % 8.3 C
1799 30-04-2019 05:50:00 10.1 C 88 % 8.21 C
1800 30-04-2019 05:55:00 10.1 C 88 % 8.21 C
Sensor: Nr:Datum:Temp:Feuchte:Taupunkt:
Aussen-T/F 1801 30-04-2019 06:00:00 10.1 C 88 % 8.21 C
1802 30-04-2019 06:05:00 10.1 C 88 % 8.21 C
1803 30-04-2019 06:10:00 10.1 C 88 % 8.21 C
1804 30-04-2019 06:15:00 10.1 C 88 % 8.21 C
1805 30-04-2019 06:20:00 10.1 C 89 % 8.37 C
1806 30-04-2019 06:25:00 10.1 C 89 % 8.37 C
1807 30-04-2019 06:30:00 10.1 C 89 % 8.37 C
1808 30-04-2019 06:35:00 10 C 89 % 8.27 C
1809 30-04-2019 06:40:00 10 C 89 % 8.27 C
1810 30-04-2019 06:45:00 10 C 89 % 8.27 C
1811 30-04-2019 06:50:00 10 C 90 % 8.44 C
1812 30-04-2019 06:55:00 10 C 90 % 8.44 C
1813 30-04-2019 07:00:00 10 C 90 % 8.44 C
1814 30-04-2019 07:05:00 9.9 C 90 % 8.34 C
1815 30-04-2019 07:10:00 9.9 C 90 % 8.34 C
1816 30-04-2019 07:15:00 9.9 C 89 % 8.17 C
1817 30-04-2019 07:20:00 10 C 89 % 8.27 C
1818 30-04-2019 07:25:00 10 C 89 % 8.27 C
1819 30-04-2019 07:30:00 10.1 C 89 % 8.37 C
1820 30-04-2019 07:35:00 10.1 C 89 % 8.37 C
1821 30-04-2019 07:40:00 10.2 C 88 % 8.3 C
1822 30-04-2019 07:45:00 10.2 C 88 % 8.3 C
1823 30-04-2019 07:50:00 10.3 C 87 % 8.23 C
1824 30-04-2019 07:55:00 10.3 C 87 % 8.23 C
1825 30-04-2019 08:00:00 10.4 C 87 % 8.33 C
Sensor: Nr:Datum:Temp:Feuchte:Taupunkt:
Aussen-T/F 1826 30-04-2019 08:05:00 10.4 C 87 % 8.33 C
1827 30-04-2019 08:10:00 10.5 C 86 % 8.26 C
1828 30-04-2019 08:15:00 10.6 C 86 % 8.36 C
1829 30-04-2019 08:20:00 10.6 C 86 % 8.36 C
1830 30-04-2019 08:25:00 10.7 C 86 % 8.46 C
1831 30-04-2019 08:30:00 10.7 C 85 % 8.28 C
1832 30-04-2019 08:35:00 10.8 C 83 % 8.03 C
1833 30-04-2019 08:40:00 10.9 C 82 % 7.95 C
1834 30-04-2019 08:45:00 11 C 80 % 7.69 C
1835 30-04-2019 08:50:00 11 C 80 % 7.69 C
1836 30-04-2019 08:55:00 11.1 C 79 % 7.6 C
1837 30-04-2019 09:00:00 11 C 78 % 7.32 C
1838 30-04-2019 09:05:00 11.1 C 76 % 7.04 C
1839 30-04-2019 09:10:00 11.2 C 78 % 7.51 C
1840 30-04-2019 09:15:00 11.3 C 77 % 7.42 C
1841 30-04-2019 09:20:00 11.4 C 77 % 7.52 C
1842 30-04-2019 09:25:00 11.5 C 77 % 7.61 C
1843 30-04-2019 09:30:00 11.6 C 77 % 7.71 C
1844 30-04-2019 09:35:00 11.7 C 77 % 7.81 C
1845 30-04-2019 09:40:00 11.7 C 76 % 7.62 C
1846 30-04-2019 09:45:00 11.8 C 77 % 7.9 C
1847 30-04-2019 09:50:00 11.9 C 76 % 7.81 C
1848 30-04-2019 09:55:00 12 C 76 % 7.91 C
1849 30-04-2019 10:00:00 12.1 C 76 % 8 C
1850 30-04-2019 10:05:00 12.2 C 73 % 7.51 C
Sensor: Nr:Datum:Temp:Feuchte:Taupunkt:
Aussen-T/F 1851 30-04-2019 10:10:00 12.3 C 73 % 7.61 C
1852 30-04-2019 10:15:00 12.4 C 71 % 7.3 C
1853 30-04-2019 10:20:00 12.5 C 70 % 7.18 C
1854 30-04-2019 10:25:00 12.6 C 69 % 7.07 C
1855 30-04-2019 10:30:00 12.6 C 69 % 7.07 C
1856 30-04-2019 10:35:00 12.7 C 69 % 7.17 C
1857 30-04-2019 10:40:00 12.8 C 67 % 6.83 C
1858 30-04-2019 10:45:00 12.9 C 69 % 7.36 C
1859 30-04-2019 10:50:00 13.1 C 68 % 7.34 C
1860 30-04-2019 10:55:00 13.2 C 67 % 7.21 C
1861 30-04-2019 11:00:00 13.3 C 64 % 6.64 C
1862 30-04-2019 11:05:00 13.3 C 64 % 6.64 C
1863 30-04-2019 11:10:00 13.5 C 64 % 6.83 C
1864 30-04-2019 11:15:00 13.6 C 63 % 6.7 C
1865 30-04-2019 11:20:00 13.6 C 63 % 6.7 C
1866 30-04-2019 11:25:00 13.6 C 62 % 6.47 C
1867 30-04-2019 11:30:00 13.6 C 63 % 6.7 C
1868 30-04-2019 11:35:00 13.7 C 62 % 6.56 C
1869 30-04-2019 11:40:00 13.7 C 63 % 6.79 C
1870 30-04-2019 11:45:00 13.8 C 62 % 6.65 C
1871 30-04-2019 11:50:00 13.8 C 62 % 6.65 C
1872 30-04-2019 11:55:00 13.8 C 61 % 6.42 C
1873 30-04-2019 12:00:00 13.9 C 62 % 6.75 C
1874 30-04-2019 12:05:00 14.2 C 60 % 6.56 C
1875 30-04-2019 12:10:00 14.3 C 59 % 6.41 C
Sensor: Nr:Datum:Temp:Feuchte:Taupunkt:
Aussen-T/F 1876 30-04-2019 12:15:00 14.3 C 61 % 6.89 C
1877 30-04-2019 12:20:00 14.3 C 61 % 6.89 C
1878 30-04-2019 12:25:00 14.4 C 58 % 6.25 C
1879 30-04-2019 12:30:00 14.4 C 58 % 6.25 C
1880 30-04-2019 12:35:00 14.6 C 57 % 6.19 C
1881 30-04-2019 12:40:00 14.8 C 56 % 6.12 C
1882 30-04-2019 12:45:00 14.8 C 57 % 6.37 C
1883 30-04-2019 12:50:00 14.9 C 55 % 5.95 C
1884 30-04-2019 12:55:00 15.1 C 56 % 6.4 C
1885 30-04-2019 13:00:00 15.2 C 52 % 5.42 C
1886 30-04-2019 13:05:00 15.3 C 53 % 5.79 C
1887 30-04-2019 13:10:00 15.4 C 55 % 6.42 C
1888 30-04-2019 13:15:00 15.6 C 57 % 7.12 C
1889 30-04-2019 13:20:00 15.6 C 54 % 6.34 C
1890 30-04-2019 13:25:00 15.6 C 54 % 6.34 C
1891 30-04-2019 13:30:00 15.6 C 54 % 6.34 C
1892 30-04-2019 13:35:00 15.7 C 53 % 6.16 C
1893 30-04-2019 13:40:00 15.8 C 51 % 5.69 C
1894 30-04-2019 13:45:00 15.9 C 53 % 6.34 C
1895 30-04-2019 13:50:00 16 C 53 % 6.44 C
1896 30-04-2019 13:55:00 16.2 C 50 % 5.78 C
1897 30-04-2019 14:00:00 16.3 C 52 % 6.44 C
1898 30-04-2019 14:05:00 16.3 C 49 % 5.58 C
1899 30-04-2019 14:10:00 16.4 C 48 % 5.37 C
1900 30-04-2019 14:15:00 16.5 C 50 % 6.05 C
Sensor: Nr:Datum:Temp:Feuchte:Taupunkt:
Aussen-T/F 1901 30-04-2019 14:20:00 16.7 C 49 % 5.95 C
1902 30-04-2019 14:25:00 16.8 C 49 % 6.04 C
1903 30-04-2019 14:30:00 16.9 C 49 % 6.13 C
1904 30-04-2019 14:35:00 17.2 C 47 % 5.8 C
1905 30-04-2019 14:40:00 17.2 C 47 % 5.8 C
1906 30-04-2019 14:45:00 17.2 C 48 % 6.11 C
1907 30-04-2019 14:50:00 17.3 C 47 % 5.89 C
1908 30-04-2019 14:55:00 17.6 C 47 % 6.17 C
1909 30-04-2019 15:00:00 17.7 C 49 % 6.86 C
1910 30-04-2019 15:05:00 17.8 C 46 % 6.04 C
1911 30-04-2019 15:10:00 18.1 C 48 % 6.93 C
1912 30-04-2019 15:15:00 18.3 C 45 % 6.17 C
1913 30-04-2019 15:20:00 18.4 C 47 % 6.9 C
1914 30-04-2019 15:25:00 18.5 C 44 % 6.03 C
1915 30-04-2019 15:30:00 18.6 C 45 % 6.45 C
1916 30-04-2019 15:35:00 18.8 C 45 % 6.63 C
1917 30-04-2019 15:40:00 19.1 C 44 % 6.57 C
1918 30-04-2019 15:45:00 19.2 C 45 % 6.99 C
1919 30-04-2019 15:50:00 19.3 C 43 % 6.42 C
1920 30-04-2019 15:55:00 19.3 C 43 % 6.42 C
1921 30-04-2019 16:00:00 19.4 C 42 % 6.17 C
1922 30-04-2019 16:05:00 19.6 C 42 % 6.35 C
1923 30-04-2019 16:10:00 19.7 C 42 % 6.44 C
1924 30-04-2019 16:15:00 19.8 C 41 % 6.18 C
1925 30-04-2019 16:20:00 19.9 C 42 % 6.62 C
Sensor: Nr:Datum:Temp:Feuchte:Taupunkt:
Aussen-T/F 1926 30-04-2019 16:25:00 20.2 C 41 % 6.54 C
1927 30-04-2019 16:30:00 20.3 C 40 % 6.27 C
1928 30-04-2019 16:35:00 20.2 C 39 % 5.82 C
1929 30-04-2019 16:40:00 20.2 C 39 % 5.82 C
1930 30-04-2019 16:45:00 20.2 C 41 % 6.54 C
1931 30-04-2019 16:50:00 20.4 C 41 % 6.72 C
1932 30-04-2019 16:55:00 20.4 C 40 % 6.36 C
1933 30-04-2019 17:00:00 20.4 C 42 % 7.07 C
1934 30-04-2019 17:05:00 20.5 C 40 % 6.45 C
1935 30-04-2019 17:10:00 20.4 C 42 % 7.07 C
1936 30-04-2019 17:15:00 20.4 C 42 % 7.07 C
1937 30-04-2019 17:20:00 20.6 C 42 % 7.25 C
1938 30-04-2019 17:25:00 20.7 C 42 % 7.34 C
1939 30-04-2019 17:30:00 20.5 C 42 % 7.16 C
1940 30-04-2019 17:35:00 20.5 C 40 % 6.45 C
1941 30-04-2019 17:40:00 20.4 C 41 % 6.72 C
1942 30-04-2019 17:45:00 20.4 C 41 % 6.72 C
1943 30-04-2019 17:50:00 20.4 C 41 % 6.72 C
1944 30-04-2019 17:55:00 20.4 C 43 % 7.41 C
1945 30-04-2019 18:00:00 20.5 C 41 % 6.81 C
1946 30-04-2019 18:05:00 20.3 C 44 % 7.66 C
1947 30-04-2019 18:10:00 20.3 C 43 % 7.32 C
1948 30-04-2019 18:15:00 20.3 C 42 % 6.98 C
1949 30-04-2019 18:20:00 20.3 C 43 % 7.32 C
1950 30-04-2019 18:25:00 20.4 C 41 % 6.72 C
Sensor: Nr:Datum:Temp:Feuchte:Taupunkt:
Aussen-T/F 1951 30-04-2019 18:30:00 20.2 C 43 % 7.23 C
1952 30-04-2019 18:35:00 20.2 C 43 % 7.23 C
1953 30-04-2019 18:40:00 20.2 C 42 % 6.89 C
1954 30-04-2019 18:45:00 20.1 C 44 % 7.48 C
1955 30-04-2019 18:50:00 20.2 C 43 % 7.23 C
1956 30-04-2019 18:55:00 19.9 C 45 % 7.63 C
1957 30-04-2019 19:00:00 19.7 C 46 % 7.77 C
1958 30-04-2019 19:05:00 19.5 C 46 % 7.58 C
1959 30-04-2019 19:10:00 19.5 C 46 % 7.58 C
1960 30-04-2019 19:15:00 19.4 C 47 % 7.81 C
1961 30-04-2019 19:20:00 19.3 C 48 % 8.03 C
1962 30-04-2019 19:25:00 19.2 C 49 % 8.24 C
1963 30-04-2019 19:30:00 19.1 C 49 % 8.15 C
1964 30-04-2019 19:35:00 18.8 C 49 % 7.87 C
1965 30-04-2019 19:40:00 18.5 C 50 % 7.89 C
1966 30-04-2019 19:45:00 18.2 C 51 % 7.91 C
1967 30-04-2019 19:50:00 17.9 C 52 % 7.91 C
1968 30-04-2019 19:55:00 17.8 C 53 % 8.1 C
1969 30-04-2019 20:00:00 17.7 C 53 % 8.01 C
1970 30-04-2019 20:05:00 17.4 C 54 % 8.01 C
1971 30-04-2019 20:10:00 17.3 C 55 % 8.18 C
1972 30-04-2019 20:15:00 17.2 C 56 % 8.35 C
1973 30-04-2019 20:20:00 17.2 C 56 % 8.35 C
1974 30-04-2019 20:25:00 17.1 C 58 % 8.78 C
1975 30-04-2019 20:30:00 16.9 C 57 % 8.34 C
Sensor: Nr:Datum:Temp:Feuchte:Taupunkt:
Aussen-T/F 1976 30-04-2019 20:35:00 16.8 C 58 % 8.5 C
1977 30-04-2019 20:40:00 16.6 C 58 % 8.31 C
1978 30-04-2019 20:45:00 16.6 C 59 % 8.56 C
1979 30-04-2019 20:50:00 16.4 C 59 % 8.38 C
1980 30-04-2019 20:55:00 16.3 C 60 % 8.53 C
1981 30-04-2019 21:00:00 16.2 C 61 % 8.68 C
1982 30-04-2019 21:05:00 16.2 C 63 % 9.16 C
1983 30-04-2019 21:10:00 16 C 62 % 8.73 C
1984 30-04-2019 21:15:00 15.8 C 64 % 9.01 C
1985 30-04-2019 21:20:00 15.7 C 63 % 8.68 C
1986 30-04-2019 21:25:00 15.5 C 65 % 8.96 C
1987 30-04-2019 21:30:00 15.3 C 64 % 8.54 C
1988 30-04-2019 21:35:00 15.3 C 66 % 8.99 C
1989 30-04-2019 21:40:00 15.2 C 66 % 8.9 C
1990 30-04-2019 21:45:00 15 C 67 % 8.93 C
1991 30-04-2019 21:50:00 14.9 C 68 % 9.05 C
1992 30-04-2019 21:55:00 14.7 C 69 % 9.08 C
1993 30-04-2019 22:00:00 14.5 C 70 % 9.1 C
1994 30-04-2019 22:05:00 14.4 C 70 % 9 C
1995 30-04-2019 22:10:00 14.4 C 69 % 8.79 C
1996 30-04-2019 22:15:00 14.5 C 69 % 8.89 C
1997 30-04-2019 22:20:00 14.5 C 69 % 8.89 C
1998 30-04-2019 22:25:00 14.4 C 71 % 9.21 C
1999 30-04-2019 22:30:00 14.3 C 71 % 9.12 C
2000 30-04-2019 22:35:00 14.2 C 71 % 9.02 C
Sensor: Nr:Datum:Temp:Feuchte:Taupunkt:
Aussen-T/F 2001 30-04-2019 22:40:00 14.1 C 72 % 9.13 C
2002 30-04-2019 22:45:00 13.9 C 72 % 8.94 C
2003 30-04-2019 22:50:00 13.8 C 73 % 9.05 C
2004 30-04-2019 22:55:00 13.7 C 73 % 8.95 C
2005 30-04-2019 23:00:00 13.6 C 74 % 9.06 C
2006 30-04-2019 23:05:00 13.5 C 74 % 8.96 C
2007 30-04-2019 23:10:00 13.3 C 75 % 8.97 C
2008 30-04-2019 23:15:00 13.1 C 76 % 8.97 C
2009 30-04-2019 23:20:00 12.8 C 78 % 9.06 C
2010 30-04-2019 23:25:00 12.7 C 78 % 8.97 C
2011 30-04-2019 23:30:00 12.6 C 79 % 9.06 C
2012 30-04-2019 23:35:00 12.4 C 79 % 8.86 C
2013 30-04-2019 23:40:00 12.2 C 80 % 8.86 C
2014 30-04-2019 23:45:00 12.1 C 80 % 8.76 C
2015 30-04-2019 23:50:00 11.9 C 81 % 8.75 C
2016 30-04-2019 23:55:00 11.7 C 81 % 8.55 C
2017 01-05-2019 00:00:00 11.6 C 82 % 8.64 C
2018 01-05-2019 00:05:00 11.4 C 82 % 8.44 C
2019 01-05-2019 00:10:00 11.3 C 83 % 8.52 C
2020 01-05-2019 00:15:00 11.3 C 83 % 8.52 C
2021 01-05-2019 00:20:00 11.3 C 84 % 8.7 C
2022 01-05-2019 00:25:00 11.2 C 83 % 8.42 C
2023 01-05-2019 00:30:00 11.2 C 84 % 8.6 C
2024 01-05-2019 00:35:00 11.3 C 83 % 8.52 C
2025 01-05-2019 00:40:00 11.3 C 83 % 8.52 C
Sensor: Nr:Datum:Temp:Feuchte:Taupunkt:
Aussen-T/F 2026 01-05-2019 00:45:00 11.2 C 83 % 8.42 C
2027 01-05-2019 00:50:00 11.1 C 83 % 8.33 C
2028 01-05-2019 00:55:00 10.9 C 84 % 8.31 C
2029 01-05-2019 01:00:00 10.7 C 84 % 8.11 C
2030 01-05-2019 01:05:00 10.6 C 85 % 8.19 C
2031 01-05-2019 01:10:00 10.6 C 85 % 8.19 C
2032 01-05-2019 01:15:00 10.6 C 85 % 8.19 C
2033 01-05-2019 01:20:00 10.6 C 85 % 8.19 C
2034 01-05-2019 01:25:00 10.6 C 85 % 8.19 C
2035 01-05-2019 01:30:00 10.3 C 85 % 7.89 C
2036 01-05-2019 01:35:00 10.2 C 86 % 7.97 C
2037 01-05-2019 01:40:00 10.2 C 86 % 7.97 C
2038 01-05-2019 01:45:00 10.1 C 86 % 7.87 C
2039 01-05-2019 01:50:00 10 C 87 % 7.94 C
2040 01-05-2019 01:55:00 9.9 C 87 % 7.84 C
2041 01-05-2019 02:00:00 9.8 C 87 % 7.74 C
2042 01-05-2019 02:05:00 9.7 C 87 % 7.64 C
2043 01-05-2019 02:10:00 9.6 C 87 % 7.55 C
2044 01-05-2019 02:15:00 9.5 C 87 % 7.45 C
2045 01-05-2019 02:20:00 9.4 C 88 % 7.52 C
2046 01-05-2019 02:25:00 9.3 C 88 % 7.42 C
2047 01-05-2019 02:30:00 9.2 C 88 % 7.32 C
2048 01-05-2019 02:35:00 9.1 C 89 % 7.39 C
2049 01-05-2019 02:40:00 9 C 89 % 7.29 C
2050 01-05-2019 02:45:00 8.9 C 89 % 7.19 C
Sensor: Nr:Datum:Temp:Feuchte:Taupunkt:
Aussen-T/F 2051 01-05-2019 02:50:00 8.9 C 90 % 7.35 C
2052 01-05-2019 02:55:00 8.8 C 90 % 7.25 C
2053 01-05-2019 03:00:00 8.8 C 90 % 7.25 C
2054 01-05-2019 03:05:00 8.7 C 90 % 7.15 C
2055 01-05-2019 03:10:00 8.6 C 90 % 7.06 C
2056 01-05-2019 03:15:00 8.5 C 90 % 6.96 C
2057 01-05-2019 03:20:00 8.5 C 91 % 7.12 C
2058 01-05-2019 03:25:00 8.4 C 91 % 7.02 C
2059 01-05-2019 03:30:00 8.4 C 91 % 7.02 C
2060 01-05-2019 03:35:00 8.4 C 91 % 7.02 C
2061 01-05-2019 03:40:00 8.3 C 91 % 6.92 C
2062 01-05-2019 03:45:00 8.3 C 91 % 6.92 C
2063 01-05-2019 03:50:00 8.3 C 92 % 7.08 C
2064 01-05-2019 03:55:00 8.3 C 92 % 7.08 C
2065 01-05-2019 04:00:00 8.3 C 92 % 7.08 C
2066 01-05-2019 04:05:00 8.3 C 92 % 7.08 C
2067 01-05-2019 04:10:00 8.3 C 92 % 7.08 C
2068 01-05-2019 04:15:00 8.3 C 92 % 7.08 C
2069 01-05-2019 04:20:00 8.3 C 92 % 7.08 C
2070 01-05-2019 04:25:00 8.2 C 92 % 6.98 C
2071 01-05-2019 04:30:00 8.1 C 92 % 6.88 C
2072 01-05-2019 04:35:00 8 C 92 % 6.78 C
2073 01-05-2019 04:40:00 7.9 C 92 % 6.68 C
2074 01-05-2019 04:45:00 7.8 C 91 % 6.43 C
2075 01-05-2019 04:50:00 7.7 C 91 % 6.33 C
Sensor: Nr:Datum:Temp:Feuchte:Taupunkt:
Aussen-T/F 2076 01-05-2019 04:55:00 7.7 C 91 % 6.33 C
2077 01-05-2019 05:00:00 7.6 C 92 % 6.39 C
2078 01-05-2019 05:05:00 7.4 C 92 % 6.19 C
2079 01-05-2019 05:10:00 7.3 C 92 % 6.09 C
2080 01-05-2019 05:15:00 7.2 C 92 % 5.99 C
2081 01-05-2019 05:20:00 7.1 C 92 % 5.89 C
2082 01-05-2019 05:25:00 6.9 C 92 % 5.69 C
2083 01-05-2019 05:30:00 6.8 C 92 % 5.59 C
2084 01-05-2019 05:35:00 6.7 C 92 % 5.49 C
2085 01-05-2019 05:40:00 6.7 C 92 % 5.49 C
2086 01-05-2019 05:45:00 6.6 C 93 % 5.55 C
2087 01-05-2019 05:50:00 6.6 C 93 % 5.55 C
2088 01-05-2019 05:55:00 6.6 C 93 % 5.55 C
2089 01-05-2019 06:00:00 6.4 C 93 % 5.35 C
2090 01-05-2019 06:05:00 6.3 C 93 % 5.25 C
2091 01-05-2019 06:10:00 6.3 C 93 % 5.25 C
2092 01-05-2019 06:15:00 6.3 C 93 % 5.25 C
2093 01-05-2019 06:20:00 6.3 C 94 % 5.41 C
2094 01-05-2019 06:25:00 6.2 C 93 % 5.15 C
2095 01-05-2019 06:30:00 6.2 C 94 % 5.31 C
2096 01-05-2019 06:35:00 6.3 C 94 % 5.41 C
2097 01-05-2019 06:40:00 6.3 C 94 % 5.41 C
2098 01-05-2019 06:45:00 6.3 C 94 % 5.41 C
2099 01-05-2019 06:50:00 6.2 C 94 % 5.31 C
2100 01-05-2019 06:55:00 6.2 C 94 % 5.31 C
Sensor: Nr:Datum:Temp:Feuchte:Taupunkt:
Aussen-T/F 2101 01-05-2019 07:00:00 6.3 C 94 % 5.41 C
2102 01-05-2019 07:05:00 6.3 C 95 % 5.56 C
2103 01-05-2019 07:10:00 6.4 C 95 % 5.66 C
2104 01-05-2019 07:15:00 6.6 C 95 % 5.86 C
2105 01-05-2019 07:20:00 6.7 C 95 % 5.96 C
2106 01-05-2019 07:25:00 6.8 C 95 % 6.06 C
2107 01-05-2019 07:30:00 6.8 C 95 % 6.06 C
2108 01-05-2019 07:35:00 6.9 C 95 % 6.16 C
2109 01-05-2019 07:40:00 7.1 C 95 % 6.35 C
2110 01-05-2019 07:45:00 7.1 C 95 % 6.35 C
2111 01-05-2019 07:50:00 7.2 C 95 % 6.45 C
2112 01-05-2019 07:55:00 7.3 C 95 % 6.55 C
2113 01-05-2019 08:00:00 7.3 C 95 % 6.55 C
2114 01-05-2019 08:05:00 7.5 C 95 % 6.75 C
2115 01-05-2019 08:10:00 7.5 C 95 % 6.75 C
2116 01-05-2019 08:15:00 7.6 C 95 % 6.85 C
2117 01-05-2019 08:20:00 7.7 C 95 % 6.95 C
2118 01-05-2019 08:25:00 7.9 C 95 % 7.15 C
2119 01-05-2019 08:30:00 8.1 C 95 % 7.35 C
2120 01-05-2019 08:35:00 8.1 C 95 % 7.35 C
2121 01-05-2019 08:40:00 8.2 C 95 % 7.45 C
2122 01-05-2019 08:45:00 8.2 C 95 % 7.45 C
2123 01-05-2019 08:50:00 8.3 C 94 % 7.39 C
2124 01-05-2019 08:55:00 8.4 C 94 % 7.49 C
2125 01-05-2019 09:00:00 8.4 C 94 % 7.49 C
Sensor: Nr:Datum:Temp:Feuchte:Taupunkt:
Aussen-T/F 2126 01-05-2019 09:05:00 8.6 C 94 % 7.69 C
2127 01-05-2019 09:10:00 8.6 C 94 % 7.69 C
2128 01-05-2019 09:15:00 8.7 C 93 % 7.63 C
2129 01-05-2019 09:20:00 8.7 C 93 % 7.63 C
2130 01-05-2019 09:25:00 8.8 C 93 % 7.73 C
2131 01-05-2019 09:30:00 8.9 C 93 % 7.83 C
2132 01-05-2019 09:35:00 9.1 C 93 % 8.03 C
2133 01-05-2019 09:40:00 9.1 C 92 % 7.87 C
2134 01-05-2019 09:45:00 9.2 C 92 % 7.97 C
2135 01-05-2019 09:50:00 9.2 C 92 % 7.97 C
2136 01-05-2019 09:55:00 9.4 C 92 % 8.17 C
2137 01-05-2019 10:00:00 9.6 C 92 % 8.37 C
2138 01-05-2019 10:05:00 9.7 C 92 % 8.46 C
2139 01-05-2019 10:10:00 9.9 C 92 % 8.66 C
2140 01-05-2019 10:15:00 10.1 C 90 % 8.54 C
2141 01-05-2019 10:20:00 10 C 89 % 8.27 C
2142 01-05-2019 10:25:00 10 C 90 % 8.44 C
2143 01-05-2019 10:30:00 10.1 C 90 % 8.54 C
2144 01-05-2019 10:35:00 10.3 C 89 % 8.57 C
2145 01-05-2019 10:40:00 10.4 C 89 % 8.67 C
2146 01-05-2019 10:45:00 10.4 C 88 % 8.5 C
2147 01-05-2019 10:50:00 10.4 C 88 % 8.5 C
2148 01-05-2019 10:55:00 10.5 C 88 % 8.6 C
2149 01-05-2019 11:00:00 10.5 C 88 % 8.6 C
2150 01-05-2019 11:05:00 10.6 C 88 % 8.7 C
Sensor: Nr:Datum:Temp:Feuchte:Taupunkt:
Aussen-T/F 2151 01-05-2019 11:10:00 10.7 C 88 % 8.8 C
2152 01-05-2019 11:15:00 10.8 C 87 % 8.73 C
2153 01-05-2019 11:20:00 10.9 C 87 % 8.82 C
2154 01-05-2019 11:25:00 11.2 C 87 % 9.12 C
2155 01-05-2019 11:30:00 11.4 C 87 % 9.32 C
2156 01-05-2019 11:35:00 11.7 C 86 % 9.44 C
2157 01-05-2019 11:40:00 11.9 C 86 % 9.64 C
2158 01-05-2019 11:45:00 12.2 C 85 % 9.76 C
2159 01-05-2019 11:50:00 12.4 C 84 % 9.78 C
2160 01-05-2019 11:55:00 12.6 C 82 % 9.61 C
2161 01-05-2019 12:00:00 12.7 C 83 % 9.89 C
2162 01-05-2019 12:05:00 12.9 C 82 % 9.9 C
2163 01-05-2019 12:10:00 13.2 C 82 % 10.2 C
2164 01-05-2019 12:15:00 13.3 C 81 % 10.11 C
2165 01-05-2019 12:20:00 13.6 C 80 % 10.22 C
2166 01-05-2019 12:25:00 13.7 C 79 % 10.13 C
2167 01-05-2019 12:30:00 13.9 C 79 % 10.32 C
2168 01-05-2019 12:35:00 14.2 C 78 % 10.42 C
2169 01-05-2019 12:40:00 14.3 C 77 % 10.33 C
2170 01-05-2019 12:45:00 14.5 C 77 % 10.52 C
2171 01-05-2019 12:50:00 14.6 C 76 % 10.42 C
2172 01-05-2019 12:55:00 14.8 C 75 % 10.42 C
2173 01-05-2019 13:00:00 15 C 75 % 10.61 C
2174 01-05-2019 13:05:00 15.3 C 73 % 10.49 C
2175 01-05-2019 13:10:00 15.5 C 72 % 10.48 C
Sensor: Nr:Datum:Temp:Feuchte:Taupunkt:
Aussen-T/F 2176 01-05-2019 13:15:00 15.7 C 71 % 10.46 C
2177 01-05-2019 13:20:00 15.8 C 70 % 10.34 C
2178 01-05-2019 13:25:00 15.9 C 67 % 9.79 C
2179 01-05-2019 13:30:00 16.2 C 66 % 9.85 C
2180 01-05-2019 13:35:00 16.3 C 62 % 9.01 C
2181 01-05-2019 13:40:00 16.5 C 62 % 9.2 C
2182 01-05-2019 13:45:00 16.6 C 58 % 8.31 C
2183 01-05-2019 13:50:00 16.8 C 61 % 9.24 C
2184 01-05-2019 13:55:00 16.8 C 60 % 9 C
2185 01-05-2019 14:00:00 16.9 C 60 % 9.09 C
2186 01-05-2019 14:05:00 17.1 C 59 % 9.03 C
2187 01-05-2019 14:10:00 17.2 C 58 % 8.87 C
2188 01-05-2019 14:15:00 17.3 C 56 % 8.45 C
2189 01-05-2019 14:20:00 17.4 C 58 % 9.06 C
2190 01-05-2019 14:25:00 17.6 C 56 % 8.73 C
2191 01-05-2019 14:30:00 17.8 C 53 % 8.1 C
2192 01-05-2019 14:35:00 17.9 C 52 % 7.91 C
2193 01-05-2019 14:40:00 18.1 C 51 % 7.81 C
2194 01-05-2019 14:45:00 18.3 C 51 % 8 C
2195 01-05-2019 14:50:00 18.3 C 53 % 8.56 C
2196 01-05-2019 14:55:00 18.4 C 54 % 8.93 C
2197 01-05-2019 15:00:00 18.5 C 50 % 7.89 C
2198 01-05-2019 15:05:00 18.6 C 51 % 8.27 C
2199 01-05-2019 15:10:00 18.7 C 53 % 8.93 C
2200 01-05-2019 15:15:00 18.9 C 49 % 7.96 C
Sensor: Nr:Datum:Temp:Feuchte:Taupunkt:
Aussen-T/F 2201 01-05-2019 15:20:00 18.9 C 50 % 8.26 C
2202 01-05-2019 15:25:00 19.1 C 49 % 8.15 C
2203 01-05-2019 15:30:00 19.4 C 49 % 8.42 C
2204 01-05-2019 15:35:00 19.6 C 46 % 7.67 C
2205 01-05-2019 15:40:00 19.8 C 49 % 8.79 C
2206 01-05-2019 15:45:00 20.1 C 46 % 8.13 C
2207 01-05-2019 15:50:00 20.2 C 46 % 8.22 C
2208 01-05-2019 15:55:00 20.4 C 47 % 8.72 C
2209 01-05-2019 16:00:00 20.6 C 44 % 7.93 C
2210 01-05-2019 16:05:00 20.8 C 46 % 8.77 C
2211 01-05-2019 16:10:00 21.1 C 43 % 8.04 C
2212 01-05-2019 16:15:00 21 C 45 % 8.62 C
2213 01-05-2019 16:20:00 21.3 C 43 % 8.22 C
2214 01-05-2019 16:25:00 21.3 C 43 % 8.22 C
2215 01-05-2019 16:30:00 21.6 C 43 % 8.49 C
2216 01-05-2019 16:35:00 21.7 C 43 % 8.58 C
2217 01-05-2019 16:40:00 21.8 C 43 % 8.67 C
2218 01-05-2019 16:45:00 21.6 C 44 % 8.83 C
2219 01-05-2019 16:50:00 21.4 C 45 % 8.99 C
2220 01-05-2019 16:55:00 21.6 C 44 % 8.83 C
2221 01-05-2019 17:00:00 21.7 C 45 % 9.26 C
2222 01-05-2019 17:05:00 21.7 C 43 % 8.58 C
2223 01-05-2019 17:10:00 21.7 C 45 % 9.26 C
2224 01-05-2019 17:15:00 21.7 C 42 % 8.24 C
2225 01-05-2019 17:20:00 21.5 C 44 % 8.74 C
Sensor: Nr:Datum:Temp:Feuchte:Taupunkt:
Aussen-T/F 2226 01-05-2019 17:25:00 21.6 C 43 % 8.49 C
2227 01-05-2019 17:30:00 21.5 C 43 % 8.4 C
2228 01-05-2019 17:35:00 21.3 C 45 % 8.89 C
2229 01-05-2019 17:40:00 21.3 C 45 % 8.89 C
2230 01-05-2019 17:45:00 21.3 C 46 % 9.22 C
2231 01-05-2019 17:50:00 21.3 C 45 % 8.89 C
2232 01-05-2019 17:55:00 21.2 C 45 % 8.8 C
2233 01-05-2019 18:00:00 20.9 C 49 % 9.79 C
2234 01-05-2019 18:05:00 20.8 C 51 % 10.3 C
2235 01-05-2019 18:10:00 20.8 C 50 % 10 C
2236 01-05-2019 18:15:00 20.8 C 52 % 10.59 C
2237 01-05-2019 18:20:00 20.7 C 51 % 10.21 C
2238 01-05-2019 18:25:00 20.6 C 52 % 10.41 C
2239 01-05-2019 18:30:00 20.4 C 52 % 10.22 C
2240 01-05-2019 18:35:00 20.2 C 54 % 10.6 C
2241 01-05-2019 18:40:00 20 C 54 % 10.42 C
2242 01-05-2019 18:45:00 19.7 C 54 % 10.14 C
2243 01-05-2019 18:50:00 19.6 C 56 % 10.59 C
2244 01-05-2019 18:55:00 19.4 C 55 % 10.13 C
2245 01-05-2019 19:00:00 19.4 C 56 % 10.4 C
2246 01-05-2019 19:05:00 19.2 C 56 % 10.22 C
2247 01-05-2019 19:10:00 19 C 57 % 10.3 C
2248 01-05-2019 19:15:00 18.8 C 57 % 10.11 C
2249 01-05-2019 19:20:00 18.6 C 58 % 10.18 C
2250 01-05-2019 19:25:00 18.3 C 58 % 9.9 C
Sensor: Nr:Datum:Temp:Feuchte:Taupunkt:
Aussen-T/F 2251 01-05-2019 19:30:00 18 C 58 % 9.62 C
2252 01-05-2019 19:35:00 17.7 C 59 % 9.59 C
2253 01-05-2019 19:40:00 17.6 C 60 % 9.75 C
2254 01-05-2019 19:45:00 17.5 C 60 % 9.66 C
2255 01-05-2019 19:50:00 17.3 C 59 % 9.22 C
2256 01-05-2019 19:55:00 17.2 C 61 % 9.62 C
2257 01-05-2019 20:00:00 17.1 C 59 % 9.03 C
2258 01-05-2019 20:05:00 16.9 C 60 % 9.09 C
2259 01-05-2019 20:10:00 16.7 C 63 % 9.63 C
2260 01-05-2019 20:15:00 16.4 C 62 % 9.11 C
2261 01-05-2019 20:20:00 16.2 C 62 % 8.92 C
2262 01-05-2019 20:25:00 15.8 C 63 % 8.78 C
2263 01-05-2019 20:30:00 15.5 C 64 % 8.73 C
2264 01-05-2019 20:35:00 15.2 C 64 % 8.44 C
2265 01-05-2019 20:40:00 14.9 C 65 % 8.39 C
2266 01-05-2019 20:45:00 14.7 C 66 % 8.42 C
2267 01-05-2019 20:50:00 14.3 C 65 % 7.82 C
2268 01-05-2019 20:55:00 14.2 C 67 % 8.17 C
2269 01-05-2019 21:00:00 13.9 C 69 % 8.31 C
2270 01-05-2019 21:05:00 13.6 C 71 % 8.45 C
2271 01-05-2019 21:10:00 13.4 C 73 % 8.66 C
2272 01-05-2019 21:15:00 13.3 C 73 % 8.57 C
2273 01-05-2019 21:20:00 13.3 C 74 % 8.77 C
2274 01-05-2019 21:25:00 13.4 C 74 % 8.87 C
2275 01-05-2019 21:30:00 13.6 C 74 % 9.06 C
Sensor: Nr:Datum:Temp:Feuchte:Taupunkt:
Aussen-T/F 2276 01-05-2019 21:35:00 13.6 C 74 % 9.06 C
2277 01-05-2019 21:40:00 13.5 C 74 % 8.96 C
2278 01-05-2019 21:45:00 13.6 C 74 % 9.06 C
2279 01-05-2019 21:50:00 13.6 C 74 % 9.06 C
2280 01-05-2019 21:55:00 13.6 C 75 % 9.26 C
2281 01-05-2019 22:00:00 13.6 C 75 % 9.26 C
2282 01-05-2019 22:05:00 13.4 C 75 % 9.06 C
2283 01-05-2019 22:10:00 13.4 C 75 % 9.06 C
2284 01-05-2019 22:15:00 13.4 C 75 % 9.06 C
2285 01-05-2019 22:20:00 13.3 C 76 % 9.16 C
2286 01-05-2019 22:25:00 13.1 C 77 % 9.16 C
2287 01-05-2019 22:30:00 12.8 C 78 % 9.06 C
2288 01-05-2019 22:35:00 12.5 C 79 % 8.96 C
2289 01-05-2019 22:40:00 12.3 C 80 % 8.95 C
2290 01-05-2019 22:45:00 12 C 81 % 8.84 C
2291 01-05-2019 22:50:00 11.8 C 82 % 8.83 C
2292 01-05-2019 22:55:00 11.6 C 82 % 8.64 C
2293 01-05-2019 23:00:00 11.4 C 83 % 8.62 C
2294 01-05-2019 23:05:00 11.3 C 84 % 8.7 C
2295 01-05-2019 23:10:00 11.2 C 84 % 8.6 C
2296 01-05-2019 23:15:00 11.1 C 85 % 8.68 C
2297 01-05-2019 23:20:00 10.9 C 85 % 8.48 C
2298 01-05-2019 23:25:00 10.8 C 85 % 8.38 C
2299 01-05-2019 23:30:00 10.7 C 86 % 8.46 C
2300 01-05-2019 23:35:00 10.6 C 86 % 8.36 C
Sensor: Nr:Datum:Temp:Feuchte:Taupunkt:
Aussen-T/F 2301 01-05-2019 23:40:00 10.6 C 86 % 8.36 C
2302 01-05-2019 23:45:00 10.4 C 87 % 8.33 C
2303 01-05-2019 23:50:00 10.4 C 87 % 8.33 C
2304 01-05-2019 23:55:00 10.3 C 87 % 8.23 C
2305 02-05-2019 00:00:00 10.3 C 87 % 8.23 C
2306 02-05-2019 00:05:00 10.2 C 87 % 8.14 C
2307 02-05-2019 00:10:00 10.2 C 88 % 8.3 C
2308 02-05-2019 00:15:00 10.2 C 88 % 8.3 C
2309 02-05-2019 00:20:00 10.1 C 88 % 8.21 C
2310 02-05-2019 00:25:00 10 C 88 % 8.11 C
2311 02-05-2019 00:30:00 9.9 C 89 % 8.17 C
2312 02-05-2019 00:35:00 9.9 C 89 % 8.17 C
2313 02-05-2019 00:40:00 9.8 C 89 % 8.08 C
2314 02-05-2019 00:45:00 9.8 C 89 % 8.08 C
2315 02-05-2019 00:50:00 9.7 C 89 % 7.98 C
2316 02-05-2019 00:55:00 9.7 C 89 % 7.98 C
2317 02-05-2019 01:00:00 9.6 C 89 % 7.88 C
2318 02-05-2019 01:05:00 9.5 C 89 % 7.78 C
2319 02-05-2019 01:10:00 9.3 C 90 % 7.75 C
2320 02-05-2019 01:15:00 9.2 C 89 % 7.48 C
2321 02-05-2019 01:20:00 9.1 C 90 % 7.55 C
2322 02-05-2019 01:25:00 8.9 C 90 % 7.35 C
2323 02-05-2019 01:30:00 8.8 C 90 % 7.25 C
2324 02-05-2019 01:35:00 8.7 C 91 % 7.32 C
2325 02-05-2019 01:40:00 8.7 C 91 % 7.32 C
Sensor: Nr:Datum:Temp:Feuchte:Taupunkt:
Aussen-T/F 2326 02-05-2019 01:45:00 8.6 C 92 % 7.38 C
2327 02-05-2019 01:50:00 8.6 C 92 % 7.38 C
2328 02-05-2019 01:55:00 8.6 C 92 % 7.38 C
2329 02-05-2019 02:00:00 8.4 C 92 % 7.18 C
2330 02-05-2019 02:05:00 8.4 C 92 % 7.18 C
2331 02-05-2019 02:10:00 8.3 C 92 % 7.08 C
2332 02-05-2019 02:15:00 8.3 C 92 % 7.08 C
2333 02-05-2019 02:20:00 8.3 C 93 % 7.24 C
2334 02-05-2019 02:25:00 8.2 C 93 % 7.14 C
2335 02-05-2019 02:30:00 8.2 C 93 % 7.14 C
2336 02-05-2019 02:35:00 8.2 C 93 % 7.14 C
2337 02-05-2019 02:40:00 8.2 C 93 % 7.14 C
2338 02-05-2019 02:45:00 8.1 C 93 % 7.04 C
2339 02-05-2019 02:50:00 8.1 C 93 % 7.04 C
2340 02-05-2019 02:55:00 8.1 C 94 % 7.19 C
2341 02-05-2019 03:00:00 8 C 93 % 6.94 C
2342 02-05-2019 03:05:00 7.9 C 94 % 7 C
2343 02-05-2019 03:10:00 7.9 C 93 % 6.84 C
2344 02-05-2019 03:15:00 7.9 C 93 % 6.84 C
2345 02-05-2019 03:20:00 7.9 C 94 % 7 C
2346 02-05-2019 03:25:00 7.8 C 94 % 6.9 C
2347 02-05-2019 03:30:00 7.8 C 94 % 6.9 C
2348 02-05-2019 03:35:00 7.7 C 94 % 6.8 C
2349 02-05-2019 03:40:00 7.6 C 93 % 6.54 C
2350 02-05-2019 03:45:00 7.5 C 93 % 6.44 C
Sensor: Nr:Datum:Temp:Feuchte:Taupunkt:
Aussen-T/F 2351 02-05-2019 03:50:00 7.4 C 94 % 6.5 C
2352 02-05-2019 03:55:00 7.4 C 94 % 6.5 C
2353 02-05-2019 04:00:00 7.3 C 94 % 6.4 C
2354 02-05-2019 04:05:00 7.3 C 94 % 6.4 C
2355 02-05-2019 04:10:00 7.2 C 94 % 6.3 C
2356 02-05-2019 04:15:00 7.2 C 94 % 6.3 C
2357 02-05-2019 04:20:00 7.1 C 94 % 6.2 C
2358 02-05-2019 04:25:00 7.1 C 94 % 6.2 C
2359 02-05-2019 04:30:00 7 C 94 % 6.1 C
2360 02-05-2019 04:35:00 6.9 C 94 % 6 C
2361 02-05-2019 04:40:00 6.9 C 94 % 6 C
2362 02-05-2019 04:45:00 6.8 C 94 % 5.9 C
2363 02-05-2019 04:50:00 6.8 C 94 % 5.9 C
2364 02-05-2019 04:55:00 6.7 C 94 % 5.8 C
2365 02-05-2019 05:00:00 6.6 C 94 % 5.71 C
2366 02-05-2019 05:05:00 6.6 C 94 % 5.71 C
2367 02-05-2019 05:10:00 6.6 C 94 % 5.71 C
2368 02-05-2019 05:15:00 6.4 C 94 % 5.51 C
2369 02-05-2019 05:20:00 6.4 C 94 % 5.51 C
2370 02-05-2019 05:25:00 6.3 C 94 % 5.41 C
2371 02-05-2019 05:30:00 6.3 C 94 % 5.41 C
2372 02-05-2019 05:35:00 6.2 C 94 % 5.31 C
2373 02-05-2019 05:40:00 6.2 C 95 % 5.46 C
2374 02-05-2019 05:45:00 6.1 C 95 % 5.36 C
2375 02-05-2019 05:50:00 6.1 C 94 % 5.21 C
Sensor: Nr:Datum:Temp:Feuchte:Taupunkt:
Aussen-T/F 2376 02-05-2019 05:55:00 6.1 C 95 % 5.36 C
2377 02-05-2019 06:00:00 6.1 C 95 % 5.36 C
2378 02-05-2019 06:05:00 6 C 95 % 5.26 C
2379 02-05-2019 06:10:00 5.9 C 95 % 5.16 C
2380 02-05-2019 06:15:00 5.9 C 95 % 5.16 C
2381 02-05-2019 06:20:00 5.8 C 95 % 5.06 C
2382 02-05-2019 06:25:00 5.8 C 95 % 5.06 C
2383 02-05-2019 06:30:00 5.8 C 95 % 5.06 C
2384 02-05-2019 06:35:00 5.8 C 95 % 5.06 C
2385 02-05-2019 06:40:00 5.8 C 95 % 5.06 C
2386 02-05-2019 06:45:00 5.9 C 95 % 5.16 C
2387 02-05-2019 06:50:00 5.9 C 95 % 5.16 C
2388 02-05-2019 06:55:00 6 C 95 % 5.26 C
2389 02-05-2019 07:00:00 6.1 C 96 % 5.51 C
2390 02-05-2019 07:05:00 6.2 C 96 % 5.61 C
2391 02-05-2019 07:10:00 6.4 C 96 % 5.81 C
2392 02-05-2019 07:15:00 6.6 C 96 % 6.01 C
2393 02-05-2019 07:20:00 6.7 C 96 % 6.11 C
2394 02-05-2019 07:25:00 6.8 C 96 % 6.21 C
2395 02-05-2019 07:30:00 6.9 C 96 % 6.31 C
2396 02-05-2019 07:35:00 7.1 C 96 % 6.51 C
2397 02-05-2019 07:40:00 7.1 C 96 % 6.51 C
2398 02-05-2019 07:45:00 7.2 C 96 % 6.61 C
2399 02-05-2019 07:50:00 7.4 C 96 % 6.8 C
2400 02-05-2019 07:55:00 7.6 C 96 % 7 C
Sensor: Nr:Datum:Temp:Feuchte:Taupunkt:
Aussen-T/F 2401 02-05-2019 08:00:00 7.7 C 96 % 7.1 C
2402 02-05-2019 08:05:00 7.8 C 96 % 7.2 C
2403 02-05-2019 08:10:00 7.9 C 96 % 7.3 C
2404 02-05-2019 08:15:00 8.1 C 96 % 7.5 C
2405 02-05-2019 08:20:00 8.3 C 96 % 7.7 C
2406 02-05-2019 08:25:00 8.4 C 96 % 7.8 C
2407 02-05-2019 08:30:00 8.6 C 96 % 8 C
2408 02-05-2019 08:35:00 8.6 C 96 % 8 C
2409 02-05-2019 08:40:00 8.7 C 96 % 8.1 C
2410 02-05-2019 08:45:00 8.6 C 95 % 7.85 C
2411 02-05-2019 08:50:00 8.6 C 95 % 7.85 C
2412 02-05-2019 08:55:00 8.6 C 95 % 7.85 C
2413 02-05-2019 09:00:00 8.7 C 95 % 7.94 C
2414 02-05-2019 09:05:00 8.7 C 94 % 7.79 C
2415 02-05-2019 09:10:00 8.8 C 95 % 8.04 C
2416 02-05-2019 09:15:00 8.9 C 94 % 7.99 C
2417 02-05-2019 09:20:00 8.9 C 93 % 7.83 C
2418 02-05-2019 09:25:00 9 C 93 % 7.93 C
2419 02-05-2019 09:30:00 9.1 C 92 % 7.87 C
2420 02-05-2019 09:35:00 9.2 C 92 % 7.97 C
2421 02-05-2019 09:40:00 9.2 C 91 % 7.81 C
2422 02-05-2019 09:45:00 9.3 C 90 % 7.75 C
2423 02-05-2019 09:50:00 9.4 C 90 % 7.85 C
2424 02-05-2019 09:55:00 9.7 C 89 % 7.98 C
2425 02-05-2019 10:00:00 9.9 C 88 % 8.01 C
Sensor: Nr:Datum:Temp:Feuchte:Taupunkt:
Aussen-T/F 2426 02-05-2019 10:05:00 10.2 C 87 % 8.14 C
2427 02-05-2019 10:10:00 10.3 C 85 % 7.89 C
2428 02-05-2019 10:15:00 10.4 C 85 % 7.99 C
2429 02-05-2019 10:20:00 10.6 C 83 % 7.84 C
2430 02-05-2019 10:25:00 10.6 C 82 % 7.66 C
2431 02-05-2019 10:30:00 10.8 C 81 % 7.67 C
2432 02-05-2019 10:35:00 10.9 C 80 % 7.59 C
2433 02-05-2019 10:40:00 11 C 82 % 8.05 C
2434 02-05-2019 10:45:00 11.2 C 80 % 7.88 C
2435 02-05-2019 10:50:00 11.3 C 79 % 7.8 C
2436 02-05-2019 10:55:00 11.5 C 79 % 7.99 C
2437 02-05-2019 11:00:00 11.7 C 78 % 8 C
2438 02-05-2019 11:05:00 11.8 C 79 % 8.28 C
2439 02-05-2019 11:10:00 11.9 C 77 % 8 C
2440 02-05-2019 11:15:00 12.1 C 78 % 8.38 C
2441 02-05-2019 11:20:00 12.2 C 77 % 8.29 C
2442 02-05-2019 11:25:00 12.2 C 77 % 8.29 C
2443 02-05-2019 11:30:00 12.3 C 75 % 8 C
2444 02-05-2019 11:35:00 12.3 C 76 % 8.2 C
2445 02-05-2019 11:40:00 12.3 C 76 % 8.2 C
2446 02-05-2019 11:45:00 12.4 C 75 % 8.1 C
2447 02-05-2019 11:50:00 12.3 C 75 % 8 C
2448 02-05-2019 11:55:00 12.4 C 76 % 8.29 C
2449 02-05-2019 12:00:00 12.4 C 75 % 8.1 C
2450 02-05-2019 12:05:00 12.5 C 74 % 8 C
Sensor: Nr:Datum:Temp:Feuchte:Taupunkt:
Aussen-T/F 2451 02-05-2019 12:10:00 12.5 C 75 % 8.19 C
2452 02-05-2019 12:15:00 12.7 C 76 % 8.58 C
2453 02-05-2019 12:20:00 12.8 C 74 % 8.29 C
2454 02-05-2019 12:25:00 12.9 C 74 % 8.38 C
2455 02-05-2019 12:30:00 12.9 C 74 % 8.38 C
2456 02-05-2019 12:35:00 13 C 75 % 8.68 C
2457 02-05-2019 12:40:00 13.2 C 74 % 8.67 C
2458 02-05-2019 12:45:00 13.3 C 73 % 8.57 C
2459 02-05-2019 12:50:00 13.4 C 72 % 8.46 C
2460 02-05-2019 12:55:00 13.5 C 72 % 8.56 C
2461 02-05-2019 13:00:00 13.5 C 71 % 8.35 C
2462 02-05-2019 13:05:00 13.6 C 71 % 8.45 C
2463 02-05-2019 13:10:00 13.7 C 72 % 8.75 C
2464 02-05-2019 13:15:00 13.9 C 70 % 8.53 C
2465 02-05-2019 13:20:00 14.1 C 70 % 8.72 C
2466 02-05-2019 13:25:00 14.2 C 69 % 8.6 C
2467 02-05-2019 13:30:00 14.3 C 69 % 8.7 C
2468 02-05-2019 13:35:00 14.3 C 68 % 8.48 C
2469 02-05-2019 13:40:00 14.3 C 69 % 8.7 C
2470 02-05-2019 13:45:00 14.5 C 68 % 8.67 C
2471 02-05-2019 13:50:00 14.6 C 68 % 8.77 C
2472 02-05-2019 13:55:00 14.8 C 69 % 9.17 C
2473 02-05-2019 14:00:00 14.9 C 68 % 9.05 C
2474 02-05-2019 14:05:00 15.2 C 67 % 9.12 C
2475 02-05-2019 14:10:00 15.3 C 66 % 8.99 C
Sensor: Nr:Datum:Temp:Feuchte:Taupunkt:
Aussen-T/F 2476 02-05-2019 14:15:00 15.4 C 65 % 8.86 C
2477 02-05-2019 14:20:00 15.6 C 65 % 9.05 C
2478 02-05-2019 14:25:00 15.7 C 65 % 9.15 C
2479 02-05-2019 14:30:00 15.8 C 65 % 9.24 C
2480 02-05-2019 14:35:00 16 C 66 % 9.66 C
2481 02-05-2019 14:40:00 16.3 C 66 % 9.94 C
2482 02-05-2019 14:45:00 16.6 C 64 % 9.77 C
2483 02-05-2019 14:50:00 16.7 C 62 % 9.39 C
2484 02-05-2019 14:55:00 16.7 C 64 % 9.86 C
2485 02-05-2019 15:00:00 16.7 C 62 % 9.39 C
2486 02-05-2019 15:05:00 16.7 C 62 % 9.39 C
2487 02-05-2019 15:10:00 16.7 C 64 % 9.86 C
2488 02-05-2019 15:15:00 16.6 C 62 % 9.3 C
2489 02-05-2019 15:20:00 16.4 C 61 % 8.87 C
2490 02-05-2019 15:25:00 16.3 C 62 % 9.01 C
2491 02-05-2019 15:30:00 16.4 C 62 % 9.11 C
2492 02-05-2019 15:35:00 16.4 C 61 % 8.87 C
2493 02-05-2019 15:40:00 16.7 C 60 % 8.9 C
2494 02-05-2019 15:45:00 16.8 C 60 % 9 C
2495 02-05-2019 15:50:00 16.7 C 59 % 8.66 C
2496 02-05-2019 15:55:00 16.6 C 58 % 8.31 C
2497 02-05-2019 16:00:00 16.5 C 59 % 8.47 C
2498 02-05-2019 16:05:00 16.6 C 60 % 8.81 C
2499 02-05-2019 16:10:00 16.7 C 60 % 8.9 C
2500 02-05-2019 16:15:00 16.8 C 58 % 8.5 C
Sensor: Nr:Datum:Temp:Feuchte:Taupunkt:
Aussen-T/F 2501 02-05-2019 16:20:00 16.9 C 59 % 8.84 C
2502 02-05-2019 16:25:00 17.1 C 59 % 9.03 C
2503 02-05-2019 16:30:00 17.4 C 59 % 9.31 C
2504 02-05-2019 16:35:00 18.1 C 58 % 9.71 C
2505 02-05-2019 16:40:00 18.3 C 55 % 9.11 C
2506 02-05-2019 16:45:00 18 C 58 % 9.62 C
2507 02-05-2019 16:50:00 17.2 C 55 % 8.09 C
2508 02-05-2019 16:55:00 17.1 C 56 % 8.26 C
2509 02-05-2019 17:00:00 17.4 C 55 % 8.28 C
2510 02-05-2019 17:05:00 17.6 C 54 % 8.19 C
2511 02-05-2019 17:10:00 17.6 C 52 % 7.64 C
2512 02-05-2019 17:15:00 17.4 C 52 % 7.45 C
2513 02-05-2019 17:20:00 17.3 C 54 % 7.91 C
2514 02-05-2019 17:25:00 17.6 C 54 % 8.19 C
2515 02-05-2019 17:30:00 17.7 C 52 % 7.73 C
2516 02-05-2019 17:35:00 17.6 C 51 % 7.35 C
2517 02-05-2019 17:40:00 17.7 C 51 % 7.45 C
2518 02-05-2019 17:45:00 18.1 C 50 % 7.52 C
2519 02-05-2019 17:50:00 18.4 C 47 % 6.9 C
2520 02-05-2019 17:55:00 18.6 C 46 % 6.77 C
2521 02-05-2019 18:00:00 18.4 C 47 % 6.9 C
2522 02-05-2019 18:05:00 18.5 C 46 % 6.67 C
2523 02-05-2019 18:10:00 18.4 C 46 % 6.58 C
2524 02-05-2019 18:15:00 18.4 C 46 % 6.58 C
2525 02-05-2019 18:20:00 18.3 C 47 % 6.8 C
Sensor: Nr:Datum:Temp:Feuchte:Taupunkt:
Aussen-T/F 2526 02-05-2019 18:25:00 18.1 C 46 % 6.31 C
2527 02-05-2019 18:30:00 17.8 C 47 % 6.35 C
2528 02-05-2019 18:35:00 17.7 C 47 % 6.26 C
2529 02-05-2019 18:40:00 17.6 C 48 % 6.47 C
2530 02-05-2019 18:45:00 17.5 C 48 % 6.38 C
2531 02-05-2019 18:50:00 17.5 C 47 % 6.07 C
2532 02-05-2019 18:55:00 17.4 C 47 % 5.98 C
2533 02-05-2019 19:00:00 17.3 C 48 % 6.2 C
2534 02-05-2019 19:05:00 17 C 48 % 5.92 C
2535 02-05-2019 19:10:00 16.7 C 50 % 6.24 C
2536 02-05-2019 19:15:00 16.4 C 56 % 7.61 C
2537 02-05-2019 19:20:00 15.9 C 60 % 8.15 C
2538 02-05-2019 19:25:00 15.4 C 63 % 8.4 C
2539 02-05-2019 19:30:00 15.1 C 65 % 8.58 C
2540 02-05-2019 19:35:00 14.9 C 66 % 8.61 C
2541 02-05-2019 19:40:00 14.7 C 66 % 8.42 C
2542 02-05-2019 19:45:00 14.6 C 66 % 8.33 C
2543 02-05-2019 19:50:00 14.4 C 67 % 8.36 C
2544 02-05-2019 19:55:00 14.1 C 68 % 8.29 C
2545 02-05-2019 20:00:00 13.8 C 69 % 8.22 C
2546 02-05-2019 20:05:00 13.5 C 71 % 8.35 C
2547 02-05-2019 20:10:00 13.3 C 74 % 8.77 C
2548 02-05-2019 20:15:00 13.1 C 75 % 8.77 C
2549 02-05-2019 20:20:00 12.9 C 76 % 8.78 C
2550 02-05-2019 20:25:00 12.7 C 77 % 8.78 C
Sensor: Nr:Datum:Temp:Feuchte:Taupunkt:
Aussen-T/F 2551 02-05-2019 20:30:00 12.6 C 78 % 8.87 C
2552 02-05-2019 20:35:00 12.5 C 79 % 8.96 C
2553 02-05-2019 20:40:00 12.4 C 80 % 9.05 C
2554 02-05-2019 20:45:00 12.3 C 81 % 9.14 C
2555 02-05-2019 20:50:00 12.2 C 81 % 9.04 C
2556 02-05-2019 20:55:00 12.1 C 82 % 9.12 C
2557 02-05-2019 21:00:00 12 C 83 % 9.21 C
2558 02-05-2019 21:05:00 11.9 C 85 % 9.46 C
2559 02-05-2019 21:10:00 11.8 C 87 % 9.71 C
2560 02-05-2019 21:15:00 11.7 C 88 % 9.78 C
2561 02-05-2019 21:20:00 11.6 C 88 % 9.68 C
2562 02-05-2019 21:25:00 11.4 C 89 % 9.65 C
2563 02-05-2019 21:30:00 11.3 C 89 % 9.55 C
2564 02-05-2019 21:35:00 11.2 C 90 % 9.62 C
2565 02-05-2019 21:40:00 11.2 C 90 % 9.62 C
2566 02-05-2019 21:45:00 11.1 C 91 % 9.69 C
2567 02-05-2019 21:50:00 11.1 C 91 % 9.69 C
2568 02-05-2019 21:55:00 11 C 91 % 9.59 C
2569 02-05-2019 22:00:00 10.9 C 91 % 9.49 C
2570 02-05-2019 22:05:00 10.8 C 90 % 9.23 C
2571 02-05-2019 22:10:00 10.8 C 91 % 9.39 C
2572 02-05-2019 22:15:00 10.8 C 91 % 9.39 C
2573 02-05-2019 22:20:00 10.8 C 91 % 9.39 C
2574 02-05-2019 22:25:00 10.8 C 91 % 9.39 C
2575 02-05-2019 22:30:00 10.7 C 91 % 9.29 C
Sensor: Nr:Datum:Temp:Feuchte:Taupunkt:
Aussen-T/F 2576 02-05-2019 22:35:00 10.7 C 91 % 9.29 C
2577 02-05-2019 22:40:00 10.7 C 91 % 9.29 C
2578 02-05-2019 22:45:00 10.7 C 91 % 9.29 C
2579 02-05-2019 22:50:00 10.7 C 91 % 9.29 C
2580 02-05-2019 22:55:00 10.7 C 91 % 9.29 C
2581 02-05-2019 23:00:00 10.7 C 91 % 9.29 C
2582 02-05-2019 23:05:00 10.7 C 91 % 9.29 C
2583 02-05-2019 23:10:00 10.7 C 91 % 9.29 C
2584 02-05-2019 23:15:00 10.7 C 91 % 9.29 C
2585 02-05-2019 23:20:00 10.7 C 92 % 9.45 C
2586 02-05-2019 23:25:00 10.7 C 92 % 9.45 C
2587 02-05-2019 23:30:00 10.7 C 92 % 9.45 C
2588 02-05-2019 23:35:00 10.7 C 92 % 9.45 C
2589 02-05-2019 23:40:00 10.7 C 92 % 9.45 C
2590 02-05-2019 23:45:00 10.7 C 92 % 9.45 C
2591 02-05-2019 23:50:00 10.7 C 92 % 9.45 C
2592 02-05-2019 23:55:00 10.7 C 93 % 9.62 C
2593 03-05-2019 00:00:00 10.6 C 93 % 9.52 C
2594 03-05-2019 00:05:00 10.6 C 93 % 9.52 C
2595 03-05-2019 00:10:00 10.6 C 93 % 9.52 C
2596 03-05-2019 00:15:00 10.6 C 93 % 9.52 C
2597 03-05-2019 00:20:00 10.6 C 93 % 9.52 C
2598 03-05-2019 00:25:00 10.6 C 93 % 9.52 C
2599 03-05-2019 00:30:00 10.6 C 93 % 9.52 C
2600 03-05-2019 00:35:00 10.6 C 92 % 9.36 C
Sensor: Nr:Datum:Temp:Feuchte:Taupunkt:
Aussen-T/F 2601 03-05-2019 00:40:00 10.6 C 92 % 9.36 C
2602 03-05-2019 00:45:00 10.6 C 91 % 9.19 C
2603 03-05-2019 00:50:00 10.6 C 91 % 9.19 C
2604 03-05-2019 00:55:00 10.6 C 91 % 9.19 C
2605 03-05-2019 01:00:00 10.6 C 90 % 9.03 C
2606 03-05-2019 01:05:00 10.7 C 90 % 9.13 C
2607 03-05-2019 01:10:00 10.6 C 89 % 8.86 C
2608 03-05-2019 01:15:00 10.6 C 88 % 8.7 C
2609 03-05-2019 01:20:00 10.6 C 87 % 8.53 C
2610 03-05-2019 01:25:00 10.6 C 87 % 8.53 C
2611 03-05-2019 01:30:00 10.6 C 86 % 8.36 C
2612 03-05-2019 01:35:00 10.5 C 86 % 8.26 C
2613 03-05-2019 01:40:00 10.4 C 85 % 7.99 C
2614 03-05-2019 01:45:00 10.4 C 85 % 7.99 C
2615 03-05-2019 01:50:00 10.3 C 84 % 7.72 C
2616 03-05-2019 01:55:00 10.3 C 83 % 7.54 C
2617 03-05-2019 02:00:00 10.3 C 83 % 7.54 C
2618 03-05-2019 02:05:00 10.2 C 83 % 7.45 C
2619 03-05-2019 02:10:00 10.1 C 83 % 7.35 C
2620 03-05-2019 02:15:00 9.9 C 83 % 7.15 C
2621 03-05-2019 02:20:00 9.8 C 84 % 7.23 C
2622 03-05-2019 02:25:00 9.8 C 84 % 7.23 C
2623 03-05-2019 02:30:00 9.8 C 85 % 7.4 C
2624 03-05-2019 02:35:00 9.7 C 85 % 7.3 C
2625 03-05-2019 02:40:00 9.7 C 85 % 7.3 C
Sensor: Nr:Datum:Temp:Feuchte:Taupunkt:
Aussen-T/F 2626 03-05-2019 02:45:00 9.7 C 85 % 7.3 C
2627 03-05-2019 02:50:00 9.6 C 85 % 7.21 C
2628 03-05-2019 02:55:00 9.6 C 85 % 7.21 C
2629 03-05-2019 03:00:00 9.5 C 85 % 7.11 C
2630 03-05-2019 03:05:00 9.5 C 85 % 7.11 C
2631 03-05-2019 03:10:00 9.4 C 85 % 7.01 C
2632 03-05-2019 03:15:00 9.4 C 85 % 7.01 C
2633 03-05-2019 03:20:00 9.4 C 86 % 7.18 C
2634 03-05-2019 03:25:00 9.4 C 86 % 7.18 C
2635 03-05-2019 03:30:00 9.4 C 86 % 7.18 C
2636 03-05-2019 03:35:00 9.3 C 86 % 7.08 C
2637 03-05-2019 03:40:00 9.3 C 86 % 7.08 C
2638 03-05-2019 03:45:00 9.3 C 86 % 7.08 C
2639 03-05-2019 03:50:00 9.3 C 86 % 7.08 C
2640 03-05-2019 03:55:00 9.3 C 87 % 7.25 C
2641 03-05-2019 04:00:00 9.3 C 87 % 7.25 C
2642 03-05-2019 04:05:00 9.2 C 87 % 7.15 C
2643 03-05-2019 04:10:00 9.2 C 87 % 7.15 C
2644 03-05-2019 04:15:00 9.2 C 87 % 7.15 C
2645 03-05-2019 04:20:00 9.2 C 88 % 7.32 C
2646 03-05-2019 04:25:00 9.2 C 88 % 7.32 C
2647 03-05-2019 04:30:00 9.1 C 88 % 7.22 C
2648 03-05-2019 04:35:00 9.1 C 88 % 7.22 C
2649 03-05-2019 04:40:00 9.1 C 88 % 7.22 C
2650 03-05-2019 04:45:00 9.1 C 88 % 7.22 C
Sensor: Nr:Datum:Temp:Feuchte:Taupunkt:
Aussen-T/F 2651 03-05-2019 04:50:00 9.1 C 88 % 7.22 C
2652 03-05-2019 04:55:00 9.2 C 88 % 7.32 C
2653 03-05-2019 05:00:00 9.2 C 88 % 7.32 C
2654 03-05-2019 05:05:00 9.2 C 88 % 7.32 C
2655 03-05-2019 05:10:00 9.3 C 88 % 7.42 C
2656 03-05-2019 05:15:00 9.3 C 88 % 7.42 C
2657 03-05-2019 05:20:00 9.3 C 88 % 7.42 C
2658 03-05-2019 05:25:00 9.3 C 88 % 7.42 C
2659 03-05-2019 05:30:00 9.3 C 88 % 7.42 C
2660 03-05-2019 05:35:00 9.3 C 88 % 7.42 C
2661 03-05-2019 05:40:00 9.3 C 88 % 7.42 C
2662 03-05-2019 05:45:00 9.3 C 88 % 7.42 C
2663 03-05-2019 05:50:00 9.3 C 88 % 7.42 C
2664 03-05-2019 05:55:00 9.3 C 88 % 7.42 C
2665 03-05-2019 06:00:00 9.3 C 88 % 7.42 C
2666 03-05-2019 06:05:00 9.3 C 88 % 7.42 C
2667 03-05-2019 06:10:00 9.3 C 88 % 7.42 C
2668 03-05-2019 06:15:00 9.2 C 88 % 7.32 C
2669 03-05-2019 06:20:00 9.2 C 88 % 7.32 C
2670 03-05-2019 06:25:00 9.2 C 88 % 7.32 C
2671 03-05-2019 06:30:00 9.2 C 87 % 7.15 C
2672 03-05-2019 06:35:00 9.2 C 87 % 7.15 C
2673 03-05-2019 06:40:00 9.2 C 87 % 7.15 C
2674 03-05-2019 06:45:00 9.3 C 88 % 7.42 C
2675 03-05-2019 06:50:00 9.3 C 88 % 7.42 C
Sensor: Nr:Datum:Temp:Feuchte:Taupunkt:
Aussen-T/F 2676 03-05-2019 06:55:00 9.3 C 88 % 7.42 C
2677 03-05-2019 07:00:00 9.2 C 88 % 7.32 C
2678 03-05-2019 07:05:00 9.2 C 87 % 7.15 C
2679 03-05-2019 07:10:00 9.2 C 87 % 7.15 C
2680 03-05-2019 07:15:00 9.2 C 86 % 6.98 C
2681 03-05-2019 07:20:00 9.2 C 86 % 6.98 C
2682 03-05-2019 07:25:00 9.3 C 86 % 7.08 C
2683 03-05-2019 07:30:00 9.2 C 85 % 6.81 C
2684 03-05-2019 07:35:00 9.3 C 85 % 6.91 C
2685 03-05-2019 07:40:00 9.3 C 85 % 6.91 C
2686 03-05-2019 07:45:00 9.3 C 85 % 6.91 C
2687 03-05-2019 07:50:00 9.3 C 84 % 6.74 C
2688 03-05-2019 07:55:00 9.3 C 84 % 6.74 C
2689 03-05-2019 08:00:00 9.4 C 85 % 7.01 C
2690 03-05-2019 08:05:00 9.5 C 85 % 7.11 C
2691 03-05-2019 08:10:00 9.6 C 84 % 7.03 C
2692 03-05-2019 08:15:00 9.7 C 84 % 7.13 C
2693 03-05-2019 08:20:00 9.8 C 84 % 7.23 C
2694 03-05-2019 08:25:00 9.8 C 84 % 7.23 C
2695 03-05-2019 08:30:00 9.7 C 83 % 6.96 C
2696 03-05-2019 08:35:00 9.7 C 83 % 6.96 C
2697 03-05-2019 08:40:00 9.7 C 82 % 6.78 C
2698 03-05-2019 08:45:00 9.6 C 83 % 6.86 C
2699 03-05-2019 08:50:00 9.7 C 83 % 6.96 C
2700 03-05-2019 08:55:00 9.7 C 82 % 6.78 C
Sensor: Nr:Datum:Temp:Feuchte:Taupunkt:
Aussen-T/F 2701 03-05-2019 09:00:00 9.7 C 82 % 6.78 C
2702 03-05-2019 09:05:00 9.8 C 82 % 6.88 C
2703 03-05-2019 09:10:00 9.9 C 81 % 6.8 C
2704 03-05-2019 09:15:00 10 C 80 % 6.71 C
2705 03-05-2019 09:20:00 10.1 C 80 % 6.81 C
2706 03-05-2019 09:25:00 10.1 C 80 % 6.81 C
2707 03-05-2019 09:30:00 10.1 C 79 % 6.63 C
2708 03-05-2019 09:35:00 10.1 C 79 % 6.63 C
2709 03-05-2019 09:40:00 10.2 C 79 % 6.73 C
2710 03-05-2019 09:45:00 10.3 C 78 % 6.64 C
2711 03-05-2019 09:50:00 10.4 C 79 % 6.92 C
2712 03-05-2019 09:55:00 10.6 C 75 % 6.36 C
2713 03-05-2019 10:00:00 10.7 C 74 % 6.26 C
2714 03-05-2019 10:05:00 10.7 C 73 % 6.07 C
2715 03-05-2019 10:10:00 10.7 C 75 % 6.46 C
2716 03-05-2019 10:15:00 10.7 C 75 % 6.46 C
2717 03-05-2019 10:20:00 10.7 C 76 % 6.65 C
2718 03-05-2019 10:25:00 10.7 C 74 % 6.26 C
2719 03-05-2019 10:30:00 10.8 C 76 % 6.75 C
2720 03-05-2019 10:35:00 10.9 C 74 % 6.45 C
2721 03-05-2019 10:40:00 10.8 C 72 % 5.96 C
2722 03-05-2019 10:45:00 10.8 C 73 % 6.16 C
2723 03-05-2019 10:50:00 10.9 C 71 % 5.86 C
2724 03-05-2019 10:55:00 11 C 72 % 6.15 C
2725 03-05-2019 11:00:00 11.1 C 70 % 5.84 C
Sensor: Nr:Datum:Temp:Feuchte:Taupunkt:
Aussen-T/F 2726 03-05-2019 11:05:00 11.1 C 69 % 5.64 C
2727 03-05-2019 11:10:00 11.2 C 69 % 5.73 C
2728 03-05-2019 11:15:00 11.3 C 70 % 6.03 C
2729 03-05-2019 11:20:00 11.4 C 69 % 5.92 C
2730 03-05-2019 11:25:00 11.4 C 68 % 5.71 C
2731 03-05-2019 11:30:00 11.3 C 68 % 5.62 C
2732 03-05-2019 11:35:00 11.1 C 69 % 5.64 C
2733 03-05-2019 11:40:00 10.9 C 69 % 5.44 C
2734 03-05-2019 11:45:00 10.9 C 70 % 5.65 C
2735 03-05-2019 11:50:00 11.1 C 69 % 5.64 C
2736 03-05-2019 11:55:00 11.2 C 69 % 5.73 C
2737 03-05-2019 12:00:00 11.1 C 69 % 5.64 C
2738 03-05-2019 12:05:00 11 C 69 % 5.54 C
2739 03-05-2019 12:10:00 10.9 C 70 % 5.65 C
2740 03-05-2019 12:15:00 10.9 C 69 % 5.44 C
2741 03-05-2019 12:20:00 10.9 C 69 % 5.44 C
2742 03-05-2019 12:25:00 11.1 C 70 % 5.84 C
2743 03-05-2019 12:30:00 11.3 C 71 % 6.24 C
2744 03-05-2019 12:35:00 11.6 C 71 % 6.53 C
2745 03-05-2019 12:40:00 11.8 C 67 % 5.88 C
2746 03-05-2019 12:45:00 11.8 C 68 % 6.09 C
2747 03-05-2019 12:50:00 11.9 C 67 % 5.98 C
2748 03-05-2019 12:55:00 11.8 C 67 % 5.88 C
2749 03-05-2019 13:00:00 11.8 C 67 % 5.88 C
2750 03-05-2019 13:05:00 11.8 C 66 % 5.66 C
Sensor: Nr:Datum:Temp:Feuchte:Taupunkt:
Aussen-T/F 2751 03-05-2019 13:10:00 11.8 C 66 % 5.66 C
2752 03-05-2019 13:15:00 11.8 C 66 % 5.66 C
2753 03-05-2019 13:20:00 11.9 C 65 % 5.54 C
2754 03-05-2019 13:25:00 12.1 C 66 % 5.95 C
2755 03-05-2019 13:30:00 12.2 C 66 % 6.04 C
2756 03-05-2019 13:35:00 12.3 C 66 % 6.14 C
2757 03-05-2019 13:40:00 12.4 C 64 % 5.79 C
2758 03-05-2019 13:45:00 12.3 C 64 % 5.69 C
2759 03-05-2019 13:50:00 12.2 C 64 % 5.6 C
2760 03-05-2019 13:55:00 12.3 C 67 % 6.36 C
2761 03-05-2019 14:00:00 12.6 C 65 % 6.2 C
2762 03-05-2019 14:05:00 12.8 C 62 % 5.71 C
2763 03-05-2019 14:10:00 12.9 C 61 % 5.57 C
2764 03-05-2019 14:15:00 12.9 C 60 % 5.33 C
2765 03-05-2019 14:20:00 12.7 C 61 % 5.38 C
2766 03-05-2019 14:25:00 12.7 C 59 % 4.9 C
2767 03-05-2019 14:30:00 12.7 C 60 % 5.14 C
2768 03-05-2019 14:35:00 12.8 C 60 % 5.24 C
2769 03-05-2019 14:40:00 13.1 C 59 % 5.28 C
2770 03-05-2019 14:45:00 13.3 C 56 % 4.72 C
2771 03-05-2019 14:50:00 13.7 C 56 % 5.09 C
2772 03-05-2019 14:55:00 13.6 C 55 % 4.74 C
2773 03-05-2019 15:00:00 13.3 C 55 % 4.46 C
2774 03-05-2019 15:05:00 13.3 C 56 % 4.72 C
2775 03-05-2019 15:10:00 13.7 C 54 % 4.57 C
Sensor: Nr:Datum:Temp:Feuchte:Taupunkt:
Aussen-T/F 2776 03-05-2019 15:15:00 13.9 C 52 % 4.22 C
2777 03-05-2019 15:20:00 14.3 C 53 % 4.86 C
2778 03-05-2019 15:25:00 14.3 C 53 % 4.86 C
2779 03-05-2019 15:30:00 14.3 C 53 % 4.86 C
2780 03-05-2019 15:35:00 14.4 C 54 % 5.22 C
2781 03-05-2019 15:40:00 14.9 C 53 % 5.42 C
2782 03-05-2019 15:45:00 15.2 C 52 % 5.42 C
2783 03-05-2019 15:50:00 15.4 C 50 % 5.04 C
2784 03-05-2019 15:55:00 15.6 C 50 % 5.23 C
2785 03-05-2019 16:00:00 15.6 C 49 % 4.94 C
2786 03-05-2019 16:05:00 15.3 C 50 % 4.95 C
2787 03-05-2019 16:10:00 15.4 C 50 % 5.04 C
2788 03-05-2019 16:15:00 15.4 C 49 % 4.75 C
2789 03-05-2019 16:20:00 15.3 C 50 % 4.95 C
2790 03-05-2019 16:25:00 15 C 51 % 4.96 C
2791 03-05-2019 16:30:00 14.7 C 51 % 4.68 C
2792 03-05-2019 16:35:00 14.3 C 52 % 4.59 C
2793 03-05-2019 16:40:00 14.1 C 53 % 4.68 C
2794 03-05-2019 16:45:00 14.4 C 54 % 5.22 C
2795 03-05-2019 16:50:00 15.2 C 53 % 5.69 C
2796 03-05-2019 16:55:00 15.3 C 50 % 4.95 C
2797 03-05-2019 17:00:00 15.2 C 51 % 5.14 C
2798 03-05-2019 17:05:00 15.1 C 53 % 5.6 C
2799 03-05-2019 17:10:00 14.8 C 50 % 4.49 C
2800 03-05-2019 17:15:00 14.5 C 52 % 4.77 C
Sensor: Nr:Datum:Temp:Feuchte:Taupunkt:
Aussen-T/F 2801 03-05-2019 17:20:00 14.2 C 52 % 4.5 C
2802 03-05-2019 17:25:00 14 C 54 % 4.85 C
2803 03-05-2019 17:30:00 13.8 C 56 % 5.19 C
2804 03-05-2019 17:35:00 13.8 C 56 % 5.19 C
2805 03-05-2019 17:40:00 13.7 C 56 % 5.09 C
2806 03-05-2019 17:45:00 13.5 C 56 % 4.91 C
2807 03-05-2019 17:50:00 13.5 C 56 % 4.91 C
2808 03-05-2019 17:55:00 13.4 C 55 % 4.55 C
2809 03-05-2019 18:00:00 13.3 C 56 % 4.72 C
2810 03-05-2019 18:05:00 13.4 C 56 % 4.81 C
2811 03-05-2019 18:10:00 13.6 C 57 % 5.25 C
2812 03-05-2019 18:15:00 13.9 C 55 % 5.02 C
2813 03-05-2019 18:20:00 14 C 55 % 5.11 C
2814 03-05-2019 18:25:00 13.9 C 55 % 5.02 C
2815 03-05-2019 18:30:00 13.8 C 56 % 5.19 C
2816 03-05-2019 18:35:00 13.8 C 56 % 5.19 C
2817 03-05-2019 18:40:00 13.7 C 57 % 5.35 C
2818 03-05-2019 18:45:00 13.6 C 57 % 5.25 C
2819 03-05-2019 18:50:00 13.4 C 58 % 5.32 C
2820 03-05-2019 18:55:00 13.3 C 58 % 5.22 C
2821 03-05-2019 19:00:00 13.1 C 59 % 5.28 C
2822 03-05-2019 19:05:00 12.9 C 59 % 5.09 C
2823 03-05-2019 19:10:00 12.7 C 59 % 4.9 C
2824 03-05-2019 19:15:00 12.6 C 60 % 5.05 C
2825 03-05-2019 19:20:00 12.5 C 61 % 5.19 C
Sensor: Nr:Datum:Temp:Feuchte:Taupunkt:
Aussen-T/F 2826 03-05-2019 19:25:00 12.4 C 60 % 4.86 C
2827 03-05-2019 19:30:00 12.4 C 60 % 4.86 C
2828 03-05-2019 19:35:00 12.3 C 59 % 4.53 C
2829 03-05-2019 19:40:00 12.2 C 59 % 4.43 C
2830 03-05-2019 19:45:00 12 C 61 % 4.72 C
2831 03-05-2019 19:50:00 11.9 C 61 % 4.63 C
2832 03-05-2019 19:55:00 11.8 C 62 % 4.77 C
2833 03-05-2019 20:00:00 11.7 C 62 % 4.67 C
2834 03-05-2019 20:05:00 11.7 C 62 % 4.67 C
2835 03-05-2019 20:10:00 11.6 C 62 % 4.58 C
2836 03-05-2019 20:15:00 11.5 C 63 % 4.71 C
2837 03-05-2019 20:20:00 11.4 C 63 % 4.62 C
2838 03-05-2019 20:25:00 11.3 C 64 % 4.75 C
2839 03-05-2019 20:30:00 11.3 C 64 % 4.75 C
2840 03-05-2019 20:35:00 11.2 C 65 % 4.87 C
2841 03-05-2019 20:40:00 11 C 65 % 4.68 C
2842 03-05-2019 20:45:00 10.7 C 66 % 4.62 C
2843 03-05-2019 20:50:00 10.5 C 67 % 4.64 C
2844 03-05-2019 20:55:00 10.3 C 68 % 4.66 C
2845 03-05-2019 21:00:00 10.2 C 68 % 4.57 C
2846 03-05-2019 21:05:00 10.1 C 69 % 4.68 C
2847 03-05-2019 21:10:00 10 C 69 % 4.58 C
2848 03-05-2019 21:15:00 9.9 C 69 % 4.49 C
2849 03-05-2019 21:20:00 9.9 C 70 % 4.69 C
2850 03-05-2019 21:25:00 9.8 C 70 % 4.6 C
Sensor: Nr:Datum:Temp:Feuchte:Taupunkt:
Aussen-T/F 2851 03-05-2019 21:30:00 9.8 C 71 % 4.8 C
2852 03-05-2019 21:35:00 9.8 C 71 % 4.8 C
2853 03-05-2019 21:40:00 9.8 C 71 % 4.8 C
2854 03-05-2019 21:45:00 9.8 C 71 % 4.8 C
2855 03-05-2019 21:50:00 9.7 C 71 % 4.7 C
2856 03-05-2019 21:55:00 9.7 C 72 % 4.9 C
2857 03-05-2019 22:00:00 9.7 C 72 % 4.9 C
2858 03-05-2019 22:05:00 9.7 C 72 % 4.9 C
2859 03-05-2019 22:10:00 9.6 C 73 % 5.01 C
2860 03-05-2019 22:15:00 9.6 C 74 % 5.2 C
2861 03-05-2019 22:20:00 9.5 C 74 % 5.1 C
2862 03-05-2019 22:25:00 9.4 C 76 % 5.39 C
2863 03-05-2019 22:30:00 9.3 C 75 % 5.1 C
2864 03-05-2019 22:35:00 9.2 C 75 % 5.01 C
2865 03-05-2019 22:40:00 9.2 C 76 % 5.2 C
2866 03-05-2019 22:45:00 9.1 C 75 % 4.91 C
2867 03-05-2019 22:50:00 9.1 C 75 % 4.91 C
2868 03-05-2019 22:55:00 9.1 C 75 % 4.91 C
2869 03-05-2019 23:00:00 9.1 C 76 % 5.1 C
2870 03-05-2019 23:05:00 8.9 C 76 % 4.91 C
2871 03-05-2019 23:10:00 8.9 C 77 % 5.09 C
2872 03-05-2019 23:15:00 8.9 C 77 % 5.09 C
2873 03-05-2019 23:20:00 8.8 C 78 % 5.18 C
2874 03-05-2019 23:25:00 8.7 C 79 % 5.27 C
2875 03-05-2019 23:30:00 8.6 C 79 % 5.17 C
Sensor: Nr:Datum:Temp:Feuchte:Taupunkt:
Aussen-T/F 2876 03-05-2019 23:35:00 8.6 C 80 % 5.35 C
2877 03-05-2019 23:40:00 8.4 C 80 % 5.16 C
2878 03-05-2019 23:45:00 8.4 C 80 % 5.16 C
2879 03-05-2019 23:50:00 8.3 C 81 % 5.24 C
2880 03-05-2019 23:55:00 8.3 C 80 % 5.06 C
2881 04-05-2019 00:00:00 8.2 C 81 % 5.14 C
2882 04-05-2019 00:05:00 8.2 C 81 % 5.14 C
2883 04-05-2019 00:10:00 8.2 C 81 % 5.14 C
2884 04-05-2019 00:15:00 8.2 C 81 % 5.14 C
2885 04-05-2019 00:20:00 8.2 C 82 % 5.32 C
2886 04-05-2019 00:25:00 8.1 C 82 % 5.22 C
2887 04-05-2019 00:30:00 8.1 C 82 % 5.22 C
2888 04-05-2019 00:35:00 8 C 82 % 5.12 C
2889 04-05-2019 00:40:00 7.9 C 82 % 5.02 C
2890 04-05-2019 00:45:00 7.9 C 82 % 5.02 C
2891 04-05-2019 00:50:00 7.9 C 82 % 5.02 C
2892 04-05-2019 00:55:00 7.8 C 82 % 4.92 C
2893 04-05-2019 01:00:00 7.8 C 83 % 5.1 C
2894 04-05-2019 01:05:00 7.7 C 83 % 5 C
2895 04-05-2019 01:10:00 7.7 C 83 % 5 C
2896 04-05-2019 01:15:00 7.7 C 83 % 5 C
2897 04-05-2019 01:20:00 7.6 C 83 % 4.9 C
2898 04-05-2019 01:25:00 7.6 C 83 % 4.9 C
2899 04-05-2019 01:30:00 7.6 C 83 % 4.9 C
2900 04-05-2019 01:35:00 7.6 C 83 % 4.9 C
Sensor: Nr:Datum:Temp:Feuchte:Taupunkt:
Aussen-T/F 2901 04-05-2019 01:40:00 7.6 C 84 % 5.07 C
2902 04-05-2019 01:45:00 7.6 C 83 % 4.9 C
2903 04-05-2019 01:50:00 7.5 C 83 % 4.81 C
2904 04-05-2019 01:55:00 7.5 C 84 % 4.98 C
2905 04-05-2019 02:00:00 7.5 C 84 % 4.98 C
2906 04-05-2019 02:05:00 7.5 C 84 % 4.98 C
2907 04-05-2019 02:10:00 7.5 C 84 % 4.98 C
2908 04-05-2019 02:15:00 7.6 C 85 % 5.24 C
2909 04-05-2019 02:20:00 7.6 C 85 % 5.24 C
2910 04-05-2019 02:25:00 7.6 C 85 % 5.24 C
2911 04-05-2019 02:30:00 7.6 C 85 % 5.24 C
2912 04-05-2019 02:35:00 7.6 C 85 % 5.24 C
2913 04-05-2019 02:40:00 7.6 C 85 % 5.24 C
2914 04-05-2019 02:45:00 7.6 C 85 % 5.24 C
2915 04-05-2019 02:50:00 7.6 C 85 % 5.24 C
2916 04-05-2019 02:55:00 7.6 C 85 % 5.24 C
2917 04-05-2019 03:00:00 7.5 C 85 % 5.15 C
2918 04-05-2019 03:05:00 7.5 C 86 % 5.31 C
2919 04-05-2019 03:10:00 7.4 C 86 % 5.22 C
2920 04-05-2019 03:15:00 7.4 C 86 % 5.22 C
2921 04-05-2019 03:20:00 7.4 C 86 % 5.22 C
2922 04-05-2019 03:25:00 7.4 C 87 % 5.38 C
2923 04-05-2019 03:30:00 7.4 C 87 % 5.38 C
2924 04-05-2019 03:35:00 7.4 C 87 % 5.38 C
2925 04-05-2019 03:40:00 7.4 C 87 % 5.38 C
Sensor: Nr:Datum:Temp:Feuchte:Taupunkt:
Aussen-T/F 2926 04-05-2019 03:45:00 7.4 C 88 % 5.55 C
2927 04-05-2019 03:50:00 7.5 C 88 % 5.64 C
2928 04-05-2019 03:55:00 7.5 C 88 % 5.64 C
2929 04-05-2019 04:00:00 7.6 C 89 % 5.91 C
2930 04-05-2019 04:05:00 7.6 C 88 % 5.74 C
2931 04-05-2019 04:10:00 7.6 C 89 % 5.91 C
2932 04-05-2019 04:15:00 7.6 C 90 % 6.07 C
2933 04-05-2019 04:20:00 7.6 C 90 % 6.07 C
2934 04-05-2019 04:25:00 7.6 C 90 % 6.07 C
2935 04-05-2019 04:30:00 7.6 C 90 % 6.07 C
2936 04-05-2019 04:35:00 7.5 C 91 % 6.13 C
2937 04-05-2019 04:40:00 7.4 C 91 % 6.03 C
2938 04-05-2019 04:45:00 7.2 C 91 % 5.83 C
2939 04-05-2019 04:50:00 6.9 C 91 % 5.54 C
2940 04-05-2019 04:55:00 6.6 C 91 % 5.24 C
2941 04-05-2019 05:00:00 6.2 C 90 % 4.69 C
2942 04-05-2019 05:05:00 5.9 C 91 % 4.55 C
2943 04-05-2019 05:10:00 5.6 C 91 % 4.25 C
2944 04-05-2019 05:15:00 5.3 C 90 % 3.8 C
2945 04-05-2019 05:20:00 5.1 C 91 % 3.76 C
2946 04-05-2019 05:25:00 4.9 C 91 % 3.56 C
2947 04-05-2019 05:30:00 4.8 C 92 % 3.61 C
2948 04-05-2019 05:35:00 4.7 C 92 % 3.51 C
2949 04-05-2019 05:40:00 4.6 C 92 % 3.42 C
2950 04-05-2019 05:45:00 4.5 C 92 % 3.32 C
Sensor: Nr:Datum:Temp:Feuchte:Taupunkt:
Aussen-T/F 2951 04-05-2019 05:50:00 4.4 C 92 % 3.22 C
2952 04-05-2019 05:55:00 4.3 C 92 % 3.12 C
2953 04-05-2019 06:00:00 4.2 C 92 % 3.02 C
2954 04-05-2019 06:05:00 4.1 C 92 % 2.92 C
2955 04-05-2019 06:10:00 4.1 C 92 % 2.92 C
2956 04-05-2019 06:15:00 3.9 C 92 % 2.72 C
2957 04-05-2019 06:20:00 3.8 C 92 % 2.62 C
2958 04-05-2019 06:25:00 3.7 C 92 % 2.52 C
2959 04-05-2019 06:30:00 3.6 C 92 % 2.42 C
2960 04-05-2019 06:35:00 3.6 C 93 % 2.58 C
2961 04-05-2019 06:40:00 3.6 C 92 % 2.42 C
2962 04-05-2019 06:45:00 3.5 C 93 % 2.48 C
2963 04-05-2019 06:50:00 3.4 C 93 % 2.38 C
2964 04-05-2019 06:55:00 3.4 C 93 % 2.38 C
2965 04-05-2019 07:00:00 3.3 C 93 % 2.28 C
2966 04-05-2019 07:05:00 3.3 C 93 % 2.28 C
2967 04-05-2019 07:10:00 3.3 C 93 % 2.28 C
2968 04-05-2019 07:15:00 3.3 C 93 % 2.28 C
2969 04-05-2019 07:20:00 3.3 C 93 % 2.28 C
2970 04-05-2019 07:25:00 3.2 C 93 % 2.18 C
2971 04-05-2019 07:30:00 3.2 C 93 % 2.18 C
2972 04-05-2019 07:35:00 3.2 C 93 % 2.18 C
2973 04-05-2019 07:40:00 3.2 C 93 % 2.18 C
2974 04-05-2019 07:45:00 3.2 C 93 % 2.18 C
2975 04-05-2019 07:50:00 3.2 C 93 % 2.18 C
Sensor: Nr:Datum:Temp:Feuchte:Taupunkt:
Aussen-T/F 2976 04-05-2019 07:55:00 3.1 C 93 % 2.08 C
2977 04-05-2019 08:00:00 3.2 C 93 % 2.18 C
2978 04-05-2019 08:05:00 3.2 C 93 % 2.18 C
2979 04-05-2019 08:10:00 3.2 C 94 % 2.33 C
2980 04-05-2019 08:15:00 3.2 C 94 % 2.33 C
2981 04-05-2019 08:20:00 3.2 C 94 % 2.33 C
2982 04-05-2019 08:25:00 3.2 C 94 % 2.33 C
2983 04-05-2019 08:30:00 3.2 C 94 % 2.33 C
2984 04-05-2019 08:35:00 3.3 C 94 % 2.43 C
2985 04-05-2019 08:40:00 3.3 C 94 % 2.43 C
2986 04-05-2019 08:45:00 3.3 C 94 % 2.43 C
2987 04-05-2019 08:50:00 3.4 C 94 % 2.53 C
2988 04-05-2019 08:55:00 3.5 C 94 % 2.63 C
2989 04-05-2019 09:00:00 3.6 C 94 % 2.73 C
2990 04-05-2019 09:05:00 3.7 C 94 % 2.83 C
2991 04-05-2019 09:10:00 3.7 C 94 % 2.83 C
2992 04-05-2019 09:15:00 3.8 C 94 % 2.93 C
2993 04-05-2019 09:20:00 3.8 C 94 % 2.93 C
2994 04-05-2019 09:25:00 3.9 C 94 % 3.02 C
2995 04-05-2019 09:30:00 3.9 C 94 % 3.02 C
2996 04-05-2019 09:35:00 4.1 C 94 % 3.22 C
2997 04-05-2019 09:40:00 4.2 C 94 % 3.32 C
2998 04-05-2019 09:45:00 4.2 C 94 % 3.32 C
2999 04-05-2019 09:50:00 4.4 C 94 % 3.52 C
3000 04-05-2019 09:55:00 4.6 C 94 % 3.72 C
Sensor: Nr:Datum:Temp:Feuchte:Taupunkt:
Aussen-T/F 3001 04-05-2019 10:00:00 4.5 C 93 % 3.47 C
3002 04-05-2019 10:05:00 4.5 C 93 % 3.47 C
3003 04-05-2019 10:10:00 4.6 C 92 % 3.42 C
3004 04-05-2019 10:15:00 4.5 C 91 % 3.16 C
3005 04-05-2019 10:20:00 4.5 C 91 % 3.16 C
3006 04-05-2019 10:25:00 4.5 C 91 % 3.16 C
3007 04-05-2019 10:30:00 4.6 C 91 % 3.26 C
3008 04-05-2019 10:35:00 4.7 C 91 % 3.36 C
3009 04-05-2019 10:40:00 4.8 C 91 % 3.46 C
3010 04-05-2019 10:45:00 4.9 C 90 % 3.4 C
3011 04-05-2019 10:50:00 4.8 C 89 % 3.14 C
3012 04-05-2019 10:55:00 4.8 C 89 % 3.14 C
3013 04-05-2019 11:00:00 4.8 C 89 % 3.14 C
3014 04-05-2019 11:05:00 4.8 C 89 % 3.14 C
3015 04-05-2019 11:10:00 4.8 C 90 % 3.3 C
3016 04-05-2019 11:15:00 4.9 C 90 % 3.4 C
3017 04-05-2019 11:20:00 4.9 C 90 % 3.4 C
3018 04-05-2019 11:25:00 4.9 C 89 % 3.24 C
3019 04-05-2019 11:30:00 4.9 C 89 % 3.24 C
3020 04-05-2019 11:35:00 5 C 89 % 3.34 C
3021 04-05-2019 11:40:00 5.2 C 89 % 3.54 C
3022 04-05-2019 11:45:00 5.3 C 90 % 3.8 C
3023 04-05-2019 11:50:00 5.3 C 88 % 3.48 C
3024 04-05-2019 11:55:00 5.3 C 87 % 3.32 C
3025 04-05-2019 12:00:00 5.3 C 87 % 3.32 C
Sensor: Nr:Datum:Temp:Feuchte:Taupunkt:
Aussen-T/F 3026 04-05-2019 12:05:00 5.4 C 87 % 3.41 C
3027 04-05-2019 12:10:00 5.4 C 87 % 3.41 C
3028 04-05-2019 12:15:00 5.5 C 87 % 3.51 C
3029 04-05-2019 12:20:00 5.6 C 87 % 3.61 C
3030 04-05-2019 12:25:00 5.8 C 87 % 3.81 C
3031 04-05-2019 12:30:00 6 C 86 % 3.84 C
3032 04-05-2019 12:35:00 6.2 C 86 % 4.04 C
3033 04-05-2019 12:40:00 6.3 C 85 % 3.97 C
3034 04-05-2019 12:45:00 6.5 C 84 % 4 C
3035 04-05-2019 12:50:00 6.6 C 83 % 3.92 C
3036 04-05-2019 12:55:00 6.6 C 82 % 3.75 C
3037 04-05-2019 13:00:00 6.7 C 81 % 3.68 C
3038 04-05-2019 13:05:00 6.7 C 80 % 3.5 C
3039 04-05-2019 13:10:00 6.7 C 80 % 3.5 C
3040 04-05-2019 13:15:00 6.9 C 79 % 3.52 C
3041 04-05-2019 13:20:00 7.1 C 82 % 4.24 C
3042 04-05-2019 13:25:00 7.3 C 80 % 4.09 C
3043 04-05-2019 13:30:00 7.5 C 78 % 3.92 C
3044 04-05-2019 13:35:00 7.6 C 77 % 3.83 C
3045 04-05-2019 13:40:00 7.6 C 77 % 3.83 C
3046 04-05-2019 13:45:00 7.6 C 75 % 3.46 C
3047 04-05-2019 13:50:00 7.7 C 74 % 3.37 C
3048 04-05-2019 13:55:00 7.7 C 76 % 3.75 C
3049 04-05-2019 14:00:00 7.7 C 79 % 4.3 C
3050 04-05-2019 14:05:00 7.6 C 82 % 4.73 C
Sensor: Nr:Datum:Temp:Feuchte:Taupunkt:
Aussen-T/F 3051 04-05-2019 14:10:00 7.5 C 80 % 4.28 C
3052 04-05-2019 14:15:00 7.7 C 77 % 3.93 C
3053 04-05-2019 14:20:00 7.9 C 75 % 3.75 C
3054 04-05-2019 14:25:00 8.2 C 75 % 4.04 C
3055 04-05-2019 14:30:00 8.3 C 75 % 4.14 C
3056 04-05-2019 14:35:00 8.3 C 74 % 3.95 C
3057 04-05-2019 14:40:00 8.3 C 75 % 4.14 C
3058 04-05-2019 14:45:00 7.4 C 77 % 3.64 C
3059 04-05-2019 14:50:00 5.8 C 80 % 2.62 C
3060 04-05-2019 14:55:00 4.6 C 83 % 1.97 C
3061 04-05-2019 15:00:00 4 C 85 % 1.71 C
3062 04-05-2019 15:05:00 3.8 C 87 % 1.84 C
3063 04-05-2019 15:10:00 3.7 C 89 % 2.06 C
3064 04-05-2019 15:15:00 3.7 C 90 % 2.22 C
3065 04-05-2019 15:20:00 3.8 C 91 % 2.47 C
3066 04-05-2019 15:25:00 4 C 92 % 2.82 C
3067 04-05-2019 15:30:00 4.4 C 91 % 3.06 C
3068 04-05-2019 15:35:00 4.7 C 90 % 3.2 C
3069 04-05-2019 15:40:00 5.2 C 90 % 3.7 C
3070 04-05-2019 15:45:00 5.9 C 87 % 3.91 C
3071 04-05-2019 15:50:00 6.5 C 88 % 4.66 C
3072 04-05-2019 15:55:00 7.2 C 90 % 5.67 C
3073 04-05-2019 16:00:00 7.9 C 87 % 5.87 C
3074 04-05-2019 16:05:00 8.2 C 85 % 5.83 C
3075 04-05-2019 16:10:00 8.4 C 82 % 5.51 C
Sensor: Nr:Datum:Temp:Feuchte:Taupunkt:
Aussen-T/F 3076 04-05-2019 16:15:00 8.3 C 80 % 5.06 C
3077 04-05-2019 16:20:00 7.7 C 80 % 4.47 C
3078 04-05-2019 16:25:00 7.4 C 83 % 4.71 C
3079 04-05-2019 16:30:00 7.2 C 84 % 4.68 C
3080 04-05-2019 16:35:00 7.2 C 86 % 5.02 C
3081 04-05-2019 16:40:00 7.2 C 86 % 5.02 C
3082 04-05-2019 16:45:00 7.5 C 90 % 5.97 C
3083 04-05-2019 16:50:00 7.9 C 90 % 6.36 C
3084 04-05-2019 16:55:00 8.8 C 89 % 7.09 C
3085 04-05-2019 17:00:00 9.2 C 86 % 6.98 C
3086 04-05-2019 17:05:00 9.8 C 85 % 7.4 C
3087 04-05-2019 17:10:00 10.3 C 83 % 7.54 C
3088 04-05-2019 17:15:00 10.4 C 80 % 7.1 C
3089 04-05-2019 17:20:00 10.3 C 80 % 7.01 C
3090 04-05-2019 17:25:00 9.9 C 75 % 5.68 C
3091 04-05-2019 17:30:00 9.8 C 83 % 7.05 C
3092 04-05-2019 17:35:00 9.7 C 78 % 6.06 C
3093 04-05-2019 17:40:00 10 C 74 % 5.59 C
3094 04-05-2019 17:45:00 10.4 C 71 % 5.38 C
3095 04-05-2019 17:50:00 10.7 C 66 % 4.62 C
3096 04-05-2019 17:55:00 11.1 C 66 % 5 C
3097 04-05-2019 18:00:00 11.1 C 63 % 4.33 C
3098 04-05-2019 18:05:00 10.8 C 60 % 3.36 C
3099 04-05-2019 18:10:00 10.5 C 61 % 3.31 C
3100 04-05-2019 18:15:00 10.6 C 59 % 2.93 C
Sensor: Nr:Datum:Temp:Feuchte:Taupunkt:
Aussen-T/F 3101 04-05-2019 18:20:00 10.6 C 59 % 2.93 C
3102 04-05-2019 18:25:00 10.7 C 62 % 3.73 C
3103 04-05-2019 18:30:00 10.6 C 56 % 2.2 C
3104 04-05-2019 18:35:00 10.1 C 57 % 1.98 C
3105 04-05-2019 18:40:00 9.6 C 58 % 1.75 C
3106 04-05-2019 18:45:00 9.7 C 62 % 2.78 C
3107 04-05-2019 18:50:00 10 C 65 % 3.73 C
3108 04-05-2019 18:55:00 10.1 C 66 % 4.05 C
3109 04-05-2019 19:00:00 10.2 C 68 % 4.57 C
3110 04-05-2019 19:05:00 10.2 C 67 % 4.36 C
3111 04-05-2019 19:10:00 10.1 C 65 % 3.83 C
3112 04-05-2019 19:15:00 10 C 67 % 4.16 C
3113 04-05-2019 19:20:00 9.8 C 64 % 3.32 C
3114 04-05-2019 19:25:00 9.6 C 65 % 3.35 C
3115 04-05-2019 19:30:00 9.3 C 67 % 3.5 C
3116 04-05-2019 19:35:00 9.2 C 65 % 2.97 C
3117 04-05-2019 19:40:00 8.9 C 67 % 3.12 C
3118 04-05-2019 19:45:00 8.4 C 68 % 2.85 C
3119 04-05-2019 19:50:00 8.1 C 71 % 3.17 C
3120 04-05-2019 19:55:00 7.8 C 73 % 3.27 C
3121 04-05-2019 20:00:00 7.8 C 75 % 3.65 C
3122 04-05-2019 20:05:00 7.8 C 75 % 3.65 C
3123 04-05-2019 20:10:00 7.8 C 74 % 3.46 C
3124 04-05-2019 20:15:00 7.8 C 74 % 3.46 C
3125 04-05-2019 20:20:00 7.7 C 72 % 2.98 C
Sensor: Nr:Datum:Temp:Feuchte:Taupunkt:
Aussen-T/F 3126 04-05-2019 20:25:00 7.6 C 73 % 3.08 C
3127 04-05-2019 20:30:00 7.5 C 74 % 3.17 C
3128 04-05-2019 20:35:00 7.4 C 76 % 3.45 C
3129 04-05-2019 20:40:00 7.3 C 77 % 3.54 C
3130 04-05-2019 20:45:00 7.1 C 76 % 3.16 C
3131 04-05-2019 20:50:00 7 C 76 % 3.07 C
3132 04-05-2019 20:55:00 6.9 C 77 % 3.16 C
3133 04-05-2019 21:00:00 6.8 C 78 % 3.24 C
3134 04-05-2019 21:05:00 6.8 C 77 % 3.06 C
3135 04-05-2019 21:10:00 6.7 C 78 % 3.14 C
3136 04-05-2019 21:15:00 6.7 C 78 % 3.14 C
3137 04-05-2019 21:20:00 6.7 C 78 % 3.14 C
3138 04-05-2019 21:25:00 6.6 C 78 % 3.05 C
3139 04-05-2019 21:30:00 6.6 C 79 % 3.23 C
3140 04-05-2019 21:35:00 6.4 C 79 % 3.03 C
3141 04-05-2019 21:40:00 6.3 C 81 % 3.29 C
3142 04-05-2019 21:45:00 6.2 C 81 % 3.19 C
3143 04-05-2019 21:50:00 6.1 C 81 % 3.09 C
3144 04-05-2019 21:55:00 6 C 82 % 3.17 C
3145 04-05-2019 22:00:00 5.8 C 83 % 3.14 C
3146 04-05-2019 22:05:00 5.6 C 83 % 2.95 C
3147 04-05-2019 22:10:00 5.5 C 84 % 3.02 C
3148 04-05-2019 22:15:00 5.3 C 84 % 2.82 C
3149 04-05-2019 22:20:00 5.3 C 84 % 2.82 C
3150 04-05-2019 22:25:00 5.1 C 85 % 2.79 C
Sensor: Nr:Datum:Temp:Feuchte:Taupunkt:
Aussen-T/F 3151 04-05-2019 22:30:00 5 C 85 % 2.69 C
3152 04-05-2019 22:35:00 4.8 C 86 % 2.66 C
3153 04-05-2019 22:40:00 4.7 C 86 % 2.56 C
3154 04-05-2019 22:45:00 4.5 C 86 % 2.37 C
3155 04-05-2019 22:50:00 4.3 C 87 % 2.33 C
3156 04-05-2019 22:55:00 4.2 C 87 % 2.23 C
3157 04-05-2019 23:00:00 4 C 88 % 2.2 C
3158 04-05-2019 23:05:00 3.9 C 89 % 2.26 C
3159 04-05-2019 23:10:00 3.9 C 89 % 2.26 C
3160 04-05-2019 23:15:00 3.9 C 89 % 2.26 C
3161 04-05-2019 23:20:00 3.8 C 90 % 2.31 C
3162 04-05-2019 23:25:00 3.8 C 90 % 2.31 C
3163 04-05-2019 23:30:00 3.8 C 90 % 2.31 C
3164 04-05-2019 23:35:00 3.8 C 90 % 2.31 C
3165 04-05-2019 23:40:00 3.7 C 90 % 2.22 C
3166 04-05-2019 23:45:00 3.7 C 90 % 2.22 C
3167 04-05-2019 23:50:00 3.7 C 90 % 2.22 C
3168 04-05-2019 23:55:00 3.6 C 91 % 2.27 C
3169 05-05-2019 00:00:00 3.6 C 91 % 2.27 C
3170 05-05-2019 00:05:00 3.6 C 91 % 2.27 C
3171 05-05-2019 00:10:00 3.6 C 91 % 2.27 C
3172 05-05-2019 00:15:00 3.7 C 92 % 2.52 C
3173 05-05-2019 00:20:00 3.7 C 92 % 2.52 C
3174 05-05-2019 00:25:00 3.7 C 92 % 2.52 C
3175 05-05-2019 00:30:00 3.8 C 92 % 2.62 C
Sensor: Nr:Datum:Temp:Feuchte:Taupunkt:
Aussen-T/F 3176 05-05-2019 00:35:00 3.8 C 92 % 2.62 C
3177 05-05-2019 00:40:00 3.8 C 92 % 2.62 C
3178 05-05-2019 00:45:00 3.8 C 92 % 2.62 C
3179 05-05-2019 00:50:00 3.8 C 92 % 2.62 C
3180 05-05-2019 00:55:00 3.7 C 92 % 2.52 C
3181 05-05-2019 01:00:00 3.8 C 92 % 2.62 C
3182 05-05-2019 01:05:00 3.7 C 92 % 2.52 C
3183 05-05-2019 01:10:00 3.7 C 92 % 2.52 C
3184 05-05-2019 01:15:00 3.7 C 92 % 2.52 C
3185 05-05-2019 01:20:00 3.7 C 93 % 2.68 C
3186 05-05-2019 01:25:00 3.8 C 93 % 2.77 C
3187 05-05-2019 01:30:00 3.9 C 93 % 2.87 C
3188 05-05-2019 01:35:00 3.9 C 93 % 2.87 C
3189 05-05-2019 01:40:00 3.9 C 93 % 2.87 C
3190 05-05-2019 01:45:00 3.9 C 93 % 2.87 C
3191 05-05-2019 01:50:00 3.9 C 93 % 2.87 C
3192 05-05-2019 01:55:00 3.8 C 93 % 2.77 C
3193 05-05-2019 02:00:00 3.8 C 93 % 2.77 C
3194 05-05-2019 02:05:00 3.7 C 93 % 2.68 C
3195 05-05-2019 02:10:00 3.6 C 92 % 2.42 C
3196 05-05-2019 02:15:00 3.5 C 92 % 2.33 C
3197 05-05-2019 02:20:00 3.4 C 92 % 2.23 C
3198 05-05-2019 02:25:00 3.3 C 92 % 2.13 C
3199 05-05-2019 02:30:00 3.3 C 93 % 2.28 C
3200 05-05-2019 02:35:00 3.4 C 93 % 2.38 C
Sensor: Nr:Datum:Temp:Feuchte:Taupunkt:
Aussen-T/F 3201 05-05-2019 02:40:00 3.4 C 93 % 2.38 C
3202 05-05-2019 02:45:00 3.4 C 93 % 2.38 C
3203 05-05-2019 02:50:00 3.4 C 93 % 2.38 C
3204 05-05-2019 02:55:00 3.3 C 93 % 2.28 C
3205 05-05-2019 03:00:00 3.3 C 93 % 2.28 C
3206 05-05-2019 03:05:00 3.4 C 94 % 2.53 C
3207 05-05-2019 03:10:00 3.5 C 94 % 2.63 C
3208 05-05-2019 03:15:00 3.6 C 94 % 2.73 C
3209 05-05-2019 03:20:00 3.7 C 94 % 2.83 C
3210 05-05-2019 03:25:00 3.7 C 94 % 2.83 C
3211 05-05-2019 03:30:00 3.8 C 94 % 2.93 C
3212 05-05-2019 03:35:00 3.8 C 94 % 2.93 C
3213 05-05-2019 03:40:00 3.8 C 94 % 2.93 C
3214 05-05-2019 03:45:00 3.9 C 94 % 3.02 C
3215 05-05-2019 03:50:00 3.9 C 93 % 2.87 C
3216 05-05-2019 03:55:00 3.8 C 93 % 2.77 C
3217 05-05-2019 04:00:00 3.8 C 93 % 2.77 C
3218 05-05-2019 04:05:00 3.8 C 93 % 2.77 C
3219 05-05-2019 04:10:00 3.8 C 93 % 2.77 C
3220 05-05-2019 04:15:00 3.7 C 93 % 2.68 C
3221 05-05-2019 04:20:00 3.7 C 93 % 2.68 C
3222 05-05-2019 04:25:00 3.7 C 93 % 2.68 C
3223 05-05-2019 04:30:00 3.7 C 93 % 2.68 C
3224 05-05-2019 04:35:00 3.7 C 93 % 2.68 C
3225 05-05-2019 04:40:00 3.6 C 93 % 2.58 C
Sensor: Nr:Datum:Temp:Feuchte:Taupunkt:
Aussen-T/F 3226 05-05-2019 04:45:00 3.6 C 92 % 2.42 C
3227 05-05-2019 04:50:00 3.6 C 92 % 2.42 C
3228 05-05-2019 04:55:00 3.6 C 92 % 2.42 C
3229 05-05-2019 05:00:00 3.5 C 92 % 2.33 C
3230 05-05-2019 05:05:00 3.5 C 92 % 2.33 C
3231 05-05-2019 05:10:00 3.4 C 92 % 2.23 C
3232 05-05-2019 05:15:00 3.4 C 92 % 2.23 C
3233 05-05-2019 05:20:00 3.3 C 92 % 2.13 C
3234 05-05-2019 05:25:00 3.3 C 92 % 2.13 C
3235 05-05-2019 05:30:00 3.3 C 92 % 2.13 C
3236 05-05-2019 05:35:00 3.3 C 92 % 2.13 C
3237 05-05-2019 05:40:00 3.3 C 92 % 2.13 C
3238 05-05-2019 05:45:00 3.3 C 92 % 2.13 C
3239 05-05-2019 05:50:00 3.2 C 92 % 2.03 C
3240 05-05-2019 05:55:00 3.2 C 92 % 2.03 C
3241 05-05-2019 06:00:00 3.1 C 92 % 1.93 C
3242 05-05-2019 06:05:00 3.1 C 92 % 1.93 C
3243 05-05-2019 06:10:00 3 C 92 % 1.83 C
3244 05-05-2019 06:15:00 2.9 C 92 % 1.73 C
3245 05-05-2019 06:20:00 2.8 C 92 % 1.63 C
3246 05-05-2019 06:25:00 2.7 C 92 % 1.53 C
3247 05-05-2019 06:30:00 2.7 C 92 % 1.53 C
3248 05-05-2019 06:35:00 2.6 C 92 % 1.43 C
3249 05-05-2019 06:40:00 2.5 C 92 % 1.34 C
3250 05-05-2019 06:45:00 2.5 C 92 % 1.34 C
Sensor: Nr:Datum:Temp:Feuchte:Taupunkt:
Aussen-T/F 3251 05-05-2019 06:50:00 2.5 C 92 % 1.34 C
3252 05-05-2019 06:55:00 2.4 C 93 % 1.39 C
3253 05-05-2019 07:00:00 2.4 C 93 % 1.39 C
3254 05-05-2019 07:05:00 2.4 C 93 % 1.39 C
3255 05-05-2019 07:10:00 2.4 C 93 % 1.39 C
3256 05-05-2019 07:15:00 2.3 C 93 % 1.29 C
3257 05-05-2019 07:20:00 2.3 C 93 % 1.29 C
3258 05-05-2019 07:25:00 2.3 C 93 % 1.29 C
3259 05-05-2019 07:30:00 2.3 C 93 % 1.29 C
3260 05-05-2019 07:35:00 2.3 C 93 % 1.29 C
3261 05-05-2019 07:40:00 2.5 C 94 % 1.63 C
3262 05-05-2019 07:45:00 2.7 C 94 % 1.83 C
3263 05-05-2019 07:50:00 2.8 C 94 % 1.93 C
3264 05-05-2019 07:55:00 2.9 C 94 % 2.03 C
3265 05-05-2019 08:00:00 2.9 C 94 % 2.03 C
3266 05-05-2019 08:05:00 3 C 94 % 2.13 C
3267 05-05-2019 08:10:00 3.1 C 94 % 2.23 C
3268 05-05-2019 08:15:00 3.1 C 94 % 2.23 C
3269 05-05-2019 08:20:00 3.2 C 94 % 2.33 C
3270 05-05-2019 08:25:00 3.3 C 94 % 2.43 C
3271 05-05-2019 08:30:00 3.3 C 94 % 2.43 C
3272 05-05-2019 08:35:00 3.4 C 94 % 2.53 C
3273 05-05-2019 08:40:00 3.6 C 94 % 2.73 C
3274 05-05-2019 08:45:00 3.7 C 94 % 2.83 C
3275 05-05-2019 08:50:00 3.8 C 94 % 2.93 C
Sensor: Nr:Datum:Temp:Feuchte:Taupunkt:
Aussen-T/F 3276 05-05-2019 08:55:00 3.9 C 94 % 3.02 C
3277 05-05-2019 09:00:00 3.9 C 94 % 3.02 C
3278 05-05-2019 09:05:00 4.1 C 94 % 3.22 C
3279 05-05-2019 09:10:00 4.1 C 93 % 3.07 C
3280 05-05-2019 09:15:00 4.3 C 93 % 3.27 C
3281 05-05-2019 09:20:00 4.5 C 92 % 3.32 C
3282 05-05-2019 09:25:00 4.7 C 91 % 3.36 C
3283 05-05-2019 09:30:00 4.9 C 91 % 3.56 C
3284 05-05-2019 09:35:00 5.1 C 89 % 3.44 C
3285 05-05-2019 09:40:00 5.2 C 89 % 3.54 C
3286 05-05-2019 09:45:00 5.3 C 88 % 3.48 C
3287 05-05-2019 09:50:00 5.3 C 89 % 3.64 C
3288 05-05-2019 09:55:00 5.4 C 88 % 3.58 C
3289 05-05-2019 10:00:00 5.4 C 87 % 3.41 C
3290 05-05-2019 10:05:00 5.5 C 87 % 3.51 C
3291 05-05-2019 10:10:00 5.6 C 87 % 3.61 C
3292 05-05-2019 10:15:00 5.6 C 87 % 3.61 C
3293 05-05-2019 10:20:00 5.6 C 86 % 3.45 C
3294 05-05-2019 10:25:00 5.7 C 86 % 3.55 C
3295 05-05-2019 10:30:00 5.7 C 87 % 3.71 C
3296 05-05-2019 10:35:00 5.9 C 87 % 3.91 C
3297 05-05-2019 10:40:00 5.9 C 87 % 3.91 C
3298 05-05-2019 10:45:00 6.2 C 86 % 4.04 C
3299 05-05-2019 10:50:00 6.4 C 86 % 4.23 C
3300 05-05-2019 10:55:00 6.6 C 85 % 4.26 C
Sensor: Nr:Datum:Temp:Feuchte:Taupunkt:
Aussen-T/F 3301 05-05-2019 11:00:00 6.6 C 83 % 3.92 C
3302 05-05-2019 11:05:00 6.6 C 84 % 4.1 C
3303 05-05-2019 11:10:00 6.6 C 84 % 4.1 C
3304 05-05-2019 11:15:00 6.7 C 83 % 4.02 C
3305 05-05-2019 11:20:00 6.8 C 84 % 4.29 C
3306 05-05-2019 11:25:00 6.9 C 84 % 4.39 C
3307 05-05-2019 11:30:00 7.2 C 85 % 4.85 C
3308 05-05-2019 11:35:00 7.3 C 84 % 4.78 C
3309 05-05-2019 11:40:00 7.3 C 83 % 4.61 C
3310 05-05-2019 11:45:00 7.3 C 82 % 4.44 C
3311 05-05-2019 11:50:00 7.2 C 83 % 4.51 C
3312 05-05-2019 11:55:00 7.3 C 83 % 4.61 C
3313 05-05-2019 12:00:00 7.2 C 82 % 4.34 C
3314 05-05-2019 12:05:00 7.3 C 82 % 4.44 C
3315 05-05-2019 12:10:00 7.3 C 82 % 4.44 C
3316 05-05-2019 12:15:00 7.3 C 81 % 4.26 C
3317 05-05-2019 12:20:00 7.4 C 81 % 4.36 C
3318 05-05-2019 12:25:00 7.7 C 82 % 4.83 C
3319 05-05-2019 12:30:00 7.8 C 81 % 4.75 C
3320 05-05-2019 12:35:00 7.9 C 80 % 4.67 C
3321 05-05-2019 12:40:00 7.9 C 79 % 4.49 C
3322 05-05-2019 12:45:00 7.8 C 79 % 4.39 C
3323 05-05-2019 12:50:00 7.9 C 80 % 4.67 C
3324 05-05-2019 12:55:00 8.1 C 79 % 4.68 C
3325 05-05-2019 13:00:00 8.2 C 80 % 4.96 C
Sensor: Nr:Datum:Temp:Feuchte:Taupunkt:
Aussen-T/F 3326 05-05-2019 13:05:00 8.3 C 79 % 4.88 C
3327 05-05-2019 13:10:00 8.5 C 78 % 4.89 C
3328 05-05-2019 13:15:00 8.7 C 74 % 4.33 C
3329 05-05-2019 13:20:00 8.8 C 74 % 4.43 C
3330 05-05-2019 13:25:00 8.9 C 72 % 4.14 C
3331 05-05-2019 13:30:00 8.9 C 73 % 4.33 C
3332 05-05-2019 13:35:00 9.1 C 71 % 4.13 C
3333 05-05-2019 13:40:00 9.3 C 70 % 4.12 C
3334 05-05-2019 13:45:00 9.4 C 70 % 4.21 C
3335 05-05-2019 13:50:00 9.5 C 69 % 4.11 C
3336 05-05-2019 13:55:00 9.4 C 68 % 3.8 C
3337 05-05-2019 14:00:00 9.5 C 68 % 3.9 C
3338 05-05-2019 14:05:00 9.8 C 68 % 4.18 C
3339 05-05-2019 14:10:00 10 C 65 % 3.73 C
3340 05-05-2019 14:15:00 10.1 C 65 % 3.83 C
3341 05-05-2019 14:20:00 10 C 65 % 3.73 C
3342 05-05-2019 14:25:00 9.9 C 66 % 3.86 C
3343 05-05-2019 14:30:00 9.6 C 70 % 4.41 C
3344 05-05-2019 14:35:00 9.1 C 73 % 4.52 C
3345 05-05-2019 14:40:00 8.8 C 76 % 4.81 C
3346 05-05-2019 14:45:00 8.4 C 77 % 4.61 C
3347 05-05-2019 14:50:00 8.2 C 78 % 4.6 C
3348 05-05-2019 14:55:00 8.1 C 78 % 4.5 C
3349 05-05-2019 15:00:00 8.2 C 79 % 4.78 C
3350 05-05-2019 15:05:00 8.3 C 78 % 4.7 C
Sensor: Nr:Datum:Temp:Feuchte:Taupunkt:
Aussen-T/F 3351 05-05-2019 15:10:00 8.7 C 77 % 4.9 C
3352 05-05-2019 15:15:00 9.1 C 74 % 4.72 C
3353 05-05-2019 15:20:00 9.3 C 74 % 4.91 C
3354 05-05-2019 15:25:00 9.8 C 71 % 4.8 C
3355 05-05-2019 15:30:00 10.3 C 70 % 5.08 C
3356 05-05-2019 15:35:00 10.8 C 63 % 4.05 C
3357 05-05-2019 15:40:00 10.8 C 60 % 3.36 C
3358 05-05-2019 15:45:00 10.8 C 60 % 3.36 C
3359 05-05-2019 15:50:00 11 C 60 % 3.55 C
3360 05-05-2019 15:55:00 11.3 C 61 % 4.06 C
3361 05-05-2019 16:00:00 11.5 C 58 % 3.54 C
3362 05-05-2019 16:05:00 11.7 C 58 % 3.72 C
3363 05-05-2019 16:10:00 11.8 C 59 % 4.06 C
3364 05-05-2019 16:15:00 12.2 C 60 % 4.67 C
3365 05-05-2019 16:20:00 12.3 C 56 % 3.79 C
3366 05-05-2019 16:25:00 12.3 C 56 % 3.79 C
3367 05-05-2019 16:30:00 12.4 C 59 % 4.62 C
3368 05-05-2019 16:35:00 12.7 C 59 % 4.9 C
3369 05-05-2019 16:40:00 12.9 C 57 % 4.6 C
3370 05-05-2019 16:45:00 13.2 C 54 % 4.11 C
3371 05-05-2019 16:50:00 13.1 C 56 % 4.53 C
3372 05-05-2019 16:55:00 12.6 C 59 % 4.81 C
3373 05-05-2019 17:00:00 11.8 C 61 % 4.53 C
3374 05-05-2019 17:05:00 11.6 C 63 % 4.81 C
3375 05-05-2019 17:10:00 11.7 C 62 % 4.67 C
Sensor: Nr:Datum:Temp:Feuchte:Taupunkt:
Aussen-T/F 3376 05-05-2019 17:15:00 12.2 C 61 % 4.91 C
3377 05-05-2019 17:20:00 12.3 C 59 % 4.53 C
3378 05-05-2019 17:25:00 12.4 C 57 % 4.13 C
3379 05-05-2019 17:30:00 12.8 C 59 % 5 C
3380 05-05-2019 17:35:00 13.1 C 57 % 4.79 C
3381 05-05-2019 17:40:00 13.1 C 56 % 4.53 C
3382 05-05-2019 17:45:00 13.2 C 57 % 4.88 C
3383 05-05-2019 17:50:00 13.3 C 57 % 4.97 C
3384 05-05-2019 17:55:00 13.2 C 56 % 4.63 C
3385 05-05-2019 18:00:00 13.4 C 57 % 5.07 C
3386 05-05-2019 18:05:00 13.4 C 56 % 4.81 C
3387 05-05-2019 18:10:00 12.8 C 58 % 4.75 C
3388 05-05-2019 18:15:00 11.7 C 63 % 4.9 C
3389 05-05-2019 18:20:00 11 C 65 % 4.68 C
3390 05-05-2019 18:25:00 10.4 C 67 % 4.55 C
3391 05-05-2019 18:30:00 10.3 C 69 % 4.87 C
3392 05-05-2019 18:35:00 10.3 C 70 % 5.08 C
3393 05-05-2019 18:40:00 10.6 C 70 % 5.36 C
3394 05-05-2019 18:45:00 10.8 C 66 % 4.71 C
3395 05-05-2019 18:50:00 10.6 C 67 % 4.74 C
3396 05-05-2019 18:55:00 10.3 C 67 % 4.45 C
3397 05-05-2019 19:00:00 10.1 C 68 % 4.47 C
3398 05-05-2019 19:05:00 9.8 C 68 % 4.18 C
3399 05-05-2019 19:10:00 9.7 C 70 % 4.5 C
3400 05-05-2019 19:15:00 9.7 C 70 % 4.5 C
Sensor: Nr:Datum:Temp:Feuchte:Taupunkt:
Aussen-T/F 3401 05-05-2019 19:20:00 9.6 C 70 % 4.41 C
3402 05-05-2019 19:25:00 9.6 C 70 % 4.41 C
3403 05-05-2019 19:30:00 9.6 C 71 % 4.61 C
3404 05-05-2019 19:35:00 9.6 C 70 % 4.41 C
3405 05-05-2019 19:40:00 9.6 C 71 % 4.61 C
3406 05-05-2019 19:45:00 9.6 C 71 % 4.61 C
3407 05-05-2019 19:50:00 9.6 C 72 % 4.81 C
3408 05-05-2019 19:55:00 9.5 C 71 % 4.51 C
3409 05-05-2019 20:00:00 9.5 C 71 % 4.51 C
3410 05-05-2019 20:05:00 9.4 C 71 % 4.42 C
3411 05-05-2019 20:10:00 9.4 C 71 % 4.42 C
3412 05-05-2019 20:15:00 9.3 C 70 % 4.12 C
3413 05-05-2019 20:20:00 9.3 C 71 % 4.32 C
3414 05-05-2019 20:25:00 9.3 C 71 % 4.32 C
3415 05-05-2019 20:30:00 9.2 C 71 % 4.22 C
3416 05-05-2019 20:35:00 9.2 C 72 % 4.42 C
3417 05-05-2019 20:40:00 9.1 C 73 % 4.52 C
3418 05-05-2019 20:45:00 8.9 C 73 % 4.33 C
3419 05-05-2019 20:50:00 8.9 C 74 % 4.53 C
3420 05-05-2019 20:55:00 8.8 C 75 % 4.62 C
3421 05-05-2019 21:00:00 8.7 C 76 % 4.71 C
3422 05-05-2019 21:05:00 8.6 C 75 % 4.43 C
3423 05-05-2019 21:10:00 8.6 C 77 % 4.8 C
3424 05-05-2019 21:15:00 8.4 C 77 % 4.61 C
3425 05-05-2019 21:20:00 8.3 C 76 % 4.33 C
Sensor: Nr:Datum:Temp:Feuchte:Taupunkt:
Aussen-T/F 3426 05-05-2019 21:25:00 8.2 C 76 % 4.23 C
3427 05-05-2019 21:30:00 8.2 C 76 % 4.23 C
3428 05-05-2019 21:35:00 8.2 C 76 % 4.23 C
3429 05-05-2019 21:40:00 8.1 C 75 % 3.94 C
3430 05-05-2019 21:45:00 8 C 76 % 4.04 C
3431 05-05-2019 21:50:00 8 C 77 % 4.22 C
3432 05-05-2019 21:55:00 7.9 C 76 % 3.94 C
3433 05-05-2019 22:00:00 7.9 C 76 % 3.94 C
3434 05-05-2019 22:05:00 7.8 C 76 % 3.84 C
3435 05-05-2019 22:10:00 7.7 C 78 % 4.11 C
3436 05-05-2019 22:15:00 7.6 C 79 % 4.2 C
3437 05-05-2019 22:20:00 7.3 C 79 % 3.91 C
3438 05-05-2019 22:25:00 7.2 C 80 % 3.99 C
3439 05-05-2019 22:30:00 7.1 C 81 % 4.07 C
3440 05-05-2019 22:35:00 6.9 C 81 % 3.87 C
3441 05-05-2019 22:40:00 6.8 C 82 % 3.95 C
3442 05-05-2019 22:45:00 6.6 C 83 % 3.92 C
3443 05-05-2019 22:50:00 6.5 C 83 % 3.83 C
3444 05-05-2019 22:55:00 6.4 C 84 % 3.9 C
3445 05-05-2019 23:00:00 6.4 C 84 % 3.9 C
3446 05-05-2019 23:05:00 6.3 C 85 % 3.97 C
3447 05-05-2019 23:10:00 6.3 C 85 % 3.97 C
3448 05-05-2019 23:15:00 6.3 C 85 % 3.97 C
3449 05-05-2019 23:20:00 6.3 C 85 % 3.97 C
3450 05-05-2019 23:25:00 6.3 C 85 % 3.97 C
Sensor: Nr:Datum:Temp:Feuchte:Taupunkt:
Aussen-T/F 3451 05-05-2019 23:30:00 6.2 C 85 % 3.87 C
3452 05-05-2019 23:35:00 6.2 C 86 % 4.04 C
3453 05-05-2019 23:40:00 6.2 C 86 % 4.04 C
3454 05-05-2019 23:45:00 6.2 C 86 % 4.04 C
3455 05-05-2019 23:50:00 6.2 C 86 % 4.04 C
3456 05-05-2019 23:55:00 6.1 C 86 % 3.94 C
3457 06-05-2019 00:00:00 6.1 C 86 % 3.94 C
3458 06-05-2019 00:05:00 6.1 C 86 % 3.94 C
3459 06-05-2019 00:10:00 6.1 C 86 % 3.94 C
3460 06-05-2019 00:15:00 6.1 C 86 % 3.94 C
3461 06-05-2019 00:20:00 6.1 C 87 % 4.1 C
3462 06-05-2019 00:25:00 6.1 C 87 % 4.1 C
3463 06-05-2019 00:30:00 6.2 C 87 % 4.2 C
3464 06-05-2019 00:35:00 6.2 C 86 % 4.04 C
3465 06-05-2019 00:40:00 6.1 C 86 % 3.94 C
3466 06-05-2019 00:45:00 6.1 C 87 % 4.1 C
3467 06-05-2019 00:50:00 6.1 C 87 % 4.1 C
3468 06-05-2019 00:55:00 6.1 C 87 % 4.1 C
3469 06-05-2019 01:00:00 6.1 C 87 % 4.1 C
3470 06-05-2019 01:05:00 6.1 C 87 % 4.1 C
3471 06-05-2019 01:10:00 6.1 C 88 % 4.27 C
3472 06-05-2019 01:15:00 6.1 C 88 % 4.27 C
3473 06-05-2019 01:20:00 6 C 88 % 4.17 C
3474 06-05-2019 01:25:00 6 C 88 % 4.17 C
3475 06-05-2019 01:30:00 5.9 C 88 % 4.07 C
Sensor: Nr:Datum:Temp:Feuchte:Taupunkt:
Aussen-T/F 3476 06-05-2019 01:35:00 5.8 C 88 % 3.97 C
3477 06-05-2019 01:40:00 5.8 C 88 % 3.97 C
3478 06-05-2019 01:45:00 5.7 C 87 % 3.71 C
3479 06-05-2019 01:50:00 5.7 C 87 % 3.71 C
3480 06-05-2019 01:55:00 5.6 C 87 % 3.61 C
3481 06-05-2019 02:00:00 5.6 C 87 % 3.61 C
3482 06-05-2019 02:05:00 5.6 C 87 % 3.61 C
3483 06-05-2019 02:10:00 5.4 C 87 % 3.41 C
3484 06-05-2019 02:15:00 5.3 C 87 % 3.32 C
3485 06-05-2019 02:20:00 5.3 C 88 % 3.48 C
3486 06-05-2019 02:25:00 5.2 C 88 % 3.38 C
3487 06-05-2019 02:30:00 5.1 C 88 % 3.28 C
3488 06-05-2019 02:35:00 4.9 C 88 % 3.08 C
3489 06-05-2019 02:40:00 4.8 C 88 % 2.99 C
3490 06-05-2019 02:45:00 4.7 C 89 % 3.05 C
3491 06-05-2019 02:50:00 4.7 C 89 % 3.05 C
3492 06-05-2019 02:55:00 4.6 C 89 % 2.95 C
3493 06-05-2019 03:00:00 4.6 C 90 % 3.1 C
3494 06-05-2019 03:05:00 4.6 C 90 % 3.1 C
3495 06-05-2019 03:10:00 4.4 C 90 % 2.91 C
3496 06-05-2019 03:15:00 4.4 C 90 % 2.91 C
3497 06-05-2019 03:20:00 4.3 C 90 % 2.81 C
3498 06-05-2019 03:25:00 4.2 C 90 % 2.71 C
3499 06-05-2019 03:30:00 4.2 C 90 % 2.71 C
3500 06-05-2019 03:35:00 4.1 C 91 % 2.77 C
Sensor: Nr:Datum:Temp:Feuchte:Taupunkt:
Aussen-T/F 3501 06-05-2019 03:40:00 4.1 C 91 % 2.77 C
3502 06-05-2019 03:45:00 4.1 C 91 % 2.77 C
3503 06-05-2019 03:50:00 4.1 C 91 % 2.77 C
3504 06-05-2019 03:55:00 4 C 91 % 2.67 C
3505 06-05-2019 04:00:00 3.9 C 91 % 2.57 C
3506 06-05-2019 04:05:00 3.9 C 91 % 2.57 C
3507 06-05-2019 04:10:00 3.8 C 91 % 2.47 C
3508 06-05-2019 04:15:00 3.8 C 91 % 2.47 C
3509 06-05-2019 04:20:00 3.7 C 91 % 2.37 C
3510 06-05-2019 04:25:00 3.7 C 91 % 2.37 C
3511 06-05-2019 04:30:00 3.6 C 91 % 2.27 C
3512 06-05-2019 04:35:00 3.4 C 91 % 2.07 C
3513 06-05-2019 04:40:00 3.4 C 91 % 2.07 C
3514 06-05-2019 04:45:00 3.3 C 92 % 2.13 C
3515 06-05-2019 04:50:00 3.3 C 92 % 2.13 C
3516 06-05-2019 04:55:00 3.3 C 92 % 2.13 C
3517 06-05-2019 05:00:00 3.3 C 92 % 2.13 C
3518 06-05-2019 05:05:00 3.2 C 92 % 2.03 C
3519 06-05-2019 05:10:00 3.2 C 92 % 2.03 C
3520 06-05-2019 05:15:00 3.1 C 92 % 1.93 C
3521 06-05-2019 05:20:00 3.1 C 92 % 1.93 C
3522 06-05-2019 05:25:00 3 C 92 % 1.83 C
3523 06-05-2019 05:30:00 3 C 92 % 1.83 C
3524 06-05-2019 05:35:00 2.9 C 93 % 1.88 C
3525 06-05-2019 05:40:00 2.9 C 93 % 1.88 C
Sensor: Nr:Datum:Temp:Feuchte:Taupunkt:
Aussen-T/F 3526 06-05-2019 05:45:00 2.9 C 93 % 1.88 C
3527 06-05-2019 05:50:00 2.8 C 93 % 1.78 C
3528 06-05-2019 05:55:00 2.8 C 93 % 1.78 C
3529 06-05-2019 06:00:00 2.7 C 93 % 1.68 C
3530 06-05-2019 06:05:00 2.7 C 93 % 1.68 C
3531 06-05-2019 06:10:00 2.7 C 93 % 1.68 C
3532 06-05-2019 06:15:00 2.8 C 94 % 1.93 C
3533 06-05-2019 06:20:00 3 C 94 % 2.13 C
3534 06-05-2019 06:25:00 3.2 C 94 % 2.33 C
3535 06-05-2019 06:30:00 3.3 C 94 % 2.43 C
3536 06-05-2019 06:35:00 3.4 C 94 % 2.53 C
3537 06-05-2019 06:40:00 3.4 C 94 % 2.53 C
3538 06-05-2019 06:45:00 3.5 C 94 % 2.63 C
3539 06-05-2019 06:50:00 3.5 C 94 % 2.63 C
3540 06-05-2019 06:55:00 3.5 C 94 % 2.63 C
3541 06-05-2019 07:00:00 3.5 C 94 % 2.63 C
3542 06-05-2019 07:05:00 3.5 C 94 % 2.63 C
3543 06-05-2019 07:10:00 3.6 C 94 % 2.73 C
3544 06-05-2019 07:15:00 3.6 C 94 % 2.73 C
3545 06-05-2019 07:20:00 3.6 C 94 % 2.73 C
3546 06-05-2019 07:25:00 3.6 C 94 % 2.73 C
3547 06-05-2019 07:30:00 3.7 C 94 % 2.83 C
3548 06-05-2019 07:35:00 3.8 C 94 % 2.93 C
3549 06-05-2019 07:40:00 3.8 C 94 % 2.93 C
3550 06-05-2019 07:45:00 3.8 C 94 % 2.93 C
Sensor: Nr:Datum:Temp:Feuchte:Taupunkt:
Aussen-T/F 3551 06-05-2019 07:50:00 3.9 C 94 % 3.02 C
3552 06-05-2019 07:55:00 4.1 C 94 % 3.22 C
3553 06-05-2019 08:00:00 4.1 C 93 % 3.07 C
3554 06-05-2019 08:05:00 4.2 C 94 % 3.32 C
3555 06-05-2019 08:10:00 4.3 C 93 % 3.27 C
3556 06-05-2019 08:15:00 4.4 C 93 % 3.37 C
3557 06-05-2019 08:20:00 4.5 C 93 % 3.47 C
3558 06-05-2019 08:25:00 4.6 C 93 % 3.57 C
3559 06-05-2019 08:30:00 4.6 C 92 % 3.42 C
3560 06-05-2019 08:35:00 4.7 C 92 % 3.51 C
3561 06-05-2019 08:40:00 4.7 C 92 % 3.51 C
3562 06-05-2019 08:45:00 4.8 C 91 % 3.46 C
3563 06-05-2019 08:50:00 4.9 C 91 % 3.56 C
3564 06-05-2019 08:55:00 5 C 91 % 3.66 C
3565 06-05-2019 09:00:00 5.2 C 90 % 3.7 C
3566 06-05-2019 09:05:00 5.4 C 89 % 3.74 C
3567 06-05-2019 09:10:00 5.8 C 88 % 3.97 C
3568 06-05-2019 09:15:00 6 C 86 % 3.84 C
3569 06-05-2019 09:20:00 6.3 C 85 % 3.97 C
3570 06-05-2019 09:25:00 6.5 C 85 % 4.17 C
3571 06-05-2019 09:30:00 6.6 C 83 % 3.92 C
3572 06-05-2019 09:35:00 6.6 C 82 % 3.75 C
3573 06-05-2019 09:40:00 6.6 C 81 % 3.58 C
3574 06-05-2019 09:45:00 6.7 C 80 % 3.5 C
3575 06-05-2019 09:50:00 6.9 C 82 % 4.05 C
Sensor: Nr:Datum:Temp:Feuchte:Taupunkt:
Aussen-T/F 3576 06-05-2019 09:55:00 7.2 C 80 % 3.99 C
3577 06-05-2019 10:00:00 7.4 C 79 % 4 C
3578 06-05-2019 10:05:00 7.6 C 77 % 3.83 C
3579 06-05-2019 10:10:00 7.7 C 77 % 3.93 C
3580 06-05-2019 10:15:00 7.7 C 74 % 3.37 C
3581 06-05-2019 10:20:00 7.8 C 74 % 3.46 C
3582 06-05-2019 10:25:00 7.9 C 73 % 3.37 C
3583 06-05-2019 10:30:00 7.9 C 73 % 3.37 C
3584 06-05-2019 10:35:00 8 C 74 % 3.66 C
3585 06-05-2019 10:40:00 8.2 C 72 % 3.46 C
3586 06-05-2019 10:45:00 8.4 C 72 % 3.65 C
3587 06-05-2019 10:50:00 8.7 C 72 % 3.94 C
3588 06-05-2019 10:55:00 8.9 C 69 % 3.53 C
3589 06-05-2019 11:00:00 9.1 C 69 % 3.72 C
3590 06-05-2019 11:05:00 9.3 C 68 % 3.71 C
3591 06-05-2019 11:10:00 9.5 C 64 % 3.04 C
3592 06-05-2019 11:15:00 9.4 C 63 % 2.72 C
3593 06-05-2019 11:20:00 9.3 C 66 % 3.28 C
3594 06-05-2019 11:25:00 9.2 C 68 % 3.61 C
3595 06-05-2019 11:30:00 9.2 C 68 % 3.61 C
3596 06-05-2019 11:35:00 9.2 C 65 % 2.97 C
3597 06-05-2019 11:40:00 9.3 C 70 % 4.12 C
3598 06-05-2019 11:45:00 9.4 C 70 % 4.21 C
3599 06-05-2019 11:50:00 9.5 C 65 % 3.26 C
3600 06-05-2019 11:55:00 9.6 C 65 % 3.35 C
Sensor: Nr:Datum:Temp:Feuchte:Taupunkt:
Aussen-T/F 3601 06-05-2019 12:00:00 9.7 C 61 % 2.55 C
3602 06-05-2019 12:05:00 9.7 C 60 % 2.32 C
3603 06-05-2019 12:10:00 9.7 C 56 % 1.36 C
3604 06-05-2019 12:15:00 9.8 C 57 % 1.7 C
3605 06-05-2019 12:20:00 9.8 C 59 % 2.18 C
3606 06-05-2019 12:25:00 9.9 C 59 % 2.27 C
3607 06-05-2019 12:30:00 10.1 C 62 % 3.16 C
3608 06-05-2019 12:35:00 10.3 C 61 % 3.12 C
3609 06-05-2019 12:40:00 10.3 C 58 % 2.41 C
3610 06-05-2019 12:45:00 10.3 C 60 % 2.89 C
3611 06-05-2019 12:50:00 10.4 C 61 % 3.21 C
3612 06-05-2019 12:55:00 10.6 C 60 % 3.17 C
3613 06-05-2019 13:00:00 10.6 C 59 % 2.93 C
3614 06-05-2019 13:05:00 10.7 C 57 % 2.54 C
3615 06-05-2019 13:10:00 10.7 C 61 % 3.5 C
3616 06-05-2019 13:15:00 10.9 C 57 % 2.73 C
3617 06-05-2019 13:20:00 11 C 54 % 2.06 C
3618 06-05-2019 13:25:00 11 C 55 % 2.32 C
3619 06-05-2019 13:30:00 11 C 56 % 2.57 C
3620 06-05-2019 13:35:00 11.1 C 55 % 2.41 C
3621 06-05-2019 13:40:00 10.9 C 54 % 1.97 C
3622 06-05-2019 13:45:00 11.1 C 57 % 2.92 C
3623 06-05-2019 13:50:00 11.2 C 54 % 2.25 C
3624 06-05-2019 13:55:00 11.2 C 54 % 2.25 C
3625 06-05-2019 14:00:00 11.2 C 55 % 2.51 C
Sensor: Nr:Datum:Temp:Feuchte:Taupunkt:
Aussen-T/F 3626 06-05-2019 14:05:00 11.1 C 52 % 1.63 C
3627 06-05-2019 14:10:00 11.3 C 54 % 2.34 C
3628 06-05-2019 14:15:00 11.4 C 54 % 2.44 C
3629 06-05-2019 14:20:00 11.3 C 53 % 2.08 C
3630 06-05-2019 14:25:00 11.4 C 56 % 2.95 C
3631 06-05-2019 14:30:00 11.5 C 53 % 2.27 C
3632 06-05-2019 14:35:00 11.3 C 55 % 2.6 C
3633 06-05-2019 14:40:00 11.1 C 56 % 2.67 C
3634 06-05-2019 14:45:00 11.1 C 57 % 2.92 C
3635 06-05-2019 14:50:00 11.1 C 57 % 2.92 C
3636 06-05-2019 14:55:00 11.1 C 58 % 3.16 C
3637 06-05-2019 15:00:00 11.2 C 55 % 2.51 C
3638 06-05-2019 15:05:00 11.3 C 58 % 3.35 C
3639 06-05-2019 15:10:00 11.5 C 56 % 3.04 C
3640 06-05-2019 15:15:00 11.6 C 55 % 2.88 C
3641 06-05-2019 15:20:00 11.4 C 56 % 2.95 C
3642 06-05-2019 15:25:00 11.3 C 57 % 3.1 C
3643 06-05-2019 15:30:00 11.2 C 57 % 3.01 C
3644 06-05-2019 15:35:00 11.1 C 57 % 2.92 C
3645 06-05-2019 15:40:00 11.1 C 58 % 3.16 C
3646 06-05-2019 15:45:00 11.2 C 59 % 3.5 C
3647 06-05-2019 15:50:00 11.3 C 59 % 3.59 C
3648 06-05-2019 15:55:00 11.3 C 59 % 3.59 C
3649 06-05-2019 16:00:00 11.2 C 60 % 3.73 C
3650 06-05-2019 16:05:00 11.2 C 60 % 3.73 C
Sensor: Nr:Datum:Temp:Feuchte:Taupunkt:
Aussen-T/F 3651 06-05-2019 16:10:00 11.1 C 60 % 3.64 C
3652 06-05-2019 16:15:00 11.2 C 59 % 3.5 C
3653 06-05-2019 16:20:00 11.2 C 59 % 3.5 C
3654 06-05-2019 16:25:00 11.2 C 60 % 3.73 C
3655 06-05-2019 16:30:00 11.1 C 59 % 3.4 C
3656 06-05-2019 16:35:00 10.9 C 61 % 3.69 C
3657 06-05-2019 16:40:00 10.8 C 60 % 3.36 C
3658 06-05-2019 16:45:00 10.8 C 63 % 4.05 C
3659 06-05-2019 16:50:00 10.8 C 61 % 3.59 C
3660 06-05-2019 16:55:00 10.7 C 62 % 3.73 C
3661 06-05-2019 17:00:00 10.7 C 61 % 3.5 C
3662 06-05-2019 17:05:00 10.7 C 61 % 3.5 C
3663 06-05-2019 17:10:00 10.8 C 61 % 3.59 C
3664 06-05-2019 17:15:00 10.8 C 63 % 4.05 C
3665 06-05-2019 17:20:00 10.8 C 60 % 3.36 C
3666 06-05-2019 17:25:00 10.7 C 60 % 3.26 C
3667 06-05-2019 17:30:00 10.7 C 60 % 3.26 C
3668 06-05-2019 17:35:00 10.6 C 62 % 3.63 C
3669 06-05-2019 17:40:00 10.6 C 62 % 3.63 C
3670 06-05-2019 17:45:00 10.6 C 62 % 3.63 C
3671 06-05-2019 17:50:00 10.6 C 62 % 3.63 C
3672 06-05-2019 17:55:00 10.5 C 60 % 3.08 C
3673 06-05-2019 18:00:00 10.5 C 62 % 3.54 C
3674 06-05-2019 18:05:00 10.6 C 64 % 4.08 C
3675 06-05-2019 18:10:00 10.9 C 65 % 4.59 C
Sensor: Nr:Datum:Temp:Feuchte:Taupunkt:
Aussen-T/F 3676 06-05-2019 18:15:00 11.3 C 61 % 4.06 C
3677 06-05-2019 18:20:00 11.5 C 58 % 3.54 C
3678 06-05-2019 18:25:00 11.6 C 62 % 4.58 C
3679 06-05-2019 18:30:00 11.8 C 61 % 4.53 C
3680 06-05-2019 18:35:00 11.8 C 61 % 4.53 C
3681 06-05-2019 18:40:00 11.8 C 58 % 3.82 C
3682 06-05-2019 18:45:00 11.8 C 61 % 4.53 C
3683 06-05-2019 18:50:00 11.8 C 61 % 4.53 C
3684 06-05-2019 18:55:00 11.7 C 61 % 4.44 C
3685 06-05-2019 19:00:00 11.6 C 59 % 3.87 C
3686 06-05-2019 19:05:00 11.3 C 61 % 4.06 C
3687 06-05-2019 19:10:00 11.3 C 66 % 5.19 C
3688 06-05-2019 19:15:00 11.2 C 64 % 4.65 C
3689 06-05-2019 19:20:00 11 C 67 % 5.12 C
3690 06-05-2019 19:25:00 10.9 C 70 % 5.65 C
3691 06-05-2019 19:30:00 10.7 C 70 % 5.46 C
3692 06-05-2019 19:35:00 10.6 C 71 % 5.57 C
3693 06-05-2019 19:40:00 10.3 C 71 % 5.28 C
3694 06-05-2019 19:45:00 10.2 C 73 % 5.58 C
3695 06-05-2019 19:50:00 10.1 C 73 % 5.49 C
3696 06-05-2019 19:55:00 9.9 C 74 % 5.49 C
3697 06-05-2019 20:00:00 9.7 C 73 % 5.1 C
3698 06-05-2019 20:05:00 9.6 C 75 % 5.39 C
3699 06-05-2019 20:10:00 9.4 C 74 % 5.01 C
3700 06-05-2019 20:15:00 9.3 C 72 % 4.52 C
Sensor: Nr:Datum:Temp:Feuchte:Taupunkt:
Aussen-T/F 3701 06-05-2019 20:20:00 9.3 C 73 % 4.72 C
3702 06-05-2019 20:25:00 9.3 C 74 % 4.91 C
3703 06-05-2019 20:30:00 9.2 C 74 % 4.81 C
3704 06-05-2019 20:35:00 9.1 C 77 % 5.29 C
3705 06-05-2019 20:40:00 9.1 C 78 % 5.47 C
3706 06-05-2019 20:45:00 8.9 C 78 % 5.28 C
3707 06-05-2019 20:50:00 8.7 C 78 % 5.08 C
3708 06-05-2019 20:55:00 8.6 C 80 % 5.35 C
3709 06-05-2019 21:00:00 8.6 C 81 % 5.53 C
3710 06-05-2019 21:05:00 8.5 C 82 % 5.61 C
3711 06-05-2019 21:10:00 8.4 C 82 % 5.51 C
3712 06-05-2019 21:15:00 8.3 C 82 % 5.41 C
3713 06-05-2019 21:20:00 8.2 C 81 % 5.14 C
3714 06-05-2019 21:25:00 8.2 C 82 % 5.32 C
3715 06-05-2019 21:30:00 8.2 C 82 % 5.32 C
3716 06-05-2019 21:35:00 8.2 C 82 % 5.32 C
3717 06-05-2019 21:40:00 8.2 C 82 % 5.32 C
3718 06-05-2019 21:45:00 8.2 C 83 % 5.49 C
3719 06-05-2019 21:50:00 8.1 C 82 % 5.22 C
3720 06-05-2019 21:55:00 8.1 C 83 % 5.39 C
3721 06-05-2019 22:00:00 8 C 83 % 5.29 C
3722 06-05-2019 22:05:00 7.9 C 84 % 5.37 C
3723 06-05-2019 22:10:00 7.9 C 84 % 5.37 C
3724 06-05-2019 22:15:00 7.9 C 85 % 5.54 C
3725 06-05-2019 22:20:00 7.9 C 85 % 5.54 C
Sensor: Nr:Datum:Temp:Feuchte:Taupunkt:
Aussen-T/F 3726 06-05-2019 22:25:00 7.8 C 86 % 5.61 C
3727 06-05-2019 22:30:00 7.8 C 86 % 5.61 C
3728 06-05-2019 22:35:00 7.7 C 86 % 5.51 C
3729 06-05-2019 22:40:00 7.6 C 86 % 5.41 C
3730 06-05-2019 22:45:00 7.6 C 87 % 5.58 C
3731 06-05-2019 22:50:00 7.5 C 87 % 5.48 C
3732 06-05-2019 22:55:00 7.4 C 87 % 5.38 C
3733 06-05-2019 23:00:00 7.4 C 86 % 5.22 C
3734 06-05-2019 23:05:00 7.3 C 86 % 5.12 C
3735 06-05-2019 23:10:00 7.3 C 86 % 5.12 C
3736 06-05-2019 23:15:00 7.3 C 87 % 5.28 C
3737 06-05-2019 23:20:00 7.3 C 87 % 5.28 C
3738 06-05-2019 23:25:00 7.3 C 87 % 5.28 C
3739 06-05-2019 23:30:00 7.3 C 87 % 5.28 C
3740 06-05-2019 23:35:00 7.3 C 87 % 5.28 C
3741 06-05-2019 23:40:00 7.3 C 87 % 5.28 C
3742 06-05-2019 23:45:00 7.3 C 87 % 5.28 C
3743 06-05-2019 23:50:00 7.3 C 87 % 5.28 C
3744 06-05-2019 23:55:00 7.3 C 88 % 5.45 C
3745 07-05-2019 00:00:00 7.3 C 88 % 5.45 C
3746 07-05-2019 00:05:00 7.3 C 88 % 5.45 C
3747 07-05-2019 00:10:00 7.3 C 88 % 5.45 C
3748 07-05-2019 00:15:00 7.3 C 88 % 5.45 C
3749 07-05-2019 00:20:00 7.3 C 88 % 5.45 C
3750 07-05-2019 00:25:00 7.3 C 88 % 5.45 C
Sensor: Nr:Datum:Temp:Feuchte:Taupunkt:
Aussen-T/F 3751 07-05-2019 00:30:00 7.3 C 89 % 5.61 C
3752 07-05-2019 00:35:00 7.3 C 89 % 5.61 C
3753 07-05-2019 00:40:00 7.3 C 89 % 5.61 C
3754 07-05-2019 00:45:00 7.3 C 89 % 5.61 C
3755 07-05-2019 00:50:00 7.3 C 89 % 5.61 C
3756 07-05-2019 00:55:00 7.2 C 89 % 5.51 C
3757 07-05-2019 01:00:00 7.2 C 89 % 5.51 C
3758 07-05-2019 01:05:00 7.2 C 89 % 5.51 C
3759 07-05-2019 01:10:00 7.2 C 89 % 5.51 C
3760 07-05-2019 01:15:00 7.1 C 89 % 5.41 C
3761 07-05-2019 01:20:00 7.1 C 89 % 5.41 C
3762 07-05-2019 01:25:00 7.1 C 89 % 5.41 C
3763 07-05-2019 01:30:00 7.1 C 89 % 5.41 C
3764 07-05-2019 01:35:00 7 C 89 % 5.31 C
3765 07-05-2019 01:40:00 6.9 C 89 % 5.22 C
3766 07-05-2019 01:45:00 6.9 C 89 % 5.22 C
3767 07-05-2019 01:50:00 6.9 C 90 % 5.38 C
3768 07-05-2019 01:55:00 6.8 C 90 % 5.28 C
3769 07-05-2019 02:00:00 6.8 C 90 % 5.28 C
3770 07-05-2019 02:05:00 6.8 C 90 % 5.28 C
3771 07-05-2019 02:10:00 6.7 C 90 % 5.18 C
3772 07-05-2019 02:15:00 6.7 C 90 % 5.18 C
3773 07-05-2019 02:20:00 6.7 C 90 % 5.18 C
3774 07-05-2019 02:25:00 6.7 C 90 % 5.18 C
3775 07-05-2019 02:30:00 6.7 C 90 % 5.18 C
Sensor: Nr:Datum:Temp:Feuchte:Taupunkt:
Aussen-T/F 3776 07-05-2019 02:35:00 6.7 C 90 % 5.18 C
3777 07-05-2019 02:40:00 6.6 C 90 % 5.08 C
3778 07-05-2019 02:45:00 6.6 C 90 % 5.08 C
3779 07-05-2019 02:50:00 6.7 C 90 % 5.18 C
3780 07-05-2019 02:55:00 6.7 C 90 % 5.18 C
3781 07-05-2019 03:00:00 6.7 C 90 % 5.18 C
3782 07-05-2019 03:05:00 6.7 C 90 % 5.18 C
3783 07-05-2019 03:10:00 6.7 C 90 % 5.18 C
3784 07-05-2019 03:15:00 6.7 C 90 % 5.18 C
3785 07-05-2019 03:20:00 6.7 C 90 % 5.18 C
3786 07-05-2019 03:25:00 6.7 C 90 % 5.18 C
3787 07-05-2019 03:30:00 6.6 C 90 % 5.08 C
3788 07-05-2019 03:35:00 6.6 C 90 % 5.08 C
3789 07-05-2019 03:40:00 6.6 C 90 % 5.08 C
3790 07-05-2019 03:45:00 6.6 C 90 % 5.08 C
3791 07-05-2019 03:50:00 6.6 C 90 % 5.08 C
3792 07-05-2019 03:55:00 6.5 C 90 % 4.98 C
3793 07-05-2019 04:00:00 6.4 C 90 % 4.88 C
3794 07-05-2019 04:05:00 6.4 C 90 % 4.88 C
3795 07-05-2019 04:10:00 6.4 C 90 % 4.88 C
3796 07-05-2019 04:15:00 6.4 C 90 % 4.88 C
3797 07-05-2019 04:20:00 6.4 C 90 % 4.88 C
3798 07-05-2019 04:25:00 6.4 C 90 % 4.88 C
3799 07-05-2019 04:30:00 6.3 C 90 % 4.78 C
3800 07-05-2019 04:35:00 6.3 C 90 % 4.78 C
Sensor: Nr:Datum:Temp:Feuchte:Taupunkt:
Aussen-T/F 3801 07-05-2019 04:40:00 6.3 C 90 % 4.78 C
3802 07-05-2019 04:45:00 6.3 C 90 % 4.78 C
3803 07-05-2019 04:50:00 6.3 C 91 % 4.94 C
3804 07-05-2019 04:55:00 6.3 C 91 % 4.94 C
3805 07-05-2019 05:00:00 6.3 C 91 % 4.94 C
3806 07-05-2019 05:05:00 6.3 C 91 % 4.94 C
3807 07-05-2019 05:10:00 6.3 C 91 % 4.94 C
3808 07-05-2019 05:15:00 6.3 C 91 % 4.94 C
3809 07-05-2019 05:20:00 6.2 C 91 % 4.84 C
3810 07-05-2019 05:25:00 6.2 C 91 % 4.84 C
3811 07-05-2019 05:30:00 6.2 C 91 % 4.84 C
3812 07-05-2019 05:35:00 6.1 C 91 % 4.74 C
3813 07-05-2019 05:40:00 6.1 C 91 % 4.74 C
3814 07-05-2019 05:45:00 6.1 C 91 % 4.74 C
3815 07-05-2019 05:50:00 6 C 91 % 4.65 C
3816 07-05-2019 05:55:00 5.9 C 91 % 4.55 C
3817 07-05-2019 06:00:00 5.9 C 91 % 4.55 C
3818 07-05-2019 06:05:00 5.9 C 91 % 4.55 C
3819 07-05-2019 06:10:00 5.9 C 91 % 4.55 C
3820 07-05-2019 06:15:00 5.9 C 91 % 4.55 C
3821 07-05-2019 06:20:00 5.8 C 91 % 4.45 C
3822 07-05-2019 06:25:00 5.8 C 91 % 4.45 C
3823 07-05-2019 06:30:00 5.8 C 91 % 4.45 C
3824 07-05-2019 06:35:00 5.8 C 91 % 4.45 C
3825 07-05-2019 06:40:00 5.8 C 92 % 4.6 C
Sensor: Nr:Datum:Temp:Feuchte:Taupunkt:
Aussen-T/F 3826 07-05-2019 06:45:00 5.9 C 92 % 4.7 C
3827 07-05-2019 06:50:00 5.9 C 92 % 4.7 C
3828 07-05-2019 06:55:00 5.9 C 92 % 4.7 C
3829 07-05-2019 07:00:00 5.9 C 92 % 4.7 C
3830 07-05-2019 07:05:00 6 C 92 % 4.8 C
3831 07-05-2019 07:10:00 6.1 C 92 % 4.9 C
3832 07-05-2019 07:15:00 6.2 C 92 % 5 C
3833 07-05-2019 07:20:00 6.3 C 93 % 5.25 C
3834 07-05-2019 07:25:00 6.3 C 93 % 5.25 C
3835 07-05-2019 07:30:00 6.4 C 93 % 5.35 C
3836 07-05-2019 07:35:00 6.6 C 92 % 5.4 C
3837 07-05-2019 07:40:00 6.6 C 92 % 5.4 C
3838 07-05-2019 07:45:00 6.7 C 92 % 5.49 C
3839 07-05-2019 07:50:00 6.7 C 91 % 5.34 C
3840 07-05-2019 07:55:00 6.8 C 91 % 5.44 C
3841 07-05-2019 08:00:00 6.9 C 91 % 5.54 C
3842 07-05-2019 08:05:00 7 C 90 % 5.48 C
3843 07-05-2019 08:10:00 7.1 C 90 % 5.57 C
3844 07-05-2019 08:15:00 7.2 C 90 % 5.67 C
3845 07-05-2019 08:20:00 7.3 C 90 % 5.77 C
3846 07-05-2019 08:25:00 7.3 C 89 % 5.61 C
3847 07-05-2019 08:30:00 7.3 C 89 % 5.61 C
3848 07-05-2019 08:35:00 7.4 C 89 % 5.71 C
3849 07-05-2019 08:40:00 7.4 C 89 % 5.71 C
3850 07-05-2019 08:45:00 7.5 C 88 % 5.64 C
Sensor: Nr:Datum:Temp:Feuchte:Taupunkt:
Aussen-T/F 3851 07-05-2019 08:50:00 7.6 C 88 % 5.74 C
3852 07-05-2019 08:55:00 7.7 C 88 % 5.84 C
3853 07-05-2019 09:00:00 7.9 C 88 % 6.04 C
3854 07-05-2019 09:05:00 8 C 88 % 6.14 C
3855 07-05-2019 09:10:00 8.1 C 88 % 6.24 C
3856 07-05-2019 09:15:00 8.3 C 88 % 6.43 C
3857 07-05-2019 09:20:00 8.4 C 87 % 6.37 C
3858 07-05-2019 09:25:00 8.4 C 86 % 6.2 C
3859 07-05-2019 09:30:00 8.6 C 86 % 6.39 C
3860 07-05-2019 09:35:00 8.6 C 85 % 6.23 C
3861 07-05-2019 09:40:00 8.7 C 84 % 6.15 C
3862 07-05-2019 09:45:00 8.8 C 84 % 6.25 C
3863 07-05-2019 09:50:00 8.9 C 83 % 6.17 C
3864 07-05-2019 09:55:00 9 C 82 % 6.1 C
3865 07-05-2019 10:00:00 9.1 C 82 % 6.19 C
3866 07-05-2019 10:05:00 9.2 C 82 % 6.29 C
3867 07-05-2019 10:10:00 9.3 C 82 % 6.39 C
3868 07-05-2019 10:15:00 9.4 C 82 % 6.49 C
3869 07-05-2019 10:20:00 9.4 C 81 % 6.31 C
3870 07-05-2019 10:25:00 9.5 C 80 % 6.23 C
3871 07-05-2019 10:30:00 9.6 C 80 % 6.32 C
3872 07-05-2019 10:35:00 9.7 C 79 % 6.24 C
3873 07-05-2019 10:40:00 9.8 C 79 % 6.34 C
3874 07-05-2019 10:45:00 10 C 79 % 6.53 C
3875 07-05-2019 10:50:00 10.1 C 77 % 6.26 C
Sensor: Nr:Datum:Temp:Feuchte:Taupunkt:
Aussen-T/F 3876 07-05-2019 10:55:00 10.2 C 76 % 6.16 C
3877 07-05-2019 11:00:00 10.1 C 76 % 6.07 C
3878 07-05-2019 11:05:00 10.1 C 75 % 5.88 C
3879 07-05-2019 11:10:00 10.1 C 75 % 5.88 C
3880 07-05-2019 11:15:00 10.2 C 75 % 5.97 C
3881 07-05-2019 11:20:00 10.4 C 73 % 5.78 C
3882 07-05-2019 11:25:00 10.4 C 72 % 5.58 C
3883 07-05-2019 11:30:00 10.6 C 72 % 5.77 C
3884 07-05-2019 11:35:00 10.7 C 72 % 5.87 C
3885 07-05-2019 11:40:00 10.8 C 70 % 5.56 C
3886 07-05-2019 11:45:00 11 C 69 % 5.54 C
3887 07-05-2019 11:50:00 11.2 C 67 % 5.31 C
3888 07-05-2019 11:55:00 11.3 C 65 % 4.97 C
3889 07-05-2019 12:00:00 11.5 C 62 % 4.48 C
3890 07-05-2019 12:05:00 11.7 C 64 % 5.13 C
3891 07-05-2019 12:10:00 11.8 C 61 % 4.53 C
3892 07-05-2019 12:15:00 11.9 C 61 % 4.63 C
3893 07-05-2019 12:20:00 12.1 C 61 % 4.82 C
3894 07-05-2019 12:25:00 12.1 C 61 % 4.82 C
3895 07-05-2019 12:30:00 12 C 60 % 4.49 C
3896 07-05-2019 12:35:00